Darstellungsparameter: Aktuell verwendete Einstellungen:
Skalierung der Graphiken ... ?
xyx+y,   Skalierungsfaktor:      Skalierung: Modus: x, Faktor: 1
Darstellungszeitraum ... ?
Vom - - bis: - -   Zeitraum: 30.05.2009 - 29.08.2009
Min/Max/Avg-Anzeige ... ?
Zeige MMA aktuell
Zeige MMA Monat
Zeige MMA alles
Zeige --A aktuell
Zeige --A Monat
Zeige --A alles
Keine MMA-Anzeige
MMA:
Minimum Maximum Average (ber die Originaldaten)
MMA-Basis: 23.02.2003 - 04.09.2009
Quicknavigation für Darstellung... ?
Tage:      1T, 2T, 3T, 5T -1T -2T -3T -5T +1T +2T +3T +5T
Wochen: 1W, 2W, 3W -1W -2W -3W +1W +2W +3W
Monate: 1M, 3M, 6M -1M -3M -6M +1M +3M +6M
Jahre:    1J, 3J, 5J, 10J -1J -3J -5J -10J +1J +3J +5J +10J
Nutze für die Darstellung ... ?
Originaldaten oder Mittelwerte auf ...
Stundenbasis Tagesbasis Wochenbasis
Monatsbasis Jahresbasis      Datenbasis: Original-Daten
Darstellen als:
Statistik (Auto) Statistik J:M      Darstellung:
Zur Graphik,    zurück zur Übersicht aller Sensoren.
 
Tabellarische Datenbersicht: ?
 
Sensor: Nr:Datum:Temp:Abs-Feuchte:Windchill:Wind:
Aussen-T/F 1 30-05-2009 00:00:03 14.4 C 5.44 g/m*3 14.4 C 0 km/h
2 30-05-2009 00:12:03 14.3 C 5.65 g/m*3 14.3 C 0 km/h
3 30-05-2009 00:24:03 14.1 C 5.46 g/m*3 14.1 C 0 km/h
4 30-05-2009 00:36:03 13.8 C 5.48 g/m*3 13.8 C 0 km/h
5 30-05-2009 00:48:03 13.5 C 5.38 g/m*3 13.5 C 0 km/h
6 30-05-2009 01:00:03 13.4 C 5.46 g/m*3 13.4 C 0 km/h
7 30-05-2009 01:12:03 13 C 5.67 g/m*3 13 C 0 km/h
8 30-05-2009 01:24:03 12.8 C 5.71 g/m*3 12.8 C 0 km/h
9 30-05-2009 01:36:03 12.7 C 5.57 g/m*3 12.7 C 0 km/h
10 30-05-2009 01:48:03 12.4 C 5.79 g/m*3 12.4 C 0 km/h
11 30-05-2009 02:00:03 12.1 C 5.9 g/m*3 12.1 C 0 km/h
12 30-05-2009 02:12:03 11.9 C 6.04 g/m*3 11.9 C 0 km/h
13 30-05-2009 02:24:03 11.6 C 6.03 g/m*3 11.6 C 0 km/h
14 30-05-2009 02:36:03 11.5 C 5.99 g/m*3 11.5 C 0 km/h
15 30-05-2009 02:48:03 11.5 C 6.09 g/m*3 11.5 C 0 km/h
16 30-05-2009 03:00:03 11.4 C 5.95 g/m*3 11.4 C 0 km/h
17 30-05-2009 03:12:03 11.4 C 5.75 g/m*3 11.4 C 0 km/h
18 30-05-2009 03:24:04 11.5 C 5.68 g/m*3 11.5 C 0 km/h
19 30-05-2009 03:36:04 11.4 C 5.75 g/m*3 11.4 C 0 km/h
20 30-05-2009 03:48:04 11.3 C 5.71 g/m*3 11.3 C 0 km/h
21 30-05-2009 04:00:04 11.1 C 5.74 g/m*3 11.1 C 0 km/h
22 30-05-2009 04:12:04 11 C 5.91 g/m*3 11 C 0 km/h
23 30-05-2009 04:24:04 10.8 C 5.93 g/m*3 10.8 C 0 km/h
24 30-05-2009 04:36:04 10.8 C 5.93 g/m*3 10.8 C 0 km/h
25 30-05-2009 04:48:04 10.7 C 5.89 g/m*3 10.7 C 0 km/h
Sensor: Nr:Datum:Temp:Abs-Feuchte:Windchill:Wind:
Aussen-T/F 26 30-05-2009 05:00:04 10.6 C 5.95 g/m*3 10.6 C 0 km/h
27 30-05-2009 05:12:04 10.4 C 5.88 g/m*3 10.4 C 0 km/h
28 30-05-2009 05:24:04 10.2 C 6.19 g/m*3 10.2 C 0 km/h
29 30-05-2009 05:36:04 10.1 C 6.34 g/m*3 10.1 C 0 km/h
30 30-05-2009 05:48:04 10 C 6.58 g/m*3 10 C 0 km/h
31 30-05-2009 06:00:04 9.9 C 6.54 g/m*3 9.9 C 0 km/h
32 30-05-2009 06:12:04 9.9 C 6.54 g/m*3 9.9 C 0 km/h
33 30-05-2009 06:24:04 9.9 C 6.54 g/m*3 9.9 C 0 km/h
34 30-05-2009 06:36:04 9.9 C 6.72 g/m*3 9.9 C 0 km/h
35 30-05-2009 06:48:04 10 C 6.67 g/m*3 10 C 0 km/h
36 30-05-2009 07:00:04 10.1 C 6.71 g/m*3 10.1 C 0 km/h
37 30-05-2009 07:12:04 10.3 C 6.9 g/m*3 10.3 C 0 km/h
38 30-05-2009 07:24:05 10.5 C 6.89 g/m*3 10.5 C 0 km/h
39 30-05-2009 07:36:02 10.8 C 6.92 g/m*3 10.8 C 0 km/h
40 30-05-2009 07:48:02 11.1 C 6.95 g/m*3 11.1 C 0 km/h
41 30-05-2009 08:00:02 11.4 C 6.98 g/m*3 11.4 C 0 km/h
42 30-05-2009 08:12:01 11.7 C 6.9 g/m*3 11.7 C 0 km/h
43 30-05-2009 08:24:02 12.3 C 6.84 g/m*3 12.3 C 0 km/h
44 30-05-2009 08:36:02 12.7 C 6.68 g/m*3 12.7 C 0 km/h
45 30-05-2009 08:48:01 13.4 C 6.51 g/m*3 13.4 C 0 km/h
46 30-05-2009 09:00:01 13.8 C 6.31 g/m*3 13.8 C 0 km/h
47 30-05-2009 09:12:02 14.2 C 6.35 g/m*3 14.2 C 0 km/h
48 30-05-2009 09:24:01 14.8 C 6.33 g/m*3 14.8 C 0 km/h
49 30-05-2009 09:36:01 15.3 C 6.4 g/m*3 15.3 C 0 km/h
50 30-05-2009 09:48:01 15.9 C 6.37 g/m*3 15.9 C 0 km/h
Sensor: Nr:Datum:Temp:Abs-Feuchte:Windchill:Wind:
Aussen-T/F 51 30-05-2009 10:00:01 16.5 C 6.32 g/m*3 16.5 C 0 km/h
52 30-05-2009 10:12:01 16.9 C 6.04 g/m*3 16.9 C 0 km/h
53 30-05-2009 10:24:00 17.6 C 6.15 g/m*3 17.6 C 0 km/h
54 30-05-2009 10:36:00 18.2 C 6.22 g/m*3 18.2 C 0 km/h
55 30-05-2009 10:48:00 18.9 C 6.48 g/m*3 18.9 C 0 km/h
56 30-05-2009 11:00:00 19.6 C 6.25 g/m*3 19.6 C 0 km/h
57 30-05-2009 11:12:00 19.6 C 6.25 g/m*3 19.6 C 0 km/h
58 30-05-2009 11:24:00 19.9 C 6.19 g/m*3 19.9 C 0 km/h
59 30-05-2009 11:36:00 20.6 C 6.26 g/m*3 20.6 C 0 km/h
60 30-05-2009 11:48:00 21.2 C 5.93 g/m*3 21.2 C 0 km/h
61 30-05-2009 12:00:00 21.4 C 5.44 g/m*3 21.4 C 0 km/h
62 30-05-2009 12:12:59 23 C 5.34 g/m*3 23 C 0 km/h
63 30-05-2009 12:24:00 21.6 C 5.5 g/m*3 21.6 C 0 km/h
64 30-05-2009 12:36:00 22.1 C 5.08 g/m*3 22.1 C 0 km/h
65 30-05-2009 12:48:59 22 C 5.05 g/m*3 22 C 0 km/h
66 30-05-2009 13:00:59 21.5 C 5.09 g/m*3 21.5 C 0 km/h
67 30-05-2009 13:11:59 24.3 C 5.09 g/m*3 24.3 C 0 km/h
68 30-05-2009 13:24:59 26.5 C 5.01 g/m*3 26.5 C 0 km/h
69 30-05-2009 13:36:59 26.6 C 5.03 g/m*3 26.6 C 0 km/h
70 30-05-2009 13:48:58 25.8 C 4.82 g/m*3 25.8 C 0 km/h
71 30-05-2009 14:00:59 24.9 C 4.58 g/m*3 24.9 C 0 km/h
72 30-05-2009 14:13:00 23.2 C 4.16 g/m*3 23.2 C 0 km/h
73 30-05-2009 14:24:58 22.7 C 4.65 g/m*3 22.7 C 0 km/h
74 30-05-2009 14:36:58 24.1 C 4.38 g/m*3 24.1 C 0 km/h
75 30-05-2009 14:48:58 25.7 C 4.79 g/m*3 25.7 C 0 km/h
Sensor: Nr:Datum:Temp:Abs-Feuchte:Windchill:Wind:
Aussen-T/F 76 30-05-2009 15:00:58 25.4 C 4.71 g/m*3 25.4 C 0 km/h
77 30-05-2009 15:12:58 25.1 C 4.63 g/m*3 25.1 C 0 km/h
78 30-05-2009 15:24:58 25.7 C 4.79 g/m*3 25.7 C 0 km/h
79 30-05-2009 15:36:57 26.6 C 5.03 g/m*3 26.6 C 0 km/h
80 30-05-2009 15:48:58 25.3 C 4.68 g/m*3 25.3 C 0 km/h
81 30-05-2009 16:00:57 26 C 4.87 g/m*3 26 C 0 km/h
82 30-05-2009 16:12:57 27.5 C 5.29 g/m*3 27.5 C 0 km/h
83 30-05-2009 16:24:57 28.2 C 5.5 g/m*3 28.2 C 0 km/h
84 30-05-2009 16:36:58 28.2 C 5.5 g/m*3 28.2 C 0 km/h
85 30-05-2009 16:48:57 29.1 C 5.78 g/m*3 29.1 C 0 km/h
86 30-05-2009 17:00:57 28.6 C 5.62 g/m*3 28.6 C 0 km/h
87 30-05-2009 17:12:57 28.3 C 5.53 g/m*3 28.3 C 0 km/h
88 30-05-2009 17:24:57 26.9 C 5.12 g/m*3 26.9 C 0 km/h
89 30-05-2009 17:36:57 25.1 C 4.63 g/m*3 25.1 C 0 km/h
90 30-05-2009 17:48:56 27.9 C 5.41 g/m*3 27.9 C 0 km/h
91 30-05-2009 18:00:56 28.6 C 5.62 g/m*3 28.6 C 0 km/h
92 30-05-2009 18:12:57 29.4 C 5.87 g/m*3 29.4 C 0 km/h
93 30-05-2009 18:24:56 26.6 C 5.03 g/m*3 26.6 C 0 km/h
94 30-05-2009 18:36:56 25.2 C 4.66 g/m*3 25.2 C 0 km/h
95 30-05-2009 18:48:55 25.7 C 4.79 g/m*3 25.7 C 0 km/h
96 30-05-2009 19:00:56 26.9 C 5.12 g/m*3 26.9 C 0 km/h
97 30-05-2009 19:12:56 27.2 C 5.2 g/m*3 27.2 C 0 km/h
98 30-05-2009 19:24:56 27.1 C 5.18 g/m*3 27.1 C 0 km/h
99 30-05-2009 19:36:55 26.8 C 5.09 g/m*3 26.8 C 0 km/h
100 30-05-2009 19:48:56 26.1 C 4.9 g/m*3 26.1 C 0 km/h
Sensor: Nr:Datum:Temp:Abs-Feuchte:Windchill:Wind:
Aussen-T/F 101 30-05-2009 20:00:55 25.5 C 4.73 g/m*3 25.5 C 0 km/h
102 30-05-2009 20:12:55 25.1 C 4.86 g/m*3 25.1 C 0 km/h
103 30-05-2009 20:24:55 24.5 C 4.92 g/m*3 24.5 C 0 km/h
104 30-05-2009 20:36:55 23.6 C 5.32 g/m*3 23.6 C 0 km/h
105 30-05-2009 20:48:55 22.6 C 5.42 g/m*3 22.6 C 0 km/h
106 30-05-2009 21:00:55 21.6 C 5.88 g/m*3 21.6 C 0 km/h
107 30-05-2009 21:12:56 20.9 C 6.19 g/m*3 20.9 C 0 km/h
108 30-05-2009 21:24:54 20.4 C 6.19 g/m*3 20.4 C 0 km/h
109 30-05-2009 21:36:54 19.7 C 6.28 g/m*3 19.7 C 0 km/h
110 30-05-2009 21:48:54 19.6 C 6.58 g/m*3 19.6 C 0 km/h
111 30-05-2009 22:00:54 18.9 C 6.48 g/m*3 18.9 C 0 km/h
112 30-05-2009 22:12:54 18.7 C 6.72 g/m*3 18.7 C 0 km/h
113 30-05-2009 22:24:54 18.2 C 6.53 g/m*3 18.2 C 0 km/h
114 30-05-2009 22:36:54 17.8 C 6.68 g/m*3 17.8 C 0 km/h
115 30-05-2009 22:48:54 17.5 C 6.71 g/m*3 17.5 C 0 km/h
116 30-05-2009 23:01:54 17.5 C 6.86 g/m*3 17.5 C 0 km/h
117 30-05-2009 23:13:54 17.3 C 6.78 g/m*3 17.3 C 0 km/h
118 30-05-2009 23:25:54 17.2 C 6.88 g/m*3 17.2 C 0 km/h
119 30-05-2009 23:37:54 17 C 6.95 g/m*3 17 C 0 km/h
120 30-05-2009 23:49:54 17 C 6.95 g/m*3 17 C 0 km/h
121 31-05-2009 00:01:54 16.6 C 6.92 g/m*3 16.6 C 0 km/h
122 31-05-2009 00:13:54 16.4 C 7.12 g/m*3 16.4 C 0 km/h
123 31-05-2009 00:25:54 16.3 C 7.21 g/m*3 16.3 C 0 km/h
124 31-05-2009 00:37:54 16.6 C 7.35 g/m*3 16.6 C 0 km/h
125 31-05-2009 00:49:55 16.7 C 7.39 g/m*3 16.7 C 0 km/h
Sensor: Nr:Datum:Temp:Abs-Feuchte:Windchill:Wind:
Aussen-T/F 126 31-05-2009 01:01:55 16.7 C 7.39 g/m*3 16.7 C 0 km/h
127 31-05-2009 01:13:55 16.4 C 7.4 g/m*3 16.4 C 0 km/h
128 31-05-2009 01:25:55 16 C 7.36 g/m*3 16 C 0 km/h
129 31-05-2009 01:37:55 15.5 C 7.4 g/m*3 15.5 C 0 km/h
130 31-05-2009 01:49:55 15.6 C 7.71 g/m*3 15.6 C 0 km/h
131 31-05-2009 02:01:55 15.8 C 7.67 g/m*3 15.8 C 0 km/h
132 31-05-2009 02:13:55 15.8 C 7.67 g/m*3 15.8 C 0 km/h
133 31-05-2009 02:25:55 15.7 C 7.76 g/m*3 15.7 C 0 km/h
134 31-05-2009 02:37:55 15.9 C 7.85 g/m*3 15.9 C 0 km/h
135 31-05-2009 02:49:55 15.9 C 7.85 g/m*3 15.9 C 0 km/h
136 31-05-2009 03:01:55 15.8 C 7.81 g/m*3 15.8 C 0 km/h
137 31-05-2009 03:13:55 15.9 C 7.72 g/m*3 15.9 C 0 km/h
138 31-05-2009 03:25:55 15.6 C 7.71 g/m*3 15.6 C 0 km/h
139 31-05-2009 03:37:55 15.5 C 7.8 g/m*3 15.5 C 0 km/h
140 31-05-2009 03:49:55 15.5 C 7.8 g/m*3 15.5 C 0 km/h
141 31-05-2009 04:01:55 15.6 C 7.98 g/m*3 15.6 C 0 km/h
142 31-05-2009 04:13:55 15.5 C 7.93 g/m*3 15.5 C 0 km/h
143 31-05-2009 04:25:55 15.2 C 7.92 g/m*3 15.2 C 0 km/h
144 31-05-2009 04:37:56 15.4 C 8.01 g/m*3 15.4 C 0 km/h
145 31-05-2009 04:49:56 15.5 C 8.06 g/m*3 15.5 C 0 km/h
146 31-05-2009 05:01:56 15.5 C 8.06 g/m*3 15.5 C 0 km/h
147 31-05-2009 05:13:56 15.4 C 8.01 g/m*3 15.4 C 0 km/h
148 31-05-2009 05:25:56 15.4 C 8.01 g/m*3 15.4 C 0 km/h
149 31-05-2009 05:37:56 15.4 C 8.01 g/m*3 15.4 C 0 km/h
150 31-05-2009 05:49:56 15.4 C 8.15 g/m*3 15.4 C 0 km/h
Sensor: Nr:Datum:Temp:Abs-Feuchte:Windchill:Wind:
Aussen-T/F 151 31-05-2009 06:01:56 15.3 C 8.1 g/m*3 15.3 C 0 km/h
152 31-05-2009 06:13:56 15.4 C 8.28 g/m*3 15.4 C 0 km/h
153 31-05-2009 06:25:56 15.6 C 8.38 g/m*3 15.6 C 0 km/h
154 31-05-2009 06:37:56 15.8 C 8.35 g/m*3 15.8 C 0 km/h
155 31-05-2009 06:49:56 15.9 C 8.4 g/m*3 15.9 C 0 km/h
156 31-05-2009 07:01:56 16 C 8.31 g/m*3 16 C 0 km/h
157 31-05-2009 07:13:56 15.9 C 8.26 g/m*3 15.9 C 0 km/h
158 31-05-2009 07:25:56 16 C 8.31 g/m*3 16 C 0 km/h
159 31-05-2009 07:37:56 16 C 8.58 g/m*3 16 C 0 km/h
160 31-05-2009 07:49:56 16 C 8.58 g/m*3 16 C 0 km/h
161 31-05-2009 08:01:54 15.9 C 8.67 g/m*3 15.9 C 0 km/h
162 31-05-2009 08:13:54 16.2 C 8.83 g/m*3 16.2 C 0 km/h
163 31-05-2009 08:25:54 16.7 C 8.95 g/m*3 16.7 C 0 km/h
164 31-05-2009 08:37:53 17.5 C 8.8 g/m*3 17.5 C 0 km/h
165 31-05-2009 08:49:54 17.6 C 8.7 g/m*3 17.6 C 0 km/h
166 31-05-2009 09:01:53 17.7 C 8.75 g/m*3 17.7 C 0 km/h
167 31-05-2009 09:13:53 18.3 C 8.6 g/m*3 18.3 C 0 km/h
168 31-05-2009 09:25:53 18.6 C 8.59 g/m*3 18.6 C 0 km/h
169 31-05-2009 09:37:54 18.9 C 8.59 g/m*3 18.9 C 0 km/h
170 31-05-2009 09:49:53 18.9 C 8.26 g/m*3 18.9 C 0 km/h
171 31-05-2009 10:01:53 19.3 C 8.29 g/m*3 19.3 C 0 km/h
172 31-05-2009 10:13:53 20.1 C 8.34 g/m*3 20.1 C 0 km/h
173 31-05-2009 10:25:53 20.4 C 7.96 g/m*3 20.4 C 0 km/h
174 31-05-2009 10:37:53 20.5 C 8.01 g/m*3 20.5 C 0 km/h
175 31-05-2009 10:49:52 20.5 C 8.19 g/m*3 20.5 C 0 km/h
Sensor: Nr:Datum:Temp:Abs-Feuchte:Windchill:Wind:
Aussen-T/F 176 31-05-2009 11:01:53 20.9 C 8.01 g/m*3 20.9 C 0 km/h
177 31-05-2009 11:13:54 21.2 C 7.78 g/m*3 21.2 C 0 km/h
178 31-05-2009 11:25:52 21.4 C 7.5 g/m*3 21.4 C 0 km/h
179 31-05-2009 11:37:52 21.9 C 7.53 g/m*3 21.9 C 0 km/h
180 31-05-2009 11:49:51 22.4 C 7.35 g/m*3 22.4 C 0 km/h
181 31-05-2009 12:01:52 23.3 C 7.11 g/m*3 23.3 C 0 km/h
182 31-05-2009 12:13:52 23.9 C 7.14 g/m*3 23.9 C 0 km/h
183 31-05-2009 12:25:52 23 C 6.78 g/m*3 23 C 0 km/h
184 31-05-2009 12:37:51 22.7 C 7.07 g/m*3 22.7 C 0 km/h
185 31-05-2009 12:49:52 22.2 C 7.07 g/m*3 22.2 C 0 km/h
186 31-05-2009 13:01:51 23.1 C 6.82 g/m*3 23.1 C 0 km/h
187 31-05-2009 13:13:51 25.6 C 6.43 g/m*3 25.6 C 0 km/h
188 31-05-2009 13:25:51 26.1 C 5.39 g/m*3 26.1 C 0 km/h
189 31-05-2009 13:37:51 23.5 C 6.13 g/m*3 23.5 C 0 km/h
190 31-05-2009 13:49:51 23.1 C 5.99 g/m*3 23.1 C 0 km/h
191 31-05-2009 14:01:51 24.5 C 6.49 g/m*3 24.5 C 0 km/h
192 31-05-2009 14:13:51 25 C 6.22 g/m*3 25 C 0 km/h
193 31-05-2009 14:25:50 25.4 C 5.89 g/m*3 25.4 C 0 km/h
194 31-05-2009 14:37:51 25.7 C 5.99 g/m*3 25.7 C 0 km/h
195 31-05-2009 14:49:50 25.6 C 5.95 g/m*3 25.6 C 0 km/h
196 31-05-2009 15:01:50 25.8 C 5.3 g/m*3 25.8 C 0 km/h
197 31-05-2009 15:13:50 26.3 C 5.2 g/m*3 26.3 C 0 km/h
198 31-05-2009 15:25:50 25.6 C 5 g/m*3 25.6 C 0 km/h
199 31-05-2009 15:37:50 26.7 C 5.32 g/m*3 26.7 C 0 km/h
200 31-05-2009 15:49:49 27.4 C 5.26 g/m*3 27.4 C 0 km/h
Sensor: Nr:Datum:Temp:Abs-Feuchte:Windchill:Wind:
Aussen-T/F 201 31-05-2009 16:01:50 27.1 C 5.18 g/m*3 27.1 C 0 km/h
202 31-05-2009 16:13:50 27.1 C 5.18 g/m*3 27.1 C 0 km/h
203 31-05-2009 16:25:50 28.1 C 5.47 g/m*3 28.1 C 0 km/h
204 31-05-2009 16:37:49 27.1 C 5.18 g/m*3 27.1 C 0 km/h
205 31-05-2009 16:49:50 27 C 5.15 g/m*3 27 C 0 km/h
206 31-05-2009 17:01:49 25.4 C 5.41 g/m*3 25.4 C 0 km/h
207 31-05-2009 17:13:49 25.5 C 5.21 g/m*3 25.5 C 0 km/h
208 31-05-2009 17:25:49 25.8 C 5.3 g/m*3 25.8 C 0 km/h
209 31-05-2009 17:37:48 25.8 C 5.54 g/m*3 25.8 C 0 km/h
210 31-05-2009 17:49:49 25.5 C 5.21 g/m*3 25.5 C 0 km/h
211 31-05-2009 18:01:48 24.8 C 5.46 g/m*3 24.8 C 0 km/h
212 31-05-2009 18:13:48 27.5 C 5.29 g/m*3 27.5 C 0 km/h
213 31-05-2009 18:25:48 25.6 C 5.24 g/m*3 25.6 C 0 km/h
214 31-05-2009 18:37:49 25.7 C 5.75 g/m*3 25.7 C 0 km/h
215 31-05-2009 18:49:48 27 C 5.4 g/m*3 27 C 0 km/h
216 31-05-2009 19:01:48 27.5 C 5.56 g/m*3 27.5 C 0 km/h
217 31-05-2009 19:13:48 27.5 C 5.56 g/m*3 27.5 C 0 km/h
218 31-05-2009 19:25:48 27.6 C 5.59 g/m*3 27.6 C 0 km/h
219 31-05-2009 19:37:47 26.8 C 5.6 g/m*3 26.8 C 0 km/h
220 31-05-2009 19:49:48 25.6 C 5.95 g/m*3 25.6 C 0 km/h
221 31-05-2009 20:01:47 24.1 C 5.69 g/m*3 24.1 C 0 km/h
222 31-05-2009 20:13:47 24.1 C 5.91 g/m*3 24.1 C 0 km/h
223 31-05-2009 20:25:48 23.3 C 6.06 g/m*3 23.3 C 0 km/h
224 31-05-2009 20:37:47 22.9 C 6.34 g/m*3 22.9 C 0 km/h
225 31-05-2009 20:49:47 22.2 C 6.48 g/m*3 22.2 C 0 km/h
Sensor: Nr:Datum:Temp:Abs-Feuchte:Windchill:Wind:
Aussen-T/F 226 31-05-2009 21:01:47 21.4 C 6.75 g/m*3 21.4 C 0 km/h
227 31-05-2009 21:13:47 20.8 C 6.88 g/m*3 20.8 C 0 km/h
228 31-05-2009 21:25:47 20 C 6.57 g/m*3 20 C 0 km/h
229 31-05-2009 21:37:46 19.6 C 6.75 g/m*3 19.6 C 0 km/h
230 31-05-2009 21:49:47 19.2 C 6.76 g/m*3 19.2 C 0 km/h
231 31-05-2009 22:01:46 18.9 C 6.97 g/m*3 18.9 C 0 km/h
232 31-05-2009 22:13:46 18.6 C 7 g/m*3 18.6 C 0 km/h
233 31-05-2009 22:25:46 18.4 C 7.08 g/m*3 18.4 C 0 km/h
234 31-05-2009 22:37:46 18 C 7.07 g/m*3 18 C 0 km/h
235 31-05-2009 22:49:01 17.8 C 7.29 g/m*3 17.8 C 0 km/h
236 31-05-2009 23:01:01 17.7 C 7.24 g/m*3 17.7 C 0 km/h
237 31-05-2009 23:13:01 17.4 C 7.26 g/m*3 17.4 C 0 km/h
238 31-05-2009 23:25:01 17.2 C 7.32 g/m*3 17.2 C 0 km/h
239 31-05-2009 23:37:01 16.9 C 7.34 g/m*3 16.9 C 0 km/h
240 31-05-2009 23:49:00 16.6 C 7.35 g/m*3 16.6 C 0 km/h
241 01-06-2009 00:01:00 16.6 C 7.49 g/m*3 16.6 C 0 km/h
242 01-06-2009 00:13:00 16.3 C 7.49 g/m*3 16.3 C 0 km/h
243 01-06-2009 00:26:01 16.1 C 7.54 g/m*3 16.1 C 0 km/h
244 01-06-2009 00:38:01 15.9 C 7.85 g/m*3 15.9 C 0 km/h
245 01-06-2009 00:50:01 15.6 C 7.85 g/m*3 15.6 C 0 km/h
246 01-06-2009 01:02:01 15.6 C 7.98 g/m*3 15.6 C 0 km/h
247 01-06-2009 01:14:01 15.2 C 7.92 g/m*3 15.2 C 0 km/h
248 01-06-2009 01:26:01 14.9 C 7.9 g/m*3 14.9 C 0 km/h
249 01-06-2009 01:38:01 14.8 C 8.11 g/m*3 14.8 C 0 km/h
250 01-06-2009 01:50:01 14.6 C 8.01 g/m*3 14.6 C 0 km/h
Sensor: Nr:Datum:Temp:Abs-Feuchte:Windchill:Wind:
Aussen-T/F 251 01-06-2009 02:02:01 14.5 C 7.96 g/m*3 14.5 C 0 km/h
252 01-06-2009 02:14:01 14.3 C 8.11 g/m*3 14.3 C 0 km/h
253 01-06-2009 02:26:01 14.1 C 8.13 g/m*3 14.1 C 0 km/h
254 01-06-2009 02:38:01 13.7 C 8.05 g/m*3 13.7 C 0 km/h
255 01-06-2009 02:50:01 13.8 C 8.22 g/m*3 13.8 C 0 km/h
256 01-06-2009 03:02:01 13.6 C 8.24 g/m*3 13.6 C 0 km/h
257 01-06-2009 03:14:01 13.4 C 8.25 g/m*3 13.4 C 0 km/h
258 01-06-2009 03:26:01 13.3 C 8.2 g/m*3 13.3 C 0 km/h
259 01-06-2009 03:38:01 13.1 C 8.22 g/m*3 13.1 C 0 km/h
260 01-06-2009 03:50:01 13 C 8.28 g/m*3 13 C 0 km/h
261 01-06-2009 04:02:01 12.9 C 8.34 g/m*3 12.9 C 0 km/h
262 01-06-2009 04:14:02 12.8 C 8.4 g/m*3 12.8 C 0 km/h
263 01-06-2009 04:26:02 12.6 C 8.3 g/m*3 12.6 C 0 km/h
264 01-06-2009 04:38:02 12.5 C 8.36 g/m*3 12.5 C 0 km/h
265 01-06-2009 04:50:02 12.4 C 8.3 g/m*3 12.4 C 0 km/h
266 01-06-2009 05:02:02 12.2 C 8.2 g/m*3 12.2 C 0 km/h
267 01-06-2009 05:14:02 12.3 C 8.25 g/m*3 12.3 C 0 km/h
268 01-06-2009 05:26:02 12.4 C 8.41 g/m*3 12.4 C 0 km/h
269 01-06-2009 05:38:02 12.6 C 8.52 g/m*3 12.6 C 0 km/h
270 01-06-2009 05:50:02 12.8 C 8.51 g/m*3 12.8 C 0 km/h
271 01-06-2009 06:02:02 12.8 C 8.51 g/m*3 12.8 C 0 km/h
272 01-06-2009 06:14:02 13 C 8.39 g/m*3 13 C 0 km/h
273 01-06-2009 06:26:02 13.2 C 8.5 g/m*3 13.2 C 0 km/h
274 01-06-2009 06:38:02 13.2 C 8.38 g/m*3 13.2 C 0 km/h
275 01-06-2009 06:50:02 13.5 C 8.54 g/m*3 13.5 C 0 km/h
Sensor: Nr:Datum:Temp:Abs-Feuchte:Windchill:Wind:
Aussen-T/F 276 01-06-2009 07:02:02 13.5 C 8.54 g/m*3 13.5 C 0 km/h
277 01-06-2009 07:14:02 13.6 C 8.59 g/m*3 13.6 C 0 km/h
278 01-06-2009 07:26:02 13.8 C 8.7 g/m*3 13.8 C 0 km/h
279 01-06-2009 07:38:02 14.3 C 8.72 g/m*3 14.3 C 0 km/h
280 01-06-2009 07:50:02 14.4 C 8.65 g/m*3 14.4 C 0 km/h
281 01-06-2009 08:02:03 14.3 C 8.72 g/m*3 14.3 C 0 km/h
282 01-06-2009 08:14:03 14.5 C 8.83 g/m*3 14.5 C 0 km/h
283 01-06-2009 08:26:03 15.1 C 8.9 g/m*3 15.1 C 0 km/h
284 01-06-2009 08:38:01 15.9 C 8.94 g/m*3 15.9 C 0 km/h
285 01-06-2009 08:50:01 16.9 C 8.92 g/m*3 16.9 C 0 km/h
286 01-06-2009 09:02:00 17.1 C 8.73 g/m*3 17.1 C 0 km/h
287 01-06-2009 09:14:00 17.6 C 9 g/m*3 17.6 C 0 km/h
288 01-06-2009 09:26:01 18.2 C 8.7 g/m*3 18.2 C 0 km/h
289 01-06-2009 09:38:01 18.3 C 8.76 g/m*3 18.3 C 0 km/h
290 01-06-2009 09:50:00 18.7 C 8.81 g/m*3 18.7 C 0 km/h
291 01-06-2009 10:02:01 19.6 C 8.78 g/m*3 19.6 C 0 km/h
292 01-06-2009 10:14:01 20.1 C 8.52 g/m*3 20.1 C 0 km/h
293 01-06-2009 10:26:00 20.8 C 8.87 g/m*3 20.8 C 0 km/h
294 01-06-2009 10:38:00 21.7 C 9.16 g/m*3 21.7 C 0 km/h
295 01-06-2009 10:50:00 22.1 C 8.39 g/m*3 22.1 C 0 km/h
296 01-06-2009 11:14:00 22.8 C 8.53 g/m*3 22.8 C 0 km/h
297 01-06-2009 11:14:00 22.5 C 8.39 g/m*3 22.5 C 0 km/h
298 01-06-2009 11:14:00 22.8 C 8.53 g/m*3 22.8 C 0 km/h
299 01-06-2009 11:14:00 22.5 C 8.39 g/m*3 22.5 C 0 km/h
300 01-06-2009 11:26:00 22.6 C 8.44 g/m*3 22.6 C 0 km/h
Sensor: Nr:Datum:Temp:Abs-Feuchte:Windchill:Wind:
Aussen-T/F 301 01-06-2009 11:37:59 23.3 C 8.15 g/m*3 23.3 C 0 km/h
302 01-06-2009 11:50:59 24.5 C 8.06 g/m*3 24.5 C 0 km/h
303 01-06-2009 12:02:59 24.5 C 7.83 g/m*3 24.5 C 0 km/h
304 01-06-2009 12:14:58 25.7 C 7.42 g/m*3 25.7 C 0 km/h
305 01-06-2009 12:26:58 26.5 C 7.76 g/m*3 26.5 C 0 km/h
306 01-06-2009 12:38:59 26.8 C 7.38 g/m*3 26.8 C 0 km/h
307 01-06-2009 12:50:58 26.2 C 7.39 g/m*3 26.2 C 0 km/h
308 01-06-2009 13:02:58 25.4 C 8.24 g/m*3 25.4 C 0 km/h
309 01-06-2009 13:14:59 24.8 C 8.65 g/m*3 24.8 C 0 km/h
310 01-06-2009 13:26:59 25.6 C 8.09 g/m*3 25.6 C 0 km/h
311 01-06-2009 13:38:58 25.7 C 8.38 g/m*3 25.7 C 0 km/h
312 01-06-2009 13:50:58 24.4 C 8.46 g/m*3 24.4 C 0 km/h
313 01-06-2009 14:02:58 19.6 C 9.12 g/m*3 19.6 C 0 km/h
314 01-06-2009 14:14:58 19 C 11.73 g/m*3 19 C 0 km/h
315 01-06-2009 14:26:59 20.1 C 12.69 g/m*3 20.1 C 0 km/h
316 01-06-2009 14:38:57 22.4 C 11.12 g/m*3 22.4 C 0 km/h
317 01-06-2009 14:50:57 22.7 C 11.11 g/m*3 22.7 C 0 km/h
318 01-06-2009 15:02:57 22.1 C 12.1 g/m*3 22.1 C 0 km/h
319 01-06-2009 15:14:57 22.6 C 12.25 g/m*3 22.6 C 0 km/h
320 01-06-2009 15:26:57 23.7 C 11.55 g/m*3 23.7 C 0 km/h
321 01-06-2009 15:38:57 23.6 C 11.91 g/m*3 23.6 C 0 km/h
322 01-06-2009 15:50:57 24.6 C 11.25 g/m*3 24.6 C 0 km/h
323 01-06-2009 16:02:57 25.9 C 9.44 g/m*3 25.9 C 0 km/h
324 01-06-2009 16:14:56 26.9 C 8.7 g/m*3 26.9 C 0 km/h
325 01-06-2009 16:26:56 28.8 C 7.39 g/m*3 28.8 C 0 km/h
Sensor: Nr:Datum:Temp:Abs-Feuchte:Windchill:Wind:
Aussen-T/F 326 01-06-2009 16:38:56 29.4 C 6.75 g/m*3 29.4 C 0 km/h
327 01-06-2009 16:50:56 25.6 C 6.9 g/m*3 25.6 C 0 km/h
328 01-06-2009 17:02:56 21.6 C 11.57 g/m*3 21.6 C 0 km/h
329 01-06-2009 17:14:56 22.4 C 11.72 g/m*3 22.4 C 0 km/h
330 01-06-2009 17:26:56 23.3 C 11.5 g/m*3 23.3 C 0 km/h
331 01-06-2009 17:38:56 24.3 C 10.4 g/m*3 24.3 C 0 km/h
332 01-06-2009 17:50:56 24.7 C 9.96 g/m*3 24.7 C 0 km/h
333 01-06-2009 18:02:55 24.7 C 9.51 g/m*3 24.7 C 0 km/h
334 01-06-2009 18:14:56 25.4 C 8.95 g/m*3 25.4 C 0 km/h
335 01-06-2009 18:26:57 25.9 C 9.44 g/m*3 25.9 C 0 km/h
336 01-06-2009 18:38:55 28 C 8.16 g/m*3 28 C 0 km/h
337 01-06-2009 18:50:55 27.4 C 8.95 g/m*3 27.4 C 0 km/h
338 01-06-2009 19:02:54 25.6 C 8.81 g/m*3 25.6 C 0 km/h
339 01-06-2009 19:14:55 23.7 C 8.34 g/m*3 23.7 C 0 km/h
340 01-06-2009 19:26:55 24.2 C 8.14 g/m*3 24.2 C 0 km/h
341 01-06-2009 19:38:55 25.3 C 8.19 g/m*3 25.3 C 0 km/h
342 01-06-2009 19:50:54 25.3 C 7.73 g/m*3 25.3 C 0 km/h
343 01-06-2009 20:02:55 25.2 C 7.68 g/m*3 25.2 C 0 km/h
344 01-06-2009 20:14:54 24.9 C 7.78 g/m*3 24.9 C 0 km/h
345 01-06-2009 20:26:54 24.5 C 7.61 g/m*3 24.5 C 0 km/h
346 01-06-2009 20:38:54 23.7 C 7.49 g/m*3 23.7 C 0 km/h
347 01-06-2009 20:50:54 22.6 C 7.83 g/m*3 22.6 C 0 km/h
348 01-06-2009 21:02:53 22.1 C 8.59 g/m*3 22.1 C 0 km/h
349 01-06-2009 21:14:54 21.1 C 8.48 g/m*3 21.1 C 0 km/h
350 01-06-2009 21:26:54 20.3 C 8.62 g/m*3 20.3 C 0 km/h
Sensor: Nr:Datum:Temp:Abs-Feuchte:Windchill:Wind:
Aussen-T/F 351 01-06-2009 21:38:54 19.7 C 8.49 g/m*3 19.7 C 0 km/h
352 01-06-2009 21:50:53 19.3 C 8.63 g/m*3 19.3 C 0 km/h
353 01-06-2009 22:02:54 19 C 8.64 g/m*3 19 C 0 km/h
354 01-06-2009 22:14:53 18.6 C 8.91 g/m*3 18.6 C 0 km/h
355 01-06-2009 22:26:53 18.4 C 8.81 g/m*3 18.4 C 0 km/h
356 01-06-2009 22:39:09 18.1 C 8.96 g/m*3 18.1 C 0 km/h
357 01-06-2009 22:51:09 17.8 C 9.11 g/m*3 17.8 C 0 km/h
358 01-06-2009 23:03:09 17.4 C 8.89 g/m*3 17.4 C 0 km/h
359 01-06-2009 23:15:09 17.2 C 8.93 g/m*3 17.2 C 0 km/h
360 01-06-2009 23:27:09 17 C 9.12 g/m*3 17 C 0 km/h
361 01-06-2009 23:39:09 16.9 C 9.21 g/m*3 16.9 C 0 km/h
362 01-06-2009 23:51:09 16.6 C 9.18 g/m*3 16.6 C 0 km/h
363 02-06-2009 00:03:09 16.4 C 9.21 g/m*3 16.4 C 0 km/h
364 02-06-2009 00:15:09 16.1 C 9.18 g/m*3 16.1 C 0 km/h
365 02-06-2009 00:27:09 16 C 9.26 g/m*3 16 C 0 km/h
366 02-06-2009 00:39:09 15.8 C 9.56 g/m*3 15.8 C 0 km/h
367 02-06-2009 00:51:09 15.5 C 9.65 g/m*3 15.5 C 0 km/h
368 02-06-2009 01:03:09 15.3 C 9.66 g/m*3 15.3 C 0 km/h
369 02-06-2009 01:15:09 15 C 9.62 g/m*3 15 C 0 km/h
370 02-06-2009 01:27:10 14.9 C 9.69 g/m*3 14.9 C 0 km/h
371 02-06-2009 01:39:10 14.7 C 9.82 g/m*3 14.7 C 0 km/h
372 02-06-2009 01:51:10 14.6 C 9.76 g/m*3 14.6 C 0 km/h
373 02-06-2009 02:03:10 14.4 C 9.64 g/m*3 14.4 C 0 km/h
374 02-06-2009 02:15:10 14.1 C 9.59 g/m*3 14.1 C 0 km/h
375 02-06-2009 02:27:10 14 C 9.65 g/m*3 14 C 0 km/h
Sensor: Nr:Datum:Temp:Abs-Feuchte:Windchill:Wind:
Aussen-T/F 376 02-06-2009 02:39:10 13.7 C 9.59 g/m*3 13.7 C 0 km/h
377 02-06-2009 02:51:10 13.7 C 9.59 g/m*3 13.7 C 0 km/h
378 02-06-2009 03:03:10 13.7 C 9.59 g/m*3 13.7 C 0 km/h
379 02-06-2009 03:15:10 13.5 C 9.59 g/m*3 13.5 C 0 km/h
380 02-06-2009 03:27:10 13.4 C 9.53 g/m*3 13.4 C 0 km/h
381 02-06-2009 03:39:10 13.4 C 9.53 g/m*3 13.4 C 0 km/h
382 02-06-2009 03:51:10 13.4 C 9.53 g/m*3 13.4 C 0 km/h
383 02-06-2009 04:03:10 13.4 C 9.42 g/m*3 13.4 C 0 km/h
384 02-06-2009 04:15:10 13.2 C 9.3 g/m*3 13.2 C 0 km/h
385 02-06-2009 04:27:10 13 C 9.19 g/m*3 13 C 0 km/h
386 02-06-2009 04:39:10 12.9 C 9.35 g/m*3 12.9 C 0 km/h
387 02-06-2009 04:51:10 12.8 C 9.3 g/m*3 12.8 C 0 km/h
388 02-06-2009 05:03:10 12.7 C 9.35 g/m*3 12.7 C 0 km/h
389 02-06-2009 05:15:11 12.5 C 9.24 g/m*3 12.5 C 0 km/h
390 02-06-2009 05:27:11 12.4 C 9.18 g/m*3 12.4 C 0 km/h
391 02-06-2009 05:39:11 12.4 C 9.18 g/m*3 12.4 C 0 km/h
392 02-06-2009 05:51:11 12.4 C 9.18 g/m*3 12.4 C 0 km/h
393 02-06-2009 06:03:11 12.4 C 9.18 g/m*3 12.4 C 0 km/h
394 02-06-2009 06:15:11 12.6 C 9.18 g/m*3 12.6 C 0 km/h
395 02-06-2009 06:27:11 12.9 C 8.9 g/m*3 12.9 C 0 km/h
396 02-06-2009 06:39:54 13.1 C 8.22 g/m*3 13.1 C 0 km/h
397 02-06-2009 06:51:54 13.5 C 7.95 g/m*3 13.5 C 0 km/h
398 02-06-2009 07:03:53 13.6 C 7.77 g/m*3 13.6 C 0 km/h
399 02-06-2009 07:15:54 13.7 C 7.7 g/m*3 13.7 C 0 km/h
400 02-06-2009 07:27:54 13.8 C 7.86 g/m*3 13.8 C 0 km/h
Sensor: Nr:Datum:Temp:Abs-Feuchte:Windchill:Wind:
Aussen-T/F 401 02-06-2009 07:39:53 13.7 C 7.7 g/m*3 13.7 C 0 km/h
402 02-06-2009 07:51:53 14 C 7.6 g/m*3 14 C 0 km/h
403 02-06-2009 08:03:53 14.2 C 7.82 g/m*3 14.2 C 0 km/h
404 02-06-2009 08:15:53 14.4 C 7.91 g/m*3 14.4 C 0 km/h
405 02-06-2009 08:27:53 14.6 C 7.63 g/m*3 14.6 C 0 km/h
406 02-06-2009 08:39:53 14.7 C 7.68 g/m*3 14.7 C 0 km/h
407 02-06-2009 08:51:53 15.1 C 7.74 g/m*3 15.1 C 0 km/h
408 02-06-2009 09:03:53 15.5 C 7.8 g/m*3 15.5 C 0 km/h
409 02-06-2009 09:15:52 15.8 C 7.81 g/m*3 15.8 C 0 km/h
410 02-06-2009 09:27:52 16 C 7.63 g/m*3 16 C 0 km/h
411 02-06-2009 09:39:53 16.5 C 7.86 g/m*3 16.5 C 0 km/h
412 02-06-2009 09:51:52 17 C 7.81 g/m*3 17 C 0 km/h
413 02-06-2009 10:03:52 17.6 C 7.8 g/m*3 17.6 C 0 km/h
414 02-06-2009 10:15:51 18 C 7.83 g/m*3 18 C 0 km/h
415 02-06-2009 10:27:51 18.3 C 7.82 g/m*3 18.3 C 0 km/h
416 02-06-2009 10:39:52 18.8 C 7.73 g/m*3 18.8 C 0 km/h
417 02-06-2009 10:51:51 18.8 C 7.57 g/m*3 18.8 C 0 km/h
418 02-06-2009 11:03:51 19.3 C 7.8 g/m*3 19.3 C 0 km/h
419 02-06-2009 11:15:52 19.5 C 7.89 g/m*3 19.5 C 0 km/h
420 02-06-2009 11:27:52 20.6 C 8.23 g/m*3 20.6 C 0 km/h
421 02-06-2009 11:39:51 20.5 C 8.19 g/m*3 20.5 C 0 km/h
422 02-06-2009 11:51:51 20.8 C 8.15 g/m*3 20.8 C 0 km/h
423 02-06-2009 12:03:51 21.8 C 7.87 g/m*3 21.8 C 0 km/h
424 02-06-2009 12:15:51 22.4 C 7.75 g/m*3 22.4 C 0 km/h
425 02-06-2009 12:27:51 23.8 C 7.74 g/m*3 23.8 C 0 km/h
Sensor: Nr:Datum:Temp:Abs-Feuchte:Windchill:Wind:
Aussen-T/F 426 02-06-2009 12:39:50 23.2 C 7.28 g/m*3 23.2 C 0 km/h
427 02-06-2009 12:51:51 23.8 C 7.31 g/m*3 23.8 C 0 km/h
428 02-06-2009 13:03:50 24.1 C 7 g/m*3 24.1 C 0 km/h
429 02-06-2009 13:15:50 24.3 C 6.86 g/m*3 24.3 C 0 km/h
430 02-06-2009 13:27:50 24.4 C 6.45 g/m*3 24.4 C 0 km/h
431 02-06-2009 13:39:50 24.6 C 5.85 g/m*3 24.6 C 0 km/h
432 02-06-2009 13:51:50 24.4 C 5.56 g/m*3 24.4 C 0 km/h
433 02-06-2009 14:03:50 24.3 C 5.53 g/m*3 24.3 C 0 km/h
434 02-06-2009 14:15:49 24.6 C 5.85 g/m*3 24.6 C 0 km/h
435 02-06-2009 14:27:49 24 C 5.87 g/m*3 24 C 0 km/h
436 02-06-2009 14:39:50 25.2 C 5.82 g/m*3 25.2 C 0 km/h
437 02-06-2009 14:51:49 24.6 C 5.63 g/m*3 24.6 C 0 km/h
438 02-06-2009 15:03:49 24.7 C 5.21 g/m*3 24.7 C 0 km/h
439 02-06-2009 15:15:48 25.4 C 5.41 g/m*3 25.4 C 0 km/h
440 02-06-2009 15:27:48 25.7 C 5.03 g/m*3 25.7 C 0 km/h
441 02-06-2009 15:39:49 25.9 C 5.57 g/m*3 25.9 C 0 km/h
442 02-06-2009 15:51:48 27 C 5.4 g/m*3 27 C 0 km/h
443 02-06-2009 16:03:48 26.5 C 5.76 g/m*3 26.5 C 0 km/h
444 02-06-2009 16:15:49 26 C 5.11 g/m*3 26 C 0 km/h
445 02-06-2009 16:27:49 26.7 C 5.06 g/m*3 26.7 C 0 km/h
446 02-06-2009 16:39:48 27.1 C 5.18 g/m*3 27.1 C 0 km/h
447 02-06-2009 16:51:48 27 C 5.15 g/m*3 27 C 0 km/h
448 02-06-2009 17:03:48 27.8 C 5.38 g/m*3 27.8 C 0 km/h
449 02-06-2009 17:15:48 27.5 C 5.29 g/m*3 27.5 C 0 km/h
450 02-06-2009 17:27:49 27.1 C 5.18 g/m*3 27.1 C 0 km/h
Sensor: Nr:Datum:Temp:Abs-Feuchte:Windchill:Wind:
Aussen-T/F 451 02-06-2009 17:39:47 27.8 C 5.38 g/m*3 27.8 C 0 km/h
452 02-06-2009 17:51:48 27.6 C 5.32 g/m*3 27.6 C 0 km/h
453 02-06-2009 18:03:48 27.8 C 5.38 g/m*3 27.8 C 0 km/h
454 02-06-2009 18:15:47 28.1 C 5.47 g/m*3 28.1 C 0 km/h
455 02-06-2009 18:27:47 28.5 C 5.59 g/m*3 28.5 C 0 km/h
456 02-06-2009 18:39:47 29.2 C 5.81 g/m*3 29.2 C 0 km/h
457 02-06-2009 18:51:47 27.5 C 5.29 g/m*3 27.5 C 0 km/h
458 02-06-2009 19:03:47 28.6 C 5.62 g/m*3 28.6 C 0 km/h
459 02-06-2009 19:15:46 28.2 C 5.5 g/m*3 28.2 C 0 km/h
460 02-06-2009 19:27:46 28.1 C 5.47 g/m*3 28.1 C 0 km/h
461 02-06-2009 19:39:47 27.4 C 5.26 g/m*3 27.4 C 0 km/h
462 02-06-2009 19:51:46 27.9 C 5.68 g/m*3 27.9 C 0 km/h
463 02-06-2009 20:03:46 27.6 C 5.59 g/m*3 27.6 C 0 km/h
464 02-06-2009 20:15:46 27.3 C 5.49 g/m*3 27.3 C 0 km/h
465 02-06-2009 20:27:46 26.4 C 5.73 g/m*3 26.4 C 0 km/h
466 02-06-2009 20:39:46 25.3 C 5.85 g/m*3 25.3 C 0 km/h
467 02-06-2009 20:51:46 24.2 C 5.72 g/m*3 24.2 C 0 km/h
468 02-06-2009 21:03:45 23.9 C 5.62 g/m*3 23.9 C 0 km/h
469 02-06-2009 21:15:46 23.3 C 5.23 g/m*3 23.3 C 0 km/h
470 02-06-2009 21:27:46 22.7 C 5.46 g/m*3 22.7 C 0 km/h
471 02-06-2009 21:39:45 22.4 C 5.56 g/m*3 22.4 C 0 km/h
472 02-06-2009 21:51:13 22.1 C 5.47 g/m*3 22.1 C 0 km/h
473 02-06-2009 22:03:13 21.7 C 5.72 g/m*3 21.7 C 0 km/h
474 02-06-2009 22:15:13 21.5 C 5.66 g/m*3 21.5 C 0 km/h
475 02-06-2009 22:27:13 21.2 C 5.56 g/m*3 21.2 C 0 km/h
Sensor: Nr:Datum:Temp:Abs-Feuchte:Windchill:Wind:
Aussen-T/F 476 02-06-2009 22:39:13 20.9 C 5.83 g/m*3 20.9 C 0 km/h
477 02-06-2009 22:51:13 20.6 C 5.91 g/m*3 20.6 C 0 km/h
478 02-06-2009 23:03:13 20.3 C 5.8 g/m*3 20.3 C 0 km/h
479 02-06-2009 23:15:13 20.2 C 5.77 g/m*3 20.2 C 0 km/h
480 02-06-2009 23:27:45 19.9 C 5.84 g/m*3 19.9 C 0 km/h
481 02-06-2009 23:39:45 19.7 C 5.77 g/m*3 19.7 C 0 km/h
482 02-06-2009 23:51:45 19.9 C 6.01 g/m*3 19.9 C 0 km/h
483 03-06-2009 00:03:45 19.7 C 5.77 g/m*3 19.7 C 0 km/h
484 03-06-2009 00:15:45 19.4 C 5.67 g/m*3 19.4 C 0 km/h
485 03-06-2009 00:27:45 19 C 5.38 g/m*3 19 C 0 km/h
486 03-06-2009 00:39:44 18.6 C 5.57 g/m*3 18.6 C 0 km/h
487 03-06-2009 00:51:45 18.2 C 5.44 g/m*3 18.2 C 0 km/h
488 03-06-2009 01:03:44 17.9 C 5.5 g/m*3 17.9 C 0 km/h
489 03-06-2009 01:15:44 17.7 C 5.43 g/m*3 17.7 C 0 km/h
490 03-06-2009 01:27:44 17.3 C 5.3 g/m*3 17.3 C 0 km/h
491 03-06-2009 01:39:44 17.1 C 5.24 g/m*3 17.1 C 0 km/h
492 03-06-2009 01:51:44 16.8 C 5.29 g/m*3 16.8 C 0 km/h
493 03-06-2009 02:03:44 16.4 C 5.16 g/m*3 16.4 C 0 km/h
494 03-06-2009 02:15:43 16 C 5.18 g/m*3 16 C 0 km/h
495 03-06-2009 02:27:43 15.7 C 5.22 g/m*3 15.7 C 0 km/h
496 03-06-2009 02:39:44 15.4 C 5.65 g/m*3 15.4 C 0 km/h
497 03-06-2009 02:52:45 15.1 C 5.81 g/m*3 15.1 C 0 km/h
498 03-06-2009 03:04:45 15 C 5.77 g/m*3 15 C 0 km/h
499 03-06-2009 03:16:45 14.6 C 5.88 g/m*3 14.6 C 0 km/h
500 03-06-2009 03:28:45 14.4 C 5.81 g/m*3 14.4 C 0 km/h
Sensor: Nr:Datum:Temp:Abs-Feuchte:Windchill:Wind:
Aussen-T/F 501 03-06-2009 03:40:45 14.2 C 5.74 g/m*3 14.2 C 0 km/h
502 03-06-2009 03:52:45 13.8 C 5.96 g/m*3 13.8 C 0 km/h
503 03-06-2009 04:04:45 13.7 C 6.04 g/m*3 13.7 C 0 km/h
504 03-06-2009 04:16:44 13.6 C 6 g/m*3 13.6 C 0 km/h
505 03-06-2009 04:28:44 13.5 C 5.97 g/m*3 13.5 C 0 km/h
506 03-06-2009 04:40:45 13.3 C 6.01 g/m*3 13.3 C 0 km/h
507 03-06-2009 04:52:44 13.1 C 5.93 g/m*3 13.1 C 0 km/h
508 03-06-2009 05:04:44 13 C 5.9 g/m*3 13 C 0 km/h
509 03-06-2009 05:16:44 13 C 5.9 g/m*3 13 C 0 km/h
510 03-06-2009 05:28:44 12.8 C 5.94 g/m*3 12.8 C 0 km/h
511 03-06-2009 05:40:44 12.7 C 6.01 g/m*3 12.7 C 0 km/h
512 03-06-2009 05:52:44 12.7 C 6.01 g/m*3 12.7 C 0 km/h
513 03-06-2009 06:04:43 12.9 C 6.2 g/m*3 12.9 C 0 km/h
514 03-06-2009 06:16:43 13 C 6.24 g/m*3 13 C 0 km/h
515 03-06-2009 06:28:43 13 C 6.24 g/m*3 13 C 0 km/h
516 03-06-2009 06:40:43 13 C 6.35 g/m*3 13 C 0 km/h
517 03-06-2009 06:52:43 12.9 C 6.54 g/m*3 12.9 C 0 km/h
518 03-06-2009 07:04:42 12.8 C 6.27 g/m*3 12.8 C 0 km/h
519 03-06-2009 07:16:43 12.7 C 6.35 g/m*3 12.7 C 0 km/h
520 03-06-2009 07:28:43 12.5 C 6.05 g/m*3 12.5 C 0 km/h
521 03-06-2009 07:40:43 12.8 C 6.16 g/m*3 12.8 C 0 km/h
522 03-06-2009 07:52:42 12.9 C 6.2 g/m*3 12.9 C 0 km/h
523 03-06-2009 08:04:43 12.8 C 5.94 g/m*3 12.8 C 0 km/h
524 03-06-2009 08:16:42 12.8 C 5.94 g/m*3 12.8 C 0 km/h
525 03-06-2009 08:28:42 13 C 5.9 g/m*3 13 C 0 km/h
Sensor: Nr:Datum:Temp:Abs-Feuchte:Windchill:Wind:
Aussen-T/F 526 03-06-2009 08:40:42 13 C 5.67 g/m*3 13 C 0 km/h
527 03-06-2009 08:52:42 13.1 C 5.48 g/m*3 13.1 C 0 km/h
528 03-06-2009 09:04:42 13.5 C 5.5 g/m*3 13.5 C 0 km/h
529 03-06-2009 09:16:41 13.9 C 5.39 g/m*3 13.9 C 0 km/h
530 03-06-2009 09:28:41 13.9 C 5.04 g/m*3 13.9 C 0 km/h
531 03-06-2009 09:40:41 14.6 C 5.13 g/m*3 14.6 C 0 km/h
532 03-06-2009 09:52:41 14.7 C 5.67 g/m*3 14.7 C 0 km/h
533 03-06-2009 10:04:41 14.2 C 5.62 g/m*3 14.2 C 0 km/h
534 03-06-2009 10:16:41 14.9 C 5.23 g/m*3 14.9 C 0 km/h
535 03-06-2009 10:28:41 14.6 C 5.63 g/m*3 14.6 C 0 km/h
536 03-06-2009 10:40:41 15 C 5.39 g/m*3 15 C 0 km/h
537 03-06-2009 10:52:41 15.4 C 5.26 g/m*3 15.4 C 0 km/h
538 03-06-2009 11:04:40 14.9 C 5.23 g/m*3 14.9 C 0 km/h
539 03-06-2009 11:16:41 15.2 C 5.19 g/m*3 15.2 C 0 km/h
540 03-06-2009 11:28:41 16 C 5.31 g/m*3 16 C 0 km/h
541 03-06-2009 11:40:40 16.8 C 5.43 g/m*3 16.8 C 0 km/h
542 03-06-2009 11:52:40 17 C 5.21 g/m*3 17 C 0 km/h
543 03-06-2009 12:04:40 16.7 C 4.97 g/m*3 16.7 C 0 km/h
544 03-06-2009 12:16:40 16.8 C 4.86 g/m*3 16.8 C 0 km/h
545 03-06-2009 12:28:40 17.7 C 4.98 g/m*3 17.7 C 0 km/h
546 03-06-2009 12:40:39 17.9 C 4.73 g/m*3 17.9 C 0 km/h
547 03-06-2009 12:52:40 18.8 C 4.83 g/m*3 18.8 C 0 km/h
548 03-06-2009 13:04:40 17.3 C 4.42 g/m*3 17.3 C 0 km/h
549 03-06-2009 13:16:39 18.2 C 4.66 g/m*3 18.2 C 0 km/h
550 03-06-2009 13:28:39 19.5 C 4.53 g/m*3 19.5 C 0 km/h
Sensor: Nr:Datum:Temp:Abs-Feuchte:Windchill:Wind:
Aussen-T/F 551 03-06-2009 13:40:39 18.4 C 4.09 g/m*3 18.4 C 0 km/h
552 03-06-2009 13:52:39 19.8 C 4.27 g/m*3 19.8 C 0 km/h
553 03-06-2009 14:04:39 19.3 C 4.15 g/m*3 19.3 C 0 km/h
554 03-06-2009 14:16:38 20.1 C 4.35 g/m*3 20.1 C 0 km/h
555 03-06-2009 14:28:38 19.3 C 4.31 g/m*3 19.3 C 0 km/h
556 03-06-2009 14:40:39 19.1 C 4.43 g/m*3 19.1 C 0 km/h
557 03-06-2009 14:52:38 19.7 C 4.92 g/m*3 19.7 C 0 km/h
558 03-06-2009 15:04:38 20.5 C 4.45 g/m*3 20.5 C 0 km/h
559 03-06-2009 15:16:39 20 C 4.67 g/m*3 20 C 0 km/h
560 03-06-2009 15:28:39 20.8 C 4.53 g/m*3 20.8 C 0 km/h
561 03-06-2009 15:40:38 20.4 C 4.6 g/m*3 20.4 C 0 km/h
562 03-06-2009 15:52:37 20.9 C 4.55 g/m*3 20.9 C 0 km/h
563 03-06-2009 16:04:38 20.1 C 4.52 g/m*3 20.1 C 0 km/h
564 03-06-2009 16:16:38 20.4 C 4.42 g/m*3 20.4 C 0 km/h
565 03-06-2009 16:28:38 20.2 C 4.55 g/m*3 20.2 C 0 km/h
566 03-06-2009 16:40:37 20.3 C 4.75 g/m*3 20.3 C 0 km/h
567 03-06-2009 16:52:38 20 C 4.32 g/m*3 20 C 0 km/h
568 03-06-2009 17:04:37 20.3 C 4.57 g/m*3 20.3 C 0 km/h
569 03-06-2009 17:16:37 20.6 C 4.65 g/m*3 20.6 C 0 km/h
570 03-06-2009 17:28:37 20.7 C 4.32 g/m*3 20.7 C 0 km/h
571 03-06-2009 17:40:36 19.4 C 4.34 g/m*3 19.4 C 0 km/h
572 03-06-2009 17:52:37 20.6 C 4.12 g/m*3 20.6 C 0 km/h
573 03-06-2009 18:04:36 19.2 C 3.79 g/m*3 19.2 C 0 km/h
574 03-06-2009 18:16:36 20.3 C 4.05 g/m*3 20.3 C 0 km/h
575 03-06-2009 18:28:36 19.3 C 3.98 g/m*3 19.3 C 0 km/h
Sensor: Nr:Datum:Temp:Abs-Feuchte:Windchill:Wind:
Aussen-T/F 576 03-06-2009 18:40:37 20 C 4.32 g/m*3 20 C 0 km/h
577 03-06-2009 18:52:36 19 C 4.24 g/m*3 19 C 0 km/h
578 03-06-2009 19:04:36 19.1 C 4.26 g/m*3 19.1 C 0 km/h
579 03-06-2009 19:16:36 18.8 C 4.51 g/m*3 18.8 C 0 km/h
580 03-06-2009 19:28:36 18.1 C 4.64 g/m*3 18.1 C 0 km/h
581 03-06-2009 19:40:36 18 C 4.61 g/m*3 18 C 0 km/h
582 03-06-2009 19:52:36 18 C 4.76 g/m*3 18 C 0 km/h
583 03-06-2009 20:04:36 17.7 C 4.83 g/m*3 17.7 C 0 km/h
584 03-06-2009 20:16:36 16.9 C 5.03 g/m*3 16.9 C 0 km/h
585 03-06-2009 20:28:36 16.6 C 5.09 g/m*3 16.6 C 0 km/h
586 03-06-2009 20:40:35 16.4 C 5.02 g/m*3 16.4 C 0 km/h
587 03-06-2009 20:52:34 16.5 C 4.91 g/m*3 16.5 C 0 km/h
588 03-06-2009 21:04:35 16.1 C 4.8 g/m*3 16.1 C 0 km/h
589 03-06-2009 21:16:35 16 C 4.77 g/m*3 16 C 0 km/h
590 03-06-2009 21:28:35 15.9 C 4.88 g/m*3 15.9 C 0 km/h
591 03-06-2009 21:40:34 15.5 C 4.63 g/m*3 15.5 C 0 km/h
592 03-06-2009 21:52:35 15.4 C 4.73 g/m*3 15.4 C 0 km/h
593 03-06-2009 22:05:35 15.3 C 4.7 g/m*3 15.3 C 0 km/h
594 03-06-2009 22:17:35 15.2 C 4.67 g/m*3 15.2 C 0 km/h
595 03-06-2009 22:29:35 15 C 4.62 g/m*3 15 C 0 km/h
596 03-06-2009 22:41:35 14.7 C 4.78 g/m*3 14.7 C 0 km/h
597 03-06-2009 22:53:35 14.9 C 4.84 g/m*3 14.9 C 0 km/h
598 03-06-2009 23:05:35 14.8 C 4.69 g/m*3 14.8 C 0 km/h
599 03-06-2009 23:17:35 14.6 C 4.88 g/m*3 14.6 C 0 km/h
600 03-06-2009 23:29:36 14.5 C 4.97 g/m*3 14.5 C 0 km/h
Sensor: Nr:Datum:Temp:Abs-Feuchte:Windchill:Wind:
Aussen-T/F 601 03-06-2009 23:41:36 14.2 C 5.01 g/m*3 14.2 C 0 km/h
602 03-06-2009 23:53:36 14 C 5.07 g/m*3 14 C 0 km/h
603 04-06-2009 00:05:36 13.7 C 5.21 g/m*3 13.7 C 0 km/h
604 04-06-2009 00:17:36 13.7 C 5.33 g/m*3 13.7 C 0 km/h
605 04-06-2009 00:29:36 13.4 C 5.23 g/m*3 13.4 C 0 km/h
606 04-06-2009 00:41:36 13.1 C 5.14 g/m*3 13.1 C 0 km/h
607 04-06-2009 00:53:36 13 C 5.22 g/m*3 13 C 0 km/h
608 04-06-2009 01:05:36 12.7 C 5.34 g/m*3 12.7 C 0 km/h
609 04-06-2009 01:17:36 12.6 C 5.42 g/m*3 12.6 C 0 km/h
610 04-06-2009 01:29:36 12.7 C 5.45 g/m*3 12.7 C 0 km/h
611 04-06-2009 01:41:36 12.6 C 5.42 g/m*3 12.6 C 0 km/h
612 04-06-2009 01:53:36 12.5 C 5.5 g/m*3 12.5 C 0 km/h
613 04-06-2009 02:05:36 12.5 C 4.95 g/m*3 12.5 C 0 km/h
614 04-06-2009 02:17:36 12.4 C 4.7 g/m*3 12.4 C 0 km/h
615 04-06-2009 02:29:36 12 C 4.48 g/m*3 12 C 0 km/h
616 04-06-2009 02:41:36 11.9 C 4.45 g/m*3 11.9 C 0 km/h
617 04-06-2009 02:53:36 11.7 C 4.18 g/m*3 11.7 C 0 km/h
618 04-06-2009 03:05:36 11.5 C 4.13 g/m*3 11.5 C 0 km/h
619 04-06-2009 03:17:37 11.2 C 3.95 g/m*3 11.2 C 0 km/h
620 04-06-2009 03:29:37 11 C 4 g/m*3 11 C 0 km/h
621 04-06-2009 03:41:37 10.8 C 4.15 g/m*3 10.8 C 0 km/h
622 04-06-2009 03:53:37 10.9 C 4.28 g/m*3 10.9 C 0 km/h
623 04-06-2009 04:05:37 10.8 C 4.15 g/m*3 10.8 C 0 km/h
624 04-06-2009 04:17:37 10.7 C 4.22 g/m*3 10.7 C 0 km/h
625 04-06-2009 04:29:37 10.6 C 4.29 g/m*3 10.6 C 0 km/h
Sensor: Nr:Datum:Temp:Abs-Feuchte:Windchill:Wind:
Aussen-T/F 626 04-06-2009 04:41:37 10.6 C 4.39 g/m*3 10.6 C 0 km/h
627 04-06-2009 04:53:37 10.7 C 4.62 g/m*3 10.7 C 0 km/h
628 04-06-2009 05:05:37 10.5 C 4.85 g/m*3 10.5 C 0 km/h
629 04-06-2009 05:17:37 10.5 C 4.95 g/m*3 10.5 C 0 km/h
630 04-06-2009 05:29:37 10.6 C 5.08 g/m*3 10.6 C 0 km/h
631 04-06-2009 05:41:37 10.7 C 5.11 g/m*3 10.7 C 0 km/h
632 04-06-2009 05:53:37 10.7 C 5.01 g/m*3 10.7 C 0 km/h
633 04-06-2009 06:05:37 10.7 C 5.11 g/m*3 10.7 C 0 km/h
634 04-06-2009 06:17:37 10.7 C 5.01 g/m*3 10.7 C 0 km/h
635 04-06-2009 06:29:37 10.5 C 4.75 g/m*3 10.5 C 0 km/h
636 04-06-2009 06:41:37 10.6 C 4.78 g/m*3 10.6 C 0 km/h
637 04-06-2009 06:53:35 10.7 C 4.91 g/m*3 10.7 C 0 km/h
638 04-06-2009 07:05:35 10.7 C 4.91 g/m*3 10.7 C 0 km/h
639 04-06-2009 07:17:35 11 C 4.8 g/m*3 11 C 0 km/h
640 04-06-2009 07:29:35 10.8 C 5.04 g/m*3 10.8 C 0 km/h
641 04-06-2009 07:41:35 10.8 C 5.34 g/m*3 10.8 C 0 km/h
642 04-06-2009 07:53:35 11 C 5.31 g/m*3 11 C 0 km/h
643 04-06-2009 08:05:34 11.6 C 5.4 g/m*3 11.6 C 0 km/h
644 04-06-2009 08:17:34 11.8 C 5.37 g/m*3 11.8 C 0 km/h
645 04-06-2009 08:29:34 11.9 C 5.3 g/m*3 11.9 C 0 km/h
646 04-06-2009 08:41:34 12.2 C 5.18 g/m*3 12.2 C 0 km/h
647 04-06-2009 08:53:34 12.5 C 5.17 g/m*3 12.5 C 0 km/h
648 04-06-2009 09:05:33 13 C 4.88 g/m*3 13 C 0 km/h
649 04-06-2009 09:17:34 12.8 C 4.59 g/m*3 12.8 C 0 km/h
650 04-06-2009 09:29:34 12.3 C 4.13 g/m*3 12.3 C 0 km/h
Sensor: Nr:Datum:Temp:Abs-Feuchte:Windchill:Wind:
Aussen-T/F 651 04-06-2009 09:41:34 12.7 C 4.23 g/m*3 12.7 C 0 km/h
652 04-06-2009 09:53:33 12.9 C 4.51 g/m*3 12.9 C 0 km/h
653 04-06-2009 10:05:34 13 C 4.2 g/m*3 13 C 0 km/h
654 04-06-2009 10:17:33 13.1 C 4.45 g/m*3 13.1 C 0 km/h
655 04-06-2009 10:29:33 14.1 C 4.49 g/m*3 14.1 C 0 km/h
656 04-06-2009 10:41:33 13.5 C 4.33 g/m*3 13.5 C 0 km/h
657 04-06-2009 10:53:33 13.2 C 4.36 g/m*3 13.2 C 0 km/h
658 04-06-2009 11:05:33 14 C 4.46 g/m*3 14 C 0 km/h
659 04-06-2009 11:17:32 14.7 C 4.53 g/m*3 14.7 C 0 km/h
660 04-06-2009 11:29:32 13.3 C 4.04 g/m*3 13.3 C 0 km/h
661 04-06-2009 11:41:32 13.1 C 3.99 g/m*3 13.1 C 0 km/h
662 04-06-2009 11:53:32 13.5 C 4.33 g/m*3 13.5 C 0 km/h
663 04-06-2009 12:05:32 14.7 C 4.53 g/m*3 14.7 C 0 km/h
664 04-06-2009 12:17:32 14.5 C 4.35 g/m*3 14.5 C 0 km/h
665 04-06-2009 12:29:32 14.6 C 4.25 g/m*3 14.6 C 0 km/h
666 04-06-2009 12:41:32 14.4 C 3.96 g/m*3 14.4 C 0 km/h
667 04-06-2009 12:53:32 14.7 C 4.28 g/m*3 14.7 C 0 km/h
668 04-06-2009 13:05:31 14.7 C 4.41 g/m*3 14.7 C 0 km/h
669 04-06-2009 13:17:32 15.7 C 4.01 g/m*3 15.7 C 0 km/h
670 04-06-2009 13:29:32 15.6 C 3.72 g/m*3 15.6 C 0 km/h
671 04-06-2009 13:41:31 14.9 C 3.95 g/m*3 14.9 C 0 km/h
672 04-06-2009 13:53:31 14.4 C 3.96 g/m*3 14.4 C 0 km/h
673 04-06-2009 14:05:31 15.1 C 4.13 g/m*3 15.1 C 0 km/h
674 04-06-2009 14:17:31 16.2 C 4.14 g/m*3 16.2 C 0 km/h
675 04-06-2009 14:29:31 15.3 C 3.79 g/m*3 15.3 C 0 km/h
Sensor: Nr:Datum:Temp:Abs-Feuchte:Windchill:Wind:
Aussen-T/F 676 04-06-2009 14:41:31 14.8 C 3.67 g/m*3 14.8 C 0 km/h
677 04-06-2009 14:53:30 15.8 C 3.9 g/m*3 15.8 C 0 km/h
678 04-06-2009 15:05:30 16.3 C 4.16 g/m*3 16.3 C 0 km/h
679 04-06-2009 15:17:30 17.5 C 3.88 g/m*3 17.5 C 0 km/h
680 04-06-2009 15:29:30 16.1 C 3.56 g/m*3 16.1 C 0 km/h
681 04-06-2009 15:41:30 15.9 C 3.79 g/m*3 15.9 C 0 km/h
682 04-06-2009 15:53:30 16.4 C 3.77 g/m*3 16.4 C 0 km/h
683 04-06-2009 16:05:30 16.3 C 3.75 g/m*3 16.3 C 0 km/h
684 04-06-2009 16:17:30 16.2 C 3.59 g/m*3 16.2 C 0 km/h
685 04-06-2009 16:29:30 17.2 C 3.66 g/m*3 17.2 C 0 km/h
686 04-06-2009 16:41:30 16.5 C 3.51 g/m*3 16.5 C 0 km/h
687 04-06-2009 16:53:29 16.2 C 3.72 g/m*3 16.2 C 0 km/h
688 04-06-2009 17:05:29 16.1 C 3.84 g/m*3 16.1 C 0 km/h
689 04-06-2009 17:17:29 16.4 C 3.91 g/m*3 16.4 C 0 km/h
690 04-06-2009 17:29:29 15.6 C 3.86 g/m*3 15.6 C 0 km/h
691 04-06-2009 17:41:29 15.6 C 3.99 g/m*3 15.6 C 0 km/h
692 04-06-2009 17:53:28 16.2 C 4.14 g/m*3 16.2 C 0 km/h
693 04-06-2009 18:05:29 16 C 4.09 g/m*3 16 C 0 km/h
694 04-06-2009 18:17:29 15.8 C 4.17 g/m*3 15.8 C 0 km/h
695 04-06-2009 18:29:29 16.1 C 4.25 g/m*3 16.1 C 0 km/h
696 04-06-2009 18:41:29 15.4 C 4.07 g/m*3 15.4 C 0 km/h
697 04-06-2009 18:53:28 15.7 C 4.28 g/m*3 15.7 C 0 km/h
698 04-06-2009 19:05:28 15.3 C 4.18 g/m*3 15.3 C 0 km/h
699 04-06-2009 19:17:28 15.4 C 4.2 g/m*3 15.4 C 0 km/h
700 04-06-2009 19:29:28 15.4 C 4.34 g/m*3 15.4 C 0 km/h
Sensor: Nr:Datum:Temp:Abs-Feuchte:Windchill:Wind:
Aussen-T/F 701 04-06-2009 19:41:28 14.7 C 4.41 g/m*3 14.7 C 0 km/h
702 04-06-2009 19:53:28 15.1 C 4.52 g/m*3 15.1 C 0 km/h
703 04-06-2009 20:05:28 14.9 C 4.59 g/m*3 14.9 C 0 km/h
704 04-06-2009 20:17:27 14.9 C 4.59 g/m*3 14.9 C 0 km/h
705 04-06-2009 20:29:27 14.7 C 4.66 g/m*3 14.7 C 0 km/h
706 04-06-2009 20:41:27 14.5 C 4.73 g/m*3 14.5 C 0 km/h
707 04-06-2009 20:53:27 14.1 C 4.61 g/m*3 14.1 C 0 km/h
708 04-06-2009 21:05:27 14 C 4.7 g/m*3 14 C 0 km/h
709 04-06-2009 21:17:27 13.8 C 4.77 g/m*3 13.8 C 0 km/h
710 04-06-2009 21:29:27 13.7 C 4.86 g/m*3 13.7 C 0 km/h
711 04-06-2009 21:41:27 13.5 C 4.91 g/m*3 13.5 C 0 km/h
712 04-06-2009 21:53:27 13.5 C 5.03 g/m*3 13.5 C 0 km/h
713 04-06-2009 22:06:22 13.3 C 4.97 g/m*3 13.3 C 0 km/h
714 04-06-2009 22:18:22 13.2 C 4.94 g/m*3 13.2 C 0 km/h
715 04-06-2009 22:30:22 13 C 4.99 g/m*3 13 C 0 km/h
716 04-06-2009 22:42:22 13 C 4.88 g/m*3 13 C 0 km/h
717 04-06-2009 22:54:22 12.9 C 4.96 g/m*3 12.9 C 0 km/h
718 04-06-2009 23:06:22 12.7 C 5.01 g/m*3 12.7 C 0 km/h
719 04-06-2009 23:18:22 12.4 C 4.92 g/m*3 12.4 C 0 km/h
720 04-06-2009 23:30:22 12.2 C 4.86 g/m*3 12.2 C 0 km/h
721 04-06-2009 23:42:22 12.1 C 4.93 g/m*3 12.1 C 0 km/h
722 04-06-2009 23:54:22 12 C 5.01 g/m*3 12 C 0 km/h
723 05-06-2009 00:06:22 11.7 C 5.12 g/m*3 11.7 C 0 km/h
724 05-06-2009 00:18:22 11.7 C 5.12 g/m*3 11.7 C 0 km/h
725 05-06-2009 00:30:22 11.6 C 5.09 g/m*3 11.6 C 0 km/h
Sensor: Nr:Datum:Temp:Abs-Feuchte:Windchill:Wind:
Aussen-T/F 726 05-06-2009 00:42:22 11.4 C 4.82 g/m*3 11.4 C 0 km/h
727 05-06-2009 00:54:22 11.2 C 4.76 g/m*3 11.2 C 0 km/h
728 05-06-2009 01:06:22 11.2 C 4.66 g/m*3 11.2 C 0 km/h
729 05-06-2009 01:18:22 11.1 C 4.63 g/m*3 11.1 C 0 km/h
730 05-06-2009 01:30:22 11 C 4.6 g/m*3 11 C 0 km/h
731 05-06-2009 01:42:22 10.9 C 4.67 g/m*3 10.9 C 0 km/h
732 05-06-2009 01:54:23 10.8 C 4.65 g/m*3 10.8 C 0 km/h
733 05-06-2009 02:06:23 10.7 C 4.71 g/m*3 10.7 C 0 km/h
734 05-06-2009 02:18:23 10.4 C 4.72 g/m*3 10.4 C 0 km/h
735 05-06-2009 02:30:23 10 C 4.7 g/m*3 10 C 0 km/h
736 05-06-2009 02:42:23 9.6 C 4.76 g/m*3 9.6 C 0 km/h
737 05-06-2009 02:54:23 9.2 C 4.91 g/m*3 9.2 C 0 km/h
738 05-06-2009 03:06:23 9.2 C 5 g/m*3 9.2 C 0 km/h
739 05-06-2009 03:18:23 9.3 C 5.03 g/m*3 9.3 C 0 km/h
740 05-06-2009 03:30:23 9.2 C 5 g/m*3 9.2 C 0 km/h
741 05-06-2009 03:42:23 9 C 5.11 g/m*3 9 C 0 km/h
742 05-06-2009 03:54:23 8.6 C 5.16 g/m*3 8.6 C 0 km/h
743 05-06-2009 04:06:23 8.6 C 5.16 g/m*3 8.6 C 0 km/h
744 05-06-2009 04:18:23 8.6 C 5.24 g/m*3 8.6 C 0 km/h
745 05-06-2009 04:30:23 8.5 C 5.21 g/m*3 8.5 C 0 km/h
746 05-06-2009 04:42:23 8.5 C 5.29 g/m*3 8.5 C 0 km/h
747 05-06-2009 04:54:23 8.5 C 5.38 g/m*3 8.5 C 0 km/h
748 05-06-2009 05:06:23 8.4 C 5.34 g/m*3 8.4 C 0 km/h
749 05-06-2009 05:18:23 8.1 C 5.33 g/m*3 8.1 C 0 km/h
750 05-06-2009 05:30:23 8.2 C 5.44 g/m*3 8.2 C 0 km/h
Sensor: Nr:Datum:Temp:Abs-Feuchte:Windchill:Wind:
Aussen-T/F 751 05-06-2009 05:42:23 8.4 C 5.6 g/m*3 8.4 C 0 km/h
752 05-06-2009 05:54:24 8.5 C 5.64 g/m*3 8.5 C 0 km/h
753 05-06-2009 06:06:24 8.5 C 5.72 g/m*3 8.5 C 0 km/h
754 05-06-2009 06:18:24 8.5 C 5.64 g/m*3 8.5 C 0 km/h
755 05-06-2009 06:30:24 8.5 C 5.72 g/m*3 8.5 C 0 km/h
756 05-06-2009 06:42:24 8.5 C 5.72 g/m*3 8.5 C 0 km/h
757 05-06-2009 06:54:24 8.7 C 5.79 g/m*3 8.7 C 0 km/h
758 05-06-2009 07:06:28 8.8 C 5.83 g/m*3 8.8 C 0 km/h
759 05-06-2009 07:18:27 8.9 C 5.78 g/m*3 8.9 C 0 km/h
760 05-06-2009 07:30:28 9.2 C 5.63 g/m*3 9.2 C 0 km/h
761 05-06-2009 07:42:28 10 C 5.64 g/m*3 10 C 0 km/h
762 05-06-2009 07:54:27 10.2 C 5.52 g/m*3 10.2 C 0 km/h
763 05-06-2009 08:06:27 10.5 C 5.63 g/m*3 10.5 C 0 km/h
764 05-06-2009 08:18:27 10.8 C 5.63 g/m*3 10.8 C 0 km/h
765 05-06-2009 08:30:27 10.6 C 5.56 g/m*3 10.6 C 0 km/h
766 05-06-2009 08:42:27 10.2 C 5.61 g/m*3 10.2 C 0 km/h
767 05-06-2009 08:54:26 10.4 C 5.78 g/m*3 10.4 C 0 km/h
768 05-06-2009 09:06:27 11.5 C 5.78 g/m*3 11.5 C 0 km/h
769 05-06-2009 09:18:26 12.3 C 5.43 g/m*3 12.3 C 0 km/h
770 05-06-2009 09:30:26 12.7 C 5.12 g/m*3 12.7 C 0 km/h
771 05-06-2009 09:42:26 11.8 C 4.95 g/m*3 11.8 C 0 km/h
772 05-06-2009 09:54:26 12.1 C 5.25 g/m*3 12.1 C 0 km/h
773 05-06-2009 10:06:26 12.7 C 5.12 g/m*3 12.7 C 0 km/h
774 05-06-2009 10:18:25 13.1 C 5.02 g/m*3 13.1 C 0 km/h
775 05-06-2009 10:30:26 12.3 C 4.67 g/m*3 12.3 C 0 km/h
Sensor: Nr:Datum:Temp:Abs-Feuchte:Windchill:Wind:
Aussen-T/F 776 05-06-2009 10:42:26 13.3 C 4.97 g/m*3 13.3 C 0 km/h
777 05-06-2009 10:54:26 12.6 C 4.54 g/m*3 12.6 C 0 km/h
778 05-06-2009 11:06:25 12.3 C 4.56 g/m*3 12.3 C 0 km/h
779 05-06-2009 11:18:26 13 C 4.76 g/m*3 13 C 0 km/h
780 05-06-2009 11:30:25 13.4 C 4.65 g/m*3 13.4 C 0 km/h
781 05-06-2009 11:42:25 14 C 4.34 g/m*3 14 C 0 km/h
782 05-06-2009 11:54:25 14.3 C 4.18 g/m*3 14.3 C 0 km/h
783 05-06-2009 12:06:24 14.6 C 4.38 g/m*3 14.6 C 0 km/h
784 05-06-2009 12:18:25 15.3 C 4.44 g/m*3 15.3 C 0 km/h
785 05-06-2009 12:30:25 15.6 C 4.26 g/m*3 15.6 C 0 km/h
786 05-06-2009 12:42:25 16.1 C 4.25 g/m*3 16.1 C 0 km/h
787 05-06-2009 12:54:24 16.6 C 4.38 g/m*3 16.6 C 0 km/h
788 05-06-2009 13:06:25 18.5 C 4.43 g/m*3 18.5 C 0 km/h
789 05-06-2009 13:18:24 17.7 C 4.22 g/m*3 17.7 C 0 km/h
790 05-06-2009 13:30:24 17.2 C 4.25 g/m*3 17.2 C 0 km/h
791 05-06-2009 13:42:25 16.6 C 4.1 g/m*3 16.6 C 0 km/h
792 05-06-2009 13:54:24 16.2 C 4 g/m*3 16.2 C 0 km/h
793 05-06-2009 14:06:24 16.5 C 4.07 g/m*3 16.5 C 0 km/h
794 05-06-2009 14:18:23 16.8 C 4.15 g/m*3 16.8 C 0 km/h
795 05-06-2009 14:30:23 16.6 C 3.96 g/m*3 16.6 C 0 km/h
796 05-06-2009 14:42:23 16.2 C 3.86 g/m*3 16.2 C 0 km/h
797 05-06-2009 14:54:23 16.4 C 4.19 g/m*3 16.4 C 0 km/h
798 05-06-2009 15:06:23 16.8 C 4.15 g/m*3 16.8 C 0 km/h
799 05-06-2009 15:18:23 16.4 C 3.77 g/m*3 16.4 C 0 km/h
800 05-06-2009 15:30:23 16 C 3.95 g/m*3 16 C 0 km/h
Sensor: Nr:Datum:Temp:Abs-Feuchte:Windchill:Wind:
Aussen-T/F 801 05-06-2009 15:42:23 15.9 C 3.93 g/m*3 15.9 C 0 km/h
802 05-06-2009 15:54:23 15.6 C 3.72 g/m*3 15.6 C 0 km/h
803 05-06-2009 16:06:22 16.8 C 3.86 g/m*3 16.8 C 0 km/h
804 05-06-2009 16:18:22 17.6 C 4.05 g/m*3 17.6 C 0 km/h
805 05-06-2009 16:30:23 18.4 C 4.09 g/m*3 18.4 C 0 km/h
806 05-06-2009 16:42:23 18.9 C 4.05 g/m*3 18.9 C 0 km/h
807 05-06-2009 16:54:22 20.1 C 4 g/m*3 20.1 C 0 km/h
808 05-06-2009 17:06:21 20 C 3.46 g/m*3 20 C 0 km/h
809 05-06-2009 17:18:22 18.4 C 3.3 g/m*3 18.4 C 0 km/h
810 05-06-2009 17:30:22 20.4 C 3.71 g/m*3 20.4 C 0 km/h
811 05-06-2009 17:42:22 20.7 C 3.6 g/m*3 20.7 C 0 km/h
812 05-06-2009 17:54:21 22 C 3.88 g/m*3 22 C 0 km/h
813 05-06-2009 18:06:22 22.9 C 4.09 g/m*3 22.9 C 0 km/h
814 05-06-2009 18:18:21 22.9 C 4.09 g/m*3 22.9 C 0 km/h
815 05-06-2009 18:30:21 22.1 C 3.9 g/m*3 22.1 C 0 km/h
816 05-06-2009 18:42:21 21 C 3.66 g/m*3 21 C 0 km/h
817 05-06-2009 18:54:21 20.7 C 3.6 g/m*3 20.7 C 0 km/h
818 05-06-2009 19:06:21 21 C 3.66 g/m*3 21 C 0 km/h
819 05-06-2009 19:18:20 20.2 C 3.5 g/m*3 20.2 C 0 km/h
820 05-06-2009 19:30:20 18.5 C 3.48 g/m*3 18.5 C 0 km/h
821 05-06-2009 19:42:20 17.7 C 3.92 g/m*3 17.7 C 0 km/h
822 05-06-2009 19:54:20 17.9 C 3.97 g/m*3 17.9 C 0 km/h
823 05-06-2009 20:06:20 17.7 C 4.07 g/m*3 17.7 C 0 km/h
824 05-06-2009 20:18:20 17.2 C 4.25 g/m*3 17.2 C 0 km/h
825 05-06-2009 20:30:20 16.9 C 4.6 g/m*3 16.9 C 0 km/h
Sensor: Nr:Datum:Temp:Abs-Feuchte:Windchill:Wind:
Aussen-T/F 826 05-06-2009 20:42:20 16 C 4.63 g/m*3 16 C 0 km/h
827 05-06-2009 20:54:20 15 C 4.62 g/m*3 15 C 0 km/h
828 05-06-2009 21:06:20 14.2 C 4.76 g/m*3 14.2 C 0 km/h
829 05-06-2009 21:18:20 13.4 C 4.77 g/m*3 13.4 C 0 km/h
830 05-06-2009 21:30:19 13 C 4.65 g/m*3 13 C 0 km/h
831 05-06-2009 21:42:19 12.7 C 4.9 g/m*3 12.7 C 0 km/h
832 05-06-2009 21:54:20 12.2 C 4.86 g/m*3 12.2 C 0 km/h
833 05-06-2009 22:06:19 11.9 C 4.87 g/m*3 11.9 C 0 km/h
834 05-06-2009 22:18:19 11.8 C 5.05 g/m*3 11.8 C 0 km/h
835 05-06-2009 22:31:19 11.4 C 5.03 g/m*3 11.4 C 0 km/h
836 05-06-2009 22:43:19 11.1 C 5.04 g/m*3 11.1 C 0 km/h
837 05-06-2009 22:55:19 11 C 5.1 g/m*3 11 C 0 km/h
838 05-06-2009 23:07:19 10.8 C 5.14 g/m*3 10.8 C 0 km/h
839 05-06-2009 23:19:19 10.5 C 5.14 g/m*3 10.5 C 0 km/h
840 05-06-2009 23:31:19 10.4 C 5.2 g/m*3 10.4 C 0 km/h
841 05-06-2009 23:43:19 10.1 C 5.2 g/m*3 10.1 C 0 km/h
842 05-06-2009 23:55:20 10 C 5.17 g/m*3 10 C 0 km/h
843 06-06-2009 00:07:20 9.8 C 5.29 g/m*3 9.8 C 0 km/h
844 06-06-2009 00:19:20 9.7 C 5.35 g/m*3 9.7 C 0 km/h
845 06-06-2009 00:31:20 9.5 C 5.37 g/m*3 9.5 C 0 km/h
846 06-06-2009 00:43:20 9.1 C 5.32 g/m*3 9.1 C 0 km/h
847 06-06-2009 00:55:20 8.9 C 5.43 g/m*3 8.9 C 0 km/h
848 06-06-2009 01:07:20 8.8 C 5.4 g/m*3 8.8 C 0 km/h
849 06-06-2009 01:19:20 8.6 C 5.33 g/m*3 8.6 C 0 km/h
850 06-06-2009 01:31:20 8.6 C 5.41 g/m*3 8.6 C 0 km/h
Sensor: Nr:Datum:Temp:Abs-Feuchte:Windchill:Wind:
Aussen-T/F 851 06-06-2009 01:43:20 8.5 C 5.55 g/m*3 8.5 C 0 km/h
852 06-06-2009 01:55:20 8.3 C 5.48 g/m*3 8.3 C 0 km/h
853 06-06-2009 02:07:20 8.2 C 5.53 g/m*3 8.2 C 0 km/h
854 06-06-2009 02:19:20 8.1 C 5.49 g/m*3 8.1 C 0 km/h
855 06-06-2009 02:31:20 8.1 C 5.57 g/m*3 8.1 C 0 km/h
856 06-06-2009 02:43:20 8.1 C 5.66 g/m*3 8.1 C 0 km/h
857 06-06-2009 02:55:20 8.1 C 5.66 g/m*3 8.1 C 0 km/h
858 06-06-2009 03:07:20 8 C 5.79 g/m*3 8 C 0 km/h
859 06-06-2009 03:19:20 7.8 C 5.79 g/m*3 7.8 C 0 km/h
860 06-06-2009 03:31:20 7.6 C 5.8 g/m*3 7.6 C 0 km/h
861 06-06-2009 03:43:20 7.5 C 5.84 g/m*3 7.5 C 0 km/h
862 06-06-2009 03:55:20 7.4 C 5.81 g/m*3 7.4 C 0 km/h
863 06-06-2009 04:07:21 7.4 C 5.81 g/m*3 7.4 C 0 km/h
864 06-06-2009 04:19:21 7.4 C 5.81 g/m*3 7.4 C 0 km/h
865 06-06-2009 04:31:21 7.3 C 5.85 g/m*3 7.3 C 0 km/h
866 06-06-2009 04:43:21 7.1 C 5.77 g/m*3 7.1 C 0 km/h
867 06-06-2009 04:55:21 7.2 C 5.89 g/m*3 7.2 C 0 km/h
868 06-06-2009 05:07:21 7.4 C 5.96 g/m*3 7.4 C 0 km/h
869 06-06-2009 05:19:21 7.6 C 6.04 g/m*3 7.6 C 0 km/h
870 06-06-2009 05:31:21 7.8 C 6.04 g/m*3 7.8 C 0 km/h
871 06-06-2009 05:43:21 8 C 6.04 g/m*3 8 C 0 km/h
872 06-06-2009 05:55:21 8.1 C 6.07 g/m*3 8.1 C 0 km/h
873 06-06-2009 06:07:21 8.2 C 6.11 g/m*3 8.2 C 0 km/h
874 06-06-2009 06:19:21 8.4 C 6.19 g/m*3 8.4 C 0 km/h
875 06-06-2009 06:31:21 8.7 C 6.23 g/m*3 8.7 C 0 km/h
Sensor: Nr:Datum:Temp:Abs-Feuchte:Windchill:Wind:
Aussen-T/F 876 06-06-2009 06:43:21 8.7 C 6.05 g/m*3 8.7 C 0 km/h
877 06-06-2009 06:55:21 8.9 C 6.13 g/m*3 8.9 C 0 km/h
878 06-06-2009 07:07:21 8.9 C 6.13 g/m*3 8.9 C 0 km/h
879 06-06-2009 07:19:21 8.9 C 6.13 g/m*3 8.9 C 0 km/h
880 06-06-2009 07:31:21 8.6 C 6.27 g/m*3 8.6 C 0 km/h
881 06-06-2009 07:43:21 8.6 C 6.44 g/m*3 8.6 C 0 km/h
882 06-06-2009 07:55:21 8.6 C 6.62 g/m*3 8.6 C 0 km/h
883 06-06-2009 08:07:22 8.6 C 6.79 g/m*3 8.6 C 0 km/h
884 06-06-2009 08:19:22 8.6 C 6.96 g/m*3 8.6 C 0 km/h
885 06-06-2009 08:31:22 8.3 C 7.08 g/m*3 8.3 C 0 km/h
886 06-06-2009 08:43:22 8.3 C 7.33 g/m*3 8.3 C 0 km/h
887 06-06-2009 08:55:22 8.2 C 7.37 g/m*3 8.2 C 0 km/h
888 06-06-2009 09:07:19 8.5 C 7.6 g/m*3 8.5 C 0 km/h
889 06-06-2009 09:19:19 8.4 C 7.63 g/m*3 8.4 C 0 km/h
890 06-06-2009 09:31:20 8.7 C 7.78 g/m*3 8.7 C 0 km/h
891 06-06-2009 09:43:20 8.7 C 7.87 g/m*3 8.7 C 0 km/h
892 06-06-2009 09:55:19 8.9 C 7.97 g/m*3 8.9 C 0 km/h
893 06-06-2009 10:07:19 9.1 C 7.99 g/m*3 9.1 C 0 km/h
894 06-06-2009 10:19:19 9.1 C 7.99 g/m*3 9.1 C 0 km/h
895 06-06-2009 10:31:19 8.9 C 7.97 g/m*3 8.9 C 0 km/h
896 06-06-2009 10:43:19 9 C 7.93 g/m*3 9 C 0 km/h
897 06-06-2009 10:55:18 9 C 7.93 g/m*3 9 C 0 km/h
898 06-06-2009 11:07:19 9 C 7.93 g/m*3 9 C 0 km/h
899 06-06-2009 11:19:18 9 C 7.93 g/m*3 9 C 0 km/h
900 06-06-2009 11:31:18 9.2 C 8.13 g/m*3 9.2 C 0 km/h
Sensor: Nr:Datum:Temp:Abs-Feuchte:Windchill:Wind:
Aussen-T/F 901 06-06-2009 11:43:18 9.2 C 8.13 g/m*3 9.2 C 0 km/h
902 06-06-2009 11:55:18 9 C 8.02 g/m*3 9 C 0 km/h
903 06-06-2009 12:07:17 9.2 C 8.13 g/m*3 9.2 C 0 km/h
904 06-06-2009 12:19:18 9.4 C 8.32 g/m*3 9.4 C 0 km/h
905 06-06-2009 12:31:18 9.3 C 8.27 g/m*3 9.3 C 0 km/h
906 06-06-2009 12:43:18 9.3 C 8.27 g/m*3 9.3 C 0 km/h
907 06-06-2009 12:55:17 9.5 C 8.37 g/m*3 9.5 C 0 km/h
908 06-06-2009 13:07:18 9.6 C 8.43 g/m*3 9.6 C 0 km/h
909 06-06-2009 13:19:17 9.7 C 8.48 g/m*3 9.7 C 0 km/h
910 06-06-2009 13:31:17 9.7 C 8.57 g/m*3 9.7 C 0 km/h
911 06-06-2009 13:43:17 9.7 C 8.57 g/m*3 9.7 C 0 km/h
912 06-06-2009 13:55:17 9.6 C 8.52 g/m*3 9.6 C 0 km/h
913 06-06-2009 14:07:17 9.8 C 8.63 g/m*3 9.8 C 0 km/h
914 06-06-2009 14:19:16 9.8 C 8.63 g/m*3 9.8 C 0 km/h
915 06-06-2009 14:31:16 9.8 C 8.63 g/m*3 9.8 C 0 km/h
916 06-06-2009 14:43:16 9.6 C 8.43 g/m*3 9.6 C 0 km/h
917 06-06-2009 14:55:16 9.5 C 8.37 g/m*3 9.5 C 0 km/h
918 06-06-2009 15:07:16 9.5 C 8.37 g/m*3 9.5 C 0 km/h
919 06-06-2009 15:19:15 9.4 C 8.32 g/m*3 9.4 C 0 km/h
920 06-06-2009 15:31:16 9.5 C 8.37 g/m*3 9.5 C 0 km/h
921 06-06-2009 15:43:16 9.7 C 8.57 g/m*3 9.7 C 0 km/h
922 06-06-2009 15:55:15 9.8 C 8.63 g/m*3 9.8 C 0 km/h
923 06-06-2009 16:07:15 10.1 C 8.7 g/m*3 10.1 C 0 km/h
924 06-06-2009 16:19:16 10.1 C 8.7 g/m*3 10.1 C 0 km/h
925 06-06-2009 16:31:15 9.9 C 8.68 g/m*3 9.9 C 0 km/h
Sensor: Nr:Datum:Temp:Abs-Feuchte:Windchill:Wind:
Aussen-T/F 926 06-06-2009 16:43:15 10 C 8.64 g/m*3 10 C 0 km/h
927 06-06-2009 16:55:15 9.9 C 8.68 g/m*3 9.9 C 0 km/h
928 06-06-2009 17:07:15 9.9 C 8.59 g/m*3 9.9 C 0 km/h
929 06-06-2009 17:19:15 9.9 C 8.59 g/m*3 9.9 C 0 km/h
930 06-06-2009 17:31:14 10.1 C 8.61 g/m*3 10.1 C 0 km/h
931 06-06-2009 17:43:14 10.3 C 8.71 g/m*3 10.3 C 0 km/h
932 06-06-2009 17:55:15 10.4 C 8.67 g/m*3 10.4 C 0 km/h
933 06-06-2009 18:07:14 10.5 C 8.73 g/m*3 10.5 C 0 km/h
934 06-06-2009 18:19:14 10.9 C 8.95 g/m*3 10.9 C 0 km/h
935 06-06-2009 18:31:02 10.7 C 8.64 g/m*3 10.7 C 0 km/h
936 06-06-2009 18:43:02 10.8 C 8.7 g/m*3 10.8 C 0 km/h
937 06-06-2009 18:55:01 10.7 C 8.45 g/m*3 10.7 C 0 km/h
938 06-06-2009 19:07:02 10.8 C 8.5 g/m*3 10.8 C 0 km/h
939 06-06-2009 19:19:01 10.9 C 8.45 g/m*3 10.9 C 0 km/h
940 06-06-2009 19:31:01 11.1 C 8.56 g/m*3 11.1 C 0 km/h
941 06-06-2009 19:43:01 11 C 8.51 g/m*3 11 C 0 km/h
942 06-06-2009 19:55:01 10.9 C 8.65 g/m*3 10.9 C 0 km/h
943 06-06-2009 20:07:01 10.5 C 8.34 g/m*3 10.5 C 0 km/h
944 06-06-2009 20:19:00 10.4 C 8.29 g/m*3 10.4 C 0 km/h
945 06-06-2009 20:31:00 10.4 C 8.38 g/m*3 10.4 C 0 km/h
946 06-06-2009 20:43:00 10.4 C 8.38 g/m*3 10.4 C 0 km/h
947 06-06-2009 20:55:00 10.3 C 8.33 g/m*3 10.3 C 0 km/h
948 06-06-2009 21:07:00 10.3 C 8.43 g/m*3 10.3 C 0 km/h
949 06-06-2009 21:18:59 10.2 C 8.37 g/m*3 10.2 C 0 km/h
950 06-06-2009 21:31:00 10.2 C 8.37 g/m*3 10.2 C 0 km/h
Sensor: Nr:Datum:Temp:Abs-Feuchte:Windchill:Wind:
Aussen-T/F 951 06-06-2009 21:43:00 10.1 C 8.32 g/m*3 10.1 C 0 km/h
952 06-06-2009 21:55:59 9.8 C 8.26 g/m*3 9.8 C 0 km/h
953 06-06-2009 22:07:59 9.5 C 8.1 g/m*3 9.5 C 0 km/h
954 06-06-2009 22:19:00 9.4 C 8.14 g/m*3 9.4 C 0 km/h
955 06-06-2009 22:31:59 9.4 C 8.23 g/m*3 9.4 C 0 km/h
956 06-06-2009 22:43:59 9.5 C 8.28 g/m*3 9.5 C 0 km/h
957 06-06-2009 22:55:59 9.6 C 8.43 g/m*3 9.6 C 0 km/h
958 06-06-2009 23:07:59 9.5 C 8.37 g/m*3 9.5 C 0 km/h
959 06-06-2009 23:19:59 9.5 C 8.37 g/m*3 9.5 C 0 km/h
960 06-06-2009 23:31:58 9.2 C 8.13 g/m*3 9.2 C 0 km/h
961 06-06-2009 23:43:58 8.8 C 8.01 g/m*3 8.8 C 0 km/h
962 06-06-2009 23:55:59 8.5 C 7.85 g/m*3 8.5 C 0 km/h
963 07-06-2009 00:07:59 8.5 C 7.85 g/m*3 8.5 C 0 km/h
964 07-06-2009 00:19:59 8.3 C 7.75 g/m*3 8.3 C 0 km/h
965 07-06-2009 00:31:58 8.1 C 7.66 g/m*3 8.1 C 0 km/h
966 07-06-2009 00:43:58 7.9 C 7.64 g/m*3 7.9 C 0 km/h
967 07-06-2009 00:55:58 8 C 7.61 g/m*3 8 C 0 km/h
968 07-06-2009 01:07:57 8 C 7.69 g/m*3 8 C 0 km/h
969 07-06-2009 01:19:58 8 C 7.69 g/m*3 8 C 0 km/h
970 07-06-2009 01:31:58 7.9 C 7.72 g/m*3 7.9 C 0 km/h
971 07-06-2009 01:43:58 7.9 C 7.72 g/m*3 7.9 C 0 km/h
972 07-06-2009 01:55:57 8.1 C 7.74 g/m*3 8.1 C 0 km/h
973 07-06-2009 02:07:58 8.2 C 7.87 g/m*3 8.2 C 0 km/h
974 07-06-2009 02:19:57 8.4 C 7.97 g/m*3 8.4 C 0 km/h
975 07-06-2009 02:31:57 8.4 C 7.97 g/m*3 8.4 C 0 km/h
Sensor: Nr:Datum:Temp:Abs-Feuchte:Windchill:Wind:
Aussen-T/F 976 07-06-2009 02:43:57 8.4 C 7.97 g/m*3 8.4 C 0 km/h
977 07-06-2009 02:56:59 8.4 C 7.97 g/m*3 8.4 C 0 km/h
978 07-06-2009 03:08:59 8.5 C 8.11 g/m*3 8.5 C 0 km/h
979 07-06-2009 03:20:59 8.5 C 8.11 g/m*3 8.5 C 0 km/h
980 07-06-2009 03:32:58 8.5 C 8.11 g/m*3 8.5 C 0 km/h
981 07-06-2009 03:44:58 8.4 C 8.06 g/m*3 8.4 C 0 km/h
982 07-06-2009 03:56:58 8.4 C 8.06 g/m*3 8.4 C 0 km/h
983 07-06-2009 04:08:58 8.5 C 8.11 g/m*3 8.5 C 0 km/h
984 07-06-2009 04:20:58 8.5 C 8.11 g/m*3 8.5 C 0 km/h
985 07-06-2009 04:32:58 8.5 C 8.11 g/m*3 8.5 C 0 km/h
986 07-06-2009 04:44:57 8.5 C 8.11 g/m*3 8.5 C 0 km/h
987 07-06-2009 04:56:57 8.5 C 8.11 g/m*3 8.5 C 0 km/h
988 07-06-2009 05:08:58 8.6 C 8.16 g/m*3 8.6 C 0 km/h
989 07-06-2009 05:20:58 8.6 C 8.16 g/m*3 8.6 C 0 km/h
990 07-06-2009 05:32:57 8.6 C 8.16 g/m*3 8.6 C 0 km/h
991 07-06-2009 05:44:57 8.7 C 8.22 g/m*3 8.7 C 0 km/h
992 07-06-2009 05:56:57 8.8 C 8.27 g/m*3 8.8 C 0 km/h
993 07-06-2009 06:08:57 8.9 C 8.32 g/m*3 8.9 C 0 km/h
994 07-06-2009 06:20:57 9.1 C 8.34 g/m*3 9.1 C 0 km/h
995 07-06-2009 06:32:57 9.3 C 8.45 g/m*3 9.3 C 0 km/h
996 07-06-2009 06:44:57 9.5 C 8.56 g/m*3 9.5 C 0 km/h
997 07-06-2009 06:56:57 9.5 C 8.56 g/m*3 9.5 C 0 km/h
998 07-06-2009 07:08:57 9.6 C 8.61 g/m*3 9.6 C 0 km/h
999 07-06-2009 07:20:56 10 C 8.74 g/m*3 10 C 0 km/h
1000 07-06-2009 07:32:57 10.2 C 8.76 g/m*3 10.2 C 0 km/h
Sensor: Nr:Datum:Temp:Abs-Feuchte:Windchill:Wind:
Aussen-T/F 1001 07-06-2009 07:44:01 10.3 C 8.43 g/m*3 10.3 C 0 km/h
1002 07-06-2009 07:56:01 10.7 C 8.45 g/m*3 10.7 C 0 km/h
1003 07-06-2009 08:08:01 11 C 8.01 g/m*3 11 C 0 km/h
1004 07-06-2009 08:20:01 11.4 C 8.01 g/m*3 11.4 C 0 km/h
1005 07-06-2009 08:32:01 11.7 C 7.84 g/m*3 11.7 C 0 km/h
1006 07-06-2009 08:44:01 11.9 C 7.52 g/m*3 11.9 C 0 km/h
1007 07-06-2009 08:56:01 12.4 C 7.32 g/m*3 12.4 C 0 km/h
1008 07-06-2009 09:08:01 13.1 C 7.42 g/m*3 13.1 C 0 km/h
1009 07-06-2009 09:20:01 13.6 C 7.3 g/m*3 13.6 C 0 km/h
1010 07-06-2009 09:32:00 14 C 7.48 g/m*3 14 C 0 km/h
1011 07-06-2009 09:44:00 14.1 C 7.52 g/m*3 14.1 C 0 km/h
1012 07-06-2009 09:56:00 14.3 C 7.62 g/m*3 14.3 C 0 km/h
1013 07-06-2009 10:08:00 14.4 C 7.42 g/m*3 14.4 C 0 km/h
1014 07-06-2009 10:20:59 14.9 C 7.77 g/m*3 14.9 C 0 km/h
1015 07-06-2009 10:32:00 15.5 C 7.93 g/m*3 15.5 C 0 km/h
1016 07-06-2009 10:44:00 15.9 C 7.72 g/m*3 15.9 C 0 km/h
1017 07-06-2009 10:56:59 16.4 C 7.54 g/m*3 16.4 C 0 km/h
1018 07-06-2009 11:08:59 16.9 C 7.91 g/m*3 16.9 C 0 km/h
1019 07-06-2009 11:20:00 17.2 C 7.91 g/m*3 17.2 C 0 km/h
1020 07-06-2009 11:32:59 17 C 7.81 g/m*3 17 C 0 km/h
1021 07-06-2009 11:44:59 16.1 C 7.81 g/m*3 16.1 C 0 km/h
1022 07-06-2009 11:56:59 17.5 C 7.9 g/m*3 17.5 C 0 km/h
1023 07-06-2009 12:08:59 17.1 C 7.42 g/m*3 17.1 C 0 km/h
1024 07-06-2009 12:20:59 17.7 C 7.69 g/m*3 17.7 C 0 km/h
1025 07-06-2009 12:32:59 17.3 C 7.81 g/m*3 17.3 C 0 km/h
Sensor: Nr:Datum:Temp:Abs-Feuchte:Windchill:Wind:
Aussen-T/F 1026 07-06-2009 12:44:58 17.1 C 8.3 g/m*3 17.1 C 0 km/h
1027 07-06-2009 12:56:58 16.8 C 8.86 g/m*3 16.8 C 0 km/h
1028 07-06-2009 13:08:59 16.6 C 8.48 g/m*3 16.6 C 0 km/h
1029 07-06-2009 13:20:59 16.4 C 8.79 g/m*3 16.4 C 0 km/h
1030 07-06-2009 13:32:59 17.4 C 8.89 g/m*3 17.4 C 0 km/h
1031 07-06-2009 13:44:58 19.3 C 8.13 g/m*3 19.3 C 0 km/h
1032 07-06-2009 13:56:58 19.2 C 7.91 g/m*3 19.2 C 0 km/h
1033 07-06-2009 14:08:57 19.4 C 8.34 g/m*3 19.4 C 0 km/h
1034 07-06-2009 14:20:58 18.9 C 8.26 g/m*3 18.9 C 0 km/h
1035 07-06-2009 14:32:58 18.9 C 8.42 g/m*3 18.9 C 0 km/h
1036 07-06-2009 14:44:57 18.7 C 8.65 g/m*3 18.7 C 0 km/h
1037 07-06-2009 14:56:57 19.1 C 8.69 g/m*3 19.1 C 0 km/h
1038 07-06-2009 15:08:58 19.1 C 8.36 g/m*3 19.1 C 0 km/h
1039 07-06-2009 15:20:57 17.3 C 8.99 g/m*3 17.3 C 0 km/h
1040 07-06-2009 15:32:58 16 C 10.22 g/m*3 16 C 0 km/h
1041 07-06-2009 15:44:57 15.5 C 10.31 g/m*3 15.5 C 0 km/h
1042 07-06-2009 15:56:57 15.1 C 10.45 g/m*3 15.1 C 0 km/h
1043 07-06-2009 16:08:57 14.8 C 10.64 g/m*3 14.8 C 0 km/h
1044 07-06-2009 16:20:56 15.6 C 11.57 g/m*3 15.6 C 0 km/h
1045 07-06-2009 16:32:57 16 C 11.72 g/m*3 16 C 0 km/h
1046 07-06-2009 16:44:56 16.3 C 11.52 g/m*3 16.3 C 0 km/h
1047 07-06-2009 16:56:56 17.2 C 11.57 g/m*3 17.2 C 0 km/h
1048 07-06-2009 17:08:56 17.6 C 10.8 g/m*3 17.6 C 0 km/h
1049 07-06-2009 17:20:56 18.9 C 10.85 g/m*3 18.9 C 0 km/h
1050 07-06-2009 17:32:56 19.5 C 10.07 g/m*3 19.5 C 0 km/h
Sensor: Nr:Datum:Temp:Abs-Feuchte:Windchill:Wind:
Aussen-T/F 1051 07-06-2009 17:44:56 18.4 C 9.75 g/m*3 18.4 C 0 km/h
1052 07-06-2009 17:56:56 18.3 C 9.85 g/m*3 18.3 C 0 km/h
1053 07-06-2009 18:08:55 18.8 C 9.34 g/m*3 18.8 C 0 km/h
1054 07-06-2009 18:20:56 17.3 C 7.51 g/m*3 17.3 C 0 km/h
1055 07-06-2009 18:32:55 17 C 8.54 g/m*3 17 C 0 km/h
1056 07-06-2009 18:44:55 18 C 8.29 g/m*3 18 C 0 km/h
1057 07-06-2009 18:56:55 19.2 C 7.75 g/m*3 19.2 C 0 km/h
1058 07-06-2009 19:08:55 20.4 C 7.61 g/m*3 20.4 C 0 km/h
1059 07-06-2009 19:20:55 20.4 C 7.25 g/m*3 20.4 C 0 km/h
1060 07-06-2009 19:32:55 20.3 C 7.03 g/m*3 20.3 C 0 km/h
1061 07-06-2009 19:44:55 19.8 C 7.34 g/m*3 19.8 C 0 km/h
1062 07-06-2009 19:56:55 20.3 C 7.39 g/m*3 20.3 C 0 km/h
1063 07-06-2009 20:08:54 20.3 C 7.39 g/m*3 20.3 C 0 km/h
1064 07-06-2009 20:20:55 20 C 7.09 g/m*3 20 C 0 km/h
1065 07-06-2009 20:32:54 18.7 C 6.88 g/m*3 18.7 C 0 km/h
1066 07-06-2009 20:44:54 17.6 C 7.05 g/m*3 17.6 C 0 km/h
1067 07-06-2009 20:56:55 16.6 C 7.06 g/m*3 16.6 C 0 km/h
1068 07-06-2009 21:08:53 16.1 C 6.99 g/m*3 16.1 C 0 km/h
1069 07-06-2009 21:20:54 15.8 C 7.54 g/m*3 15.8 C 0 km/h
1070 07-06-2009 21:32:54 15.2 C 7.79 g/m*3 15.2 C 0 km/h
1071 07-06-2009 21:44:53 14.7 C 7.93 g/m*3 14.7 C 0 km/h
1072 07-06-2009 21:56:53 14.1 C 7.77 g/m*3 14.1 C 0 km/h
1073 07-06-2009 22:09:55 13.5 C 7.37 g/m*3 13.5 C 0 km/h
1074 07-06-2009 22:21:55 13 C 7.03 g/m*3 13 C 0 km/h
1075 07-06-2009 22:33:55 12.7 C 7.01 g/m*3 12.7 C 0 km/h
Sensor: Nr:Datum:Temp:Abs-Feuchte:Windchill:Wind:
Aussen-T/F 1076 07-06-2009 22:45:55 12.5 C 6.93 g/m*3 12.5 C 0 km/h
1077 07-06-2009 22:57:55 12.3 C 6.84 g/m*3 12.3 C 0 km/h
1078 07-06-2009 23:09:55 12 C 6.71 g/m*3 12 C 0 km/h
1079 07-06-2009 23:21:55 11.8 C 6.84 g/m*3 11.8 C 0 km/h
1080 07-06-2009 23:33:55 11.6 C 6.96 g/m*3 11.6 C 0 km/h
1081 07-06-2009 23:45:55 11.5 C 7.02 g/m*3 11.5 C 0 km/h
1082 07-06-2009 23:57:55 11.3 C 7.04 g/m*3 11.3 C 0 km/h
1083 08-06-2009 00:09:55 11.2 C 7.1 g/m*3 11.2 C 0 km/h
1084 08-06-2009 00:21:55 11.3 C 7.14 g/m*3 11.3 C 0 km/h
1085 08-06-2009 00:33:55 10.8 C 7.12 g/m*3 10.8 C 0 km/h
1086 08-06-2009 00:45:55 10.6 C 7.22 g/m*3 10.6 C 0 km/h
1087 08-06-2009 00:57:56 10.7 C 7.17 g/m*3 10.7 C 0 km/h
1088 08-06-2009 01:09:56 10.7 C 7.07 g/m*3 10.7 C 0 km/h
1089 08-06-2009 01:21:56 10.4 C 7.04 g/m*3 10.4 C 0 km/h
1090 08-06-2009 01:33:56 10.1 C 7.09 g/m*3 10.1 C 0 km/h
1091 08-06-2009 01:45:56 10.2 C 6.95 g/m*3 10.2 C 0 km/h
1092 08-06-2009 01:57:56 10.6 C 6.83 g/m*3 10.6 C 0 km/h
1093 08-06-2009 02:09:56 11.4 C 6.57 g/m*3 11.4 C 0 km/h
1094 08-06-2009 02:21:56 11.7 C 6.69 g/m*3 11.7 C 0 km/h
1095 08-06-2009 02:33:56 11.6 C 6.76 g/m*3 11.6 C 0 km/h
1096 08-06-2009 02:45:56 11.6 C 6.76 g/m*3 11.6 C 0 km/h
1097 08-06-2009 02:57:56 11.8 C 6.84 g/m*3 11.8 C 0 km/h
1098 08-06-2009 03:09:56 11 C 7.41 g/m*3 11 C 0 km/h
1099 08-06-2009 03:21:56 10.9 C 7.76 g/m*3 10.9 C 0 km/h
1100 08-06-2009 03:33:56 11.2 C 7.8 g/m*3 11.2 C 0 km/h
Sensor: Nr:Datum:Temp:Abs-Feuchte:Windchill:Wind:
Aussen-T/F 1101 08-06-2009 03:45:56 11.1 C 7.66 g/m*3 11.1 C 0 km/h
1102 08-06-2009 03:57:56 11 C 7.61 g/m*3 11 C 0 km/h
1103 08-06-2009 04:09:56 11.1 C 7.76 g/m*3 11.1 C 0 km/h
1104 08-06-2009 04:21:56 11.1 C 7.76 g/m*3 11.1 C 0 km/h
1105 08-06-2009 04:33:56 11.1 C 7.76 g/m*3 11.1 C 0 km/h
1106 08-06-2009 04:45:56 11.1 C 7.76 g/m*3 11.1 C 0 km/h
1107 08-06-2009 04:57:57 11.1 C 7.86 g/m*3 11.1 C 0 km/h
1108 08-06-2009 05:09:57 11.2 C 7.91 g/m*3 11.2 C 0 km/h
1109 08-06-2009 05:21:57 11.2 C 7.8 g/m*3 11.2 C 0 km/h
1110 08-06-2009 05:33:57 11.2 C 7.91 g/m*3 11.2 C 0 km/h
1111 08-06-2009 05:45:57 11.3 C 7.96 g/m*3 11.3 C 0 km/h
1112 08-06-2009 05:57:57 11.5 C 7.75 g/m*3 11.5 C 0 km/h
1113 08-06-2009 06:09:57 11.5 C 7.85 g/m*3 11.5 C 0 km/h
1114 08-06-2009 06:21:57 11.5 C 7.85 g/m*3 11.5 C 0 km/h
1115 08-06-2009 06:33:57 11.5 C 7.85 g/m*3 11.5 C 0 km/h
1116 08-06-2009 06:45:55 11.5 C 8.06 g/m*3 11.5 C 0 km/h
1117 08-06-2009 06:57:55 11.5 C 7.95 g/m*3 11.5 C 0 km/h
1118 08-06-2009 07:09:54 11.8 C 8 g/m*3 11.8 C 0 km/h
1119 08-06-2009 07:21:54 12 C 7.99 g/m*3 12 C 0 km/h
1120 08-06-2009 07:33:54 12.3 C 8.25 g/m*3 12.3 C 0 km/h
1121 08-06-2009 07:45:54 12.2 C 7.99 g/m*3 12.2 C 0 km/h
1122 08-06-2009 07:57:54 12.3 C 7.82 g/m*3 12.3 C 0 km/h
1123 08-06-2009 08:09:53 12.5 C 7.7 g/m*3 12.5 C 0 km/h
1124 08-06-2009 08:21:54 12.7 C 7.57 g/m*3 12.7 C 0 km/h
1125 08-06-2009 08:33:54 12.9 C 7.33 g/m*3 12.9 C 0 km/h
Sensor: Nr:Datum:Temp:Abs-Feuchte:Windchill:Wind:
Aussen-T/F 1126 08-06-2009 08:45:53 13.2 C 7.46 g/m*3 13.2 C 0 km/h
1127 08-06-2009 08:57:53 13.5 C 7.37 g/m*3 13.5 C 0 km/h
1128 08-06-2009 09:09:53 13.8 C 7.15 g/m*3 13.8 C 0 km/h
1129 08-06-2009 09:21:53 14.1 C 7.04 g/m*3 14.1 C 0 km/h
1130 08-06-2009 09:33:53 14.6 C 6.88 g/m*3 14.6 C 0 km/h
1131 08-06-2009 09:45:53 14.8 C 6.84 g/m*3 14.8 C 0 km/h
1132 08-06-2009 09:57:53 15 C 6.67 g/m*3 15 C 0 km/h
1133 08-06-2009 10:09:53 15.6 C 6.78 g/m*3 15.6 C 0 km/h
1134 08-06-2009 10:21:52 15.9 C 6.37 g/m*3 15.9 C 0 km/h
1135 08-06-2009 10:33:52 16.4 C 6.42 g/m*3 16.4 C 0 km/h
1136 08-06-2009 10:45:52 16.5 C 6.18 g/m*3 16.5 C 0 km/h
1137 08-06-2009 10:57:52 16.6 C 6.07 g/m*3 16.6 C 0 km/h
1138 08-06-2009 11:09:52 17.7 C 6.49 g/m*3 17.7 C 0 km/h
1139 08-06-2009 11:21:51 17.3 C 5.75 g/m*3 17.3 C 0 km/h
1140 08-06-2009 11:33:52 17 C 6.08 g/m*3 17 C 0 km/h
1141 08-06-2009 11:45:51 17.6 C 6.15 g/m*3 17.6 C 0 km/h
1142 08-06-2009 11:57:51 18.1 C 6.03 g/m*3 18.1 C 0 km/h
1143 08-06-2009 12:09:52 17.6 C 6 g/m*3 17.6 C 0 km/h
1144 08-06-2009 12:21:51 20 C 6.22 g/m*3 20 C 0 km/h
1145 08-06-2009 12:33:51 18.6 C 5.89 g/m*3 18.6 C 0 km/h
1146 08-06-2009 12:45:51 20.2 C 6.12 g/m*3 20.2 C 0 km/h
1147 08-06-2009 12:57:51 19.6 C 5.74 g/m*3 19.6 C 0 km/h
1148 08-06-2009 13:09:51 21.6 C 4.74 g/m*3 21.6 C 0 km/h
1149 08-06-2009 13:21:50 21.5 C 5.47 g/m*3 21.5 C 0 km/h
1150 08-06-2009 13:33:51 20.9 C 5.1 g/m*3 20.9 C 0 km/h
Sensor: Nr:Datum:Temp:Abs-Feuchte:Windchill:Wind:
Aussen-T/F 1151 08-06-2009 13:45:51 20.3 C 5.28 g/m*3 20.3 C 0 km/h
1152 08-06-2009 13:57:51 21.4 C 5.06 g/m*3 21.4 C 0 km/h
1153 08-06-2009 14:09:50 21.7 C 4.39 g/m*3 21.7 C 0 km/h
1154 08-06-2009 14:21:50 21.5 C 4.71 g/m*3 21.5 C 0 km/h
1155 08-06-2009 14:33:50 21.9 C 5.02 g/m*3 21.9 C 0 km/h
1156 08-06-2009 14:45:50 21.7 C 4.96 g/m*3 21.7 C 0 km/h
1157 08-06-2009 14:57:50 22.1 C 4.88 g/m*3 22.1 C 0 km/h
1158 08-06-2009 15:09:49 22.9 C 5.11 g/m*3 22.9 C 0 km/h
1159 08-06-2009 15:21:50 23 C 4.32 g/m*3 23 C 0 km/h
1160 08-06-2009 15:33:50 22.7 C 4.24 g/m*3 22.7 C 0 km/h
1161 08-06-2009 15:45:49 23.8 C 4.73 g/m*3 23.8 C 0 km/h
1162 08-06-2009 15:57:49 23.3 C 4.39 g/m*3 23.3 C 0 km/h
1163 08-06-2009 16:09:50 23.7 C 4.49 g/m*3 23.7 C 0 km/h
1164 08-06-2009 16:21:49 24.7 C 4.53 g/m*3 24.7 C 0 km/h
1165 08-06-2009 16:33:49 23.5 C 4.65 g/m*3 23.5 C 0 km/h
1166 08-06-2009 16:45:49 23.2 C 4.57 g/m*3 23.2 C 0 km/h
1167 08-06-2009 16:57:49 23.9 C 4.76 g/m*3 23.9 C 0 km/h
1168 08-06-2009 17:09:49 23.8 C 4.73 g/m*3 23.8 C 0 km/h
1169 08-06-2009 17:21:48 24.4 C 4.9 g/m*3 24.4 C 0 km/h
1170 08-06-2009 17:33:48 24.3 C 5.09 g/m*3 24.3 C 0 km/h
1171 08-06-2009 17:45:48 25.1 C 4.86 g/m*3 25.1 C 0 km/h
1172 08-06-2009 17:57:48 24.1 C 4.81 g/m*3 24.1 C 0 km/h
1173 08-06-2009 18:09:48 23.9 C 5.41 g/m*3 23.9 C 0 km/h
1174 08-06-2009 18:21:48 23.7 C 5.99 g/m*3 23.7 C 0 km/h
1175 08-06-2009 18:33:48 23.5 C 6.77 g/m*3 23.5 C 0 km/h
Sensor: Nr:Datum:Temp:Abs-Feuchte:Windchill:Wind:
Aussen-T/F 1176 08-06-2009 18:45:48 22.8 C 7.32 g/m*3 22.8 C 0 km/h
1177 08-06-2009 18:57:48 22.1 C 7.42 g/m*3 22.1 C 0 km/h
1178 08-06-2009 19:09:47 21.6 C 7.59 g/m*3 21.6 C 0 km/h
1179 08-06-2009 19:21:48 21 C 7.14 g/m*3 21 C 0 km/h
1180 08-06-2009 19:33:47 20.8 C 7.6 g/m*3 20.8 C 0 km/h
1181 08-06-2009 19:45:47 20.6 C 7.52 g/m*3 20.6 C 0 km/h
1182 08-06-2009 19:57:48 20.4 C 7.61 g/m*3 20.4 C 0 km/h
1183 08-06-2009 20:09:47 20.1 C 7.82 g/m*3 20.1 C 0 km/h
1184 08-06-2009 20:21:47 19.8 C 8.03 g/m*3 19.8 C 0 km/h
1185 08-06-2009 20:33:47 19.3 C 7.96 g/m*3 19.3 C 0 km/h
1186 08-06-2009 20:45:47 18.8 C 8.05 g/m*3 18.8 C 0 km/h
1187 08-06-2009 20:57:47 18.5 C 7.91 g/m*3 18.5 C 0 km/h
1188 08-06-2009 21:09:47 18.2 C 7.77 g/m*3 18.2 C 0 km/h
1189 08-06-2009 21:21:46 17.9 C 7.79 g/m*3 17.9 C 0 km/h
1190 08-06-2009 21:33:46 17.6 C 8.1 g/m*3 17.6 C 0 km/h
1191 08-06-2009 21:45:46 16.7 C 8.67 g/m*3 16.7 C 0 km/h
1192 08-06-2009 21:57:46 16.6 C 8.9 g/m*3 16.6 C 0 km/h
1193 08-06-2009 22:09:46 16.4 C 8.79 g/m*3 16.4 C 0 km/h
1194 08-06-2009 22:21:46 16.6 C 8.76 g/m*3 16.6 C 0 km/h
1195 08-06-2009 22:33:45 16.5 C 8.57 g/m*3 16.5 C 0 km/h
1196 08-06-2009 22:46:46 16.4 C 8.51 g/m*3 16.4 C 0 km/h
1197 08-06-2009 22:58:46 16.3 C 8.46 g/m*3 16.3 C 0 km/h
1198 08-06-2009 23:10:46 16.4 C 8.51 g/m*3 16.4 C 0 km/h
1199 08-06-2009 23:22:46 16.4 C 8.37 g/m*3 16.4 C 0 km/h
1200 08-06-2009 23:34:46 16.5 C 8.43 g/m*3 16.5 C 0 km/h
Sensor: Nr:Datum:Temp:Abs-Feuchte:Windchill:Wind:
Aussen-T/F 1201 08-06-2009 23:46:46 16.3 C 8.88 g/m*3 16.3 C 0 km/h
1202 08-06-2009 23:58:46 16 C 8.99 g/m*3 16 C 0 km/h
1203 09-06-2009 00:10:46 15.8 C 9.42 g/m*3 15.8 C 0 km/h
1204 09-06-2009 00:22:46 15.4 C 9.59 g/m*3 15.4 C 0 km/h
1205 09-06-2009 00:34:46 15.4 C 9.99 g/m*3 15.4 C 0 km/h
1206 09-06-2009 00:46:46 15 C 10 g/m*3 15 C 0 km/h
1207 09-06-2009 00:58:46 14.8 C 10.01 g/m*3 14.8 C 0 km/h
1208 09-06-2009 01:10:46 14.6 C 10.14 g/m*3 14.6 C 0 km/h
1209 09-06-2009 01:22:47 14.5 C 10.07 g/m*3 14.5 C 0 km/h
1210 09-06-2009 01:34:47 14.6 C 10.26 g/m*3 14.6 C 0 km/h
1211 09-06-2009 01:46:47 14.5 C 10.32 g/m*3 14.5 C 0 km/h
1212 09-06-2009 01:58:47 14.6 C 10.26 g/m*3 14.6 C 0 km/h
1213 09-06-2009 02:10:47 14.6 C 10.14 g/m*3 14.6 C 0 km/h
1214 09-06-2009 02:22:47 14.7 C 10.2 g/m*3 14.7 C 0 km/h
1215 09-06-2009 02:34:47 14.6 C 10.01 g/m*3 14.6 C 0 km/h
1216 09-06-2009 02:46:47 14.3 C 9.95 g/m*3 14.3 C 0 km/h
1217 09-06-2009 02:58:47 14.3 C 9.95 g/m*3 14.3 C 0 km/h
1218 09-06-2009 03:10:47 14.4 C 10.01 g/m*3 14.4 C 0 km/h
1219 09-06-2009 03:22:47 14.5 C 10.07 g/m*3 14.5 C 0 km/h
1220 09-06-2009 03:34:47 14.5 C 10.07 g/m*3 14.5 C 0 km/h
1221 09-06-2009 03:46:47 14.4 C 9.89 g/m*3 14.4 C 0 km/h
1222 09-06-2009 03:58:47 14.4 C 9.89 g/m*3 14.4 C 0 km/h
1223 09-06-2009 04:10:47 14.4 C 9.89 g/m*3 14.4 C 0 km/h
1224 09-06-2009 04:22:47 14.4 C 10.01 g/m*3 14.4 C 0 km/h
1225 09-06-2009 04:34:47 14.5 C 9.95 g/m*3 14.5 C 0 km/h
Sensor: Nr:Datum:Temp:Abs-Feuchte:Windchill:Wind:
Aussen-T/F 1226 09-06-2009 04:46:47 14.6 C 9.89 g/m*3 14.6 C 0 km/h
1227 09-06-2009 04:58:47 14.6 C 9.89 g/m*3 14.6 C 0 km/h
1228 09-06-2009 05:10:48 14.5 C 9.83 g/m*3 14.5 C 0 km/h
1229 09-06-2009 05:22:48 14.2 C 9.89 g/m*3 14.2 C 0 km/h
1230 09-06-2009 05:34:48 14.1 C 10.07 g/m*3 14.1 C 0 km/h
1231 09-06-2009 05:46:48 14 C 10.13 g/m*3 14 C 0 km/h
1232 09-06-2009 05:58:48 14.1 C 10.32 g/m*3 14.1 C 0 km/h
1233 09-06-2009 06:10:48 14 C 10.37 g/m*3 14 C 0 km/h
1234 09-06-2009 06:22:48 14.1 C 10.56 g/m*3 14.1 C 0 km/h
1235 09-06-2009 06:34:48 14.1 C 10.56 g/m*3 14.1 C 0 km/h
1236 09-06-2009 06:46:48 14.1 C 10.56 g/m*3 14.1 C 0 km/h
1237 09-06-2009 06:58:48 14.2 C 10.62 g/m*3 14.2 C 0 km/h
1238 09-06-2009 07:10:48 14.3 C 10.44 g/m*3 14.3 C 0 km/h
1239 09-06-2009 07:22:46 14.6 C 10.51 g/m*3 14.6 C 0 km/h
1240 09-06-2009 07:34:01 14.8 C 10.64 g/m*3 14.8 C 0 km/h
1241 09-06-2009 07:46:01 15 C 10.64 g/m*3 15 C 0 km/h
1242 09-06-2009 07:58:01 15 C 10.26 g/m*3 15 C 0 km/h
1243 09-06-2009 08:10:01 15.2 C 9.48 g/m*3 15.2 C 0 km/h
1244 09-06-2009 08:22:01 15.2 C 9.22 g/m*3 15.2 C 0 km/h
1245 09-06-2009 08:34:01 15.2 C 9.09 g/m*3 15.2 C 0 km/h
1246 09-06-2009 08:46:01 15.3 C 9.53 g/m*3 15.3 C 0 km/h
1247 09-06-2009 08:58:01 15.4 C 9.59 g/m*3 15.4 C 0 km/h
1248 09-06-2009 09:10:00 15.4 C 9.59 g/m*3 15.4 C 0 km/h
1249 09-06-2009 09:22:01 15.5 C 9.65 g/m*3 15.5 C 0 km/h
1250 09-06-2009 09:34:00 15.9 C 9.48 g/m*3 15.9 C 0 km/h
Sensor: Nr:Datum:Temp:Abs-Feuchte:Windchill:Wind:
Aussen-T/F 1251 09-06-2009 09:46:00 16.5 C 9.55 g/m*3 16.5 C 0 km/h
1252 09-06-2009 09:58:01 16.8 C 8.86 g/m*3 16.8 C 0 km/h
1253 09-06-2009 10:10:00 16.8 C 8.72 g/m*3 16.8 C 0 km/h
1254 09-06-2009 10:22:00 16.9 C 8.63 g/m*3 16.9 C 0 km/h
1255 09-06-2009 10:34:00 17.7 C 8.9 g/m*3 17.7 C 0 km/h
1256 09-06-2009 10:45:59 18.1 C 8.34 g/m*3 18.1 C 0 km/h
1257 09-06-2009 10:57:59 18.6 C 8.12 g/m*3 18.6 C 0 km/h
1258 09-06-2009 11:10:00 18.5 C 7.91 g/m*3 18.5 C 0 km/h
1259 09-06-2009 11:22:59 19.4 C 7.67 g/m*3 19.4 C 0 km/h
1260 09-06-2009 11:34:59 20.1 C 7.47 g/m*3 20.1 C 0 km/h
1261 09-06-2009 11:46:59 19.9 C 7.39 g/m*3 19.9 C 0 km/h
1262 09-06-2009 11:58:59 20.8 C 7.06 g/m*3 20.8 C 0 km/h
1263 09-06-2009 12:10:59 21.5 C 6.98 g/m*3 21.5 C 0 km/h
1264 09-06-2009 12:22:59 21.9 C 7.14 g/m*3 21.9 C 0 km/h
1265 09-06-2009 12:34:58 21.1 C 7 g/m*3 21.1 C 0 km/h
1266 09-06-2009 12:46:59 22.5 C 6.99 g/m*3 22.5 C 0 km/h
1267 09-06-2009 12:58:59 22.9 C 6.34 g/m*3 22.9 C 0 km/h
1268 09-06-2009 13:10:58 23.3 C 6.48 g/m*3 23.3 C 0 km/h
1269 09-06-2009 13:22:58 21.5 C 6.98 g/m*3 21.5 C 0 km/h
1270 09-06-2009 13:34:58 21.5 C 6.79 g/m*3 21.5 C 0 km/h
1271 09-06-2009 13:46:58 23.7 C 6.42 g/m*3 23.7 C 0 km/h
1272 09-06-2009 13:58:59 22.3 C 6.52 g/m*3 22.3 C 0 km/h
1273 09-06-2009 14:10:57 23.6 C 6.59 g/m*3 23.6 C 0 km/h
1274 09-06-2009 14:22:57 24.2 C 6.6 g/m*3 24.2 C 0 km/h
1275 09-06-2009 14:34:58 24.9 C 6.64 g/m*3 24.9 C 0 km/h
Sensor: Nr:Datum:Temp:Abs-Feuchte:Windchill:Wind:
Aussen-T/F 1276 09-06-2009 14:46:01 23.8 C 6.67 g/m*3 23.8 C 0 km/h
1277 09-06-2009 14:58:01 21.6 C 7.78 g/m*3 21.6 C 0 km/h
1278 09-06-2009 15:10:01 19.3 C 8.63 g/m*3 19.3 C 0 km/h
1279 09-06-2009 15:22:01 19.9 C 11.51 g/m*3 19.9 C 0 km/h
1280 09-06-2009 15:34:01 21.9 C 10.81 g/m*3 21.9 C 0 km/h
1281 09-06-2009 15:46:01 23.2 C 9.36 g/m*3 23.2 C 0 km/h
1282 09-06-2009 15:58:01 21.7 C 10.49 g/m*3 21.7 C 0 km/h
1283 09-06-2009 16:10:01 22.3 C 9.08 g/m*3 22.3 C 0 km/h
1284 09-06-2009 16:22:00 23.9 C 8.22 g/m*3 23.9 C 0 km/h
1285 09-06-2009 16:34:00 24.5 C 7.16 g/m*3 24.5 C 0 km/h
1286 09-06-2009 16:46:00 24.8 C 6.83 g/m*3 24.8 C 0 km/h
1287 09-06-2009 16:58:00 24.9 C 7.1 g/m*3 24.9 C 0 km/h
1288 09-06-2009 17:10:00 26.1 C 7.1 g/m*3 26.1 C 0 km/h
1289 09-06-2009 17:22:59 25.5 C 7.34 g/m*3 25.5 C 0 km/h
1290 09-06-2009 17:34:00 25.3 C 7.02 g/m*3 25.3 C 0 km/h
1291 09-06-2009 17:46:00 25.4 C 7.06 g/m*3 25.4 C 0 km/h
1292 09-06-2009 17:58:00 24.4 C 7.12 g/m*3 24.4 C 0 km/h
1293 09-06-2009 18:10:59 23.3 C 7.53 g/m*3 23.3 C 0 km/h
1294 09-06-2009 18:22:00 21.9 C 7.72 g/m*3 21.9 C 0 km/h
1295 09-06-2009 18:34:59 20 C 7.09 g/m*3 20 C 0 km/h
1296 09-06-2009 18:46:59 19.2 C 7.42 g/m*3 19.2 C 0 km/h
1297 09-06-2009 18:58:59 20.5 C 7.83 g/m*3 20.5 C 0 km/h
1298 09-06-2009 19:10:59 20.4 C 7.61 g/m*3 20.4 C 0 km/h
1299 09-06-2009 19:22:59 19.9 C 7.9 g/m*3 19.9 C 0 km/h
1300 09-06-2009 19:34:59 19.7 C 8.15 g/m*3 19.7 C 0 km/h
Sensor: Nr:Datum:Temp:Abs-Feuchte:Windchill:Wind:
Aussen-T/F 1301 09-06-2009 19:46:58 17.5 C 8.95 g/m*3 17.5 C 0 km/h
1302 09-06-2009 19:58:58 16.5 C 10.11 g/m*3 16.5 C 0 km/h
1303 09-06-2009 20:10:59 17.9 C 10.08 g/m*3 17.9 C 0 km/h
1304 09-06-2009 20:22:58 18.9 C 9.4 g/m*3 18.9 C 0 km/h
1305 09-06-2009 20:34:58 19.7 C 9 g/m*3 19.7 C 0 km/h
1306 09-06-2009 20:46:58 19.3 C 8.96 g/m*3 19.3 C 0 km/h
1307 09-06-2009 20:58:58 18.8 C 8.54 g/m*3 18.8 C 0 km/h
1308 09-06-2009 21:10:58 18.4 C 8.81 g/m*3 18.4 C 0 km/h
1309 09-06-2009 21:22:57 17.9 C 9.47 g/m*3 17.9 C 0 km/h
1310 09-06-2009 21:34:58 17.2 C 8.93 g/m*3 17.2 C 0 km/h
1311 09-06-2009 21:46:57 16.7 C 9.1 g/m*3 16.7 C 0 km/h
1312 09-06-2009 21:58:57 16.3 C 9.16 g/m*3 16.3 C 0 km/h
1313 09-06-2009 22:10:57 16 C 9.26 g/m*3 16 C 0 km/h
1314 09-06-2009 22:23:58 15.7 C 9.37 g/m*3 15.7 C 0 km/h
1315 09-06-2009 22:35:58 15.6 C 9.44 g/m*3 15.6 C 0 km/h
1316 09-06-2009 22:47:58 15.8 C 9.29 g/m*3 15.8 C 0 km/h
1317 09-06-2009 22:59:58 15.6 C 9.18 g/m*3 15.6 C 0 km/h
1318 09-06-2009 23:11:58 15.4 C 9.33 g/m*3 15.4 C 0 km/h
1319 09-06-2009 23:23:58 15.2 C 9.35 g/m*3 15.2 C 0 km/h
1320 09-06-2009 23:35:58 15 C 9.23 g/m*3 15 C 0 km/h
1321 09-06-2009 23:47:58 14.5 C 9.2 g/m*3 14.5 C 0 km/h
1322 09-06-2009 23:59:58 14.4 C 9.27 g/m*3 14.4 C 0 km/h
1323 10-06-2009 00:11:58 14.4 C 9.39 g/m*3 14.4 C 0 km/h
1324 10-06-2009 00:23:58 14 C 9.05 g/m*3 14 C 0 km/h
1325 10-06-2009 00:35:59 14 C 9.17 g/m*3 14 C 0 km/h
Sensor: Nr:Datum:Temp:Abs-Feuchte:Windchill:Wind:
Aussen-T/F 1326 10-06-2009 00:47:59 13.8 C 9.29 g/m*3 13.8 C 0 km/h
1327 10-06-2009 00:59:59 13.8 C 9.29 g/m*3 13.8 C 0 km/h
1328 10-06-2009 01:11:59 14 C 9.29 g/m*3 14 C 0 km/h
1329 10-06-2009 01:23:59 14.4 C 9.39 g/m*3 14.4 C 0 km/h
1330 10-06-2009 01:35:59 14.9 C 9.3 g/m*3 14.9 C 0 km/h
1331 10-06-2009 01:47:59 15.4 C 8.93 g/m*3 15.4 C 0 km/h
1332 10-06-2009 01:59:59 15.6 C 8.91 g/m*3 15.6 C 0 km/h
1333 10-06-2009 02:11:59 15.4 C 8.8 g/m*3 15.4 C 0 km/h
1334 10-06-2009 02:23:59 15.4 C 8.8 g/m*3 15.4 C 0 km/h
1335 10-06-2009 02:35:59 15.5 C 8.86 g/m*3 15.5 C 0 km/h
1336 10-06-2009 02:47:59 15.4 C 8.8 g/m*3 15.4 C 0 km/h
1337 10-06-2009 02:59:59 15.1 C 8.77 g/m*3 15.1 C 0 km/h
1338 10-06-2009 03:11:59 14.9 C 9.05 g/m*3 14.9 C 0 km/h
1339 10-06-2009 03:23:59 15 C 8.98 g/m*3 15 C 0 km/h
1340 10-06-2009 03:35:59 14.8 C 8.99 g/m*3 14.8 C 0 km/h
1341 10-06-2009 03:47:59 14.8 C 9.12 g/m*3 14.8 C 0 km/h
1342 10-06-2009 03:58:59 14.7 C 9.07 g/m*3 14.7 C 0 km/h
1343 10-06-2009 04:10:59 14.5 C 8.95 g/m*3 14.5 C 0 km/h
1344 10-06-2009 04:22:59 14.4 C 9.02 g/m*3 14.4 C 0 km/h
1345 10-06-2009 04:35:00 14.4 C 9.02 g/m*3 14.4 C 0 km/h
1346 10-06-2009 04:47:00 14.6 C 9.13 g/m*3 14.6 C 0 km/h
1347 10-06-2009 04:59:00 14.4 C 9.02 g/m*3 14.4 C 0 km/h
1348 10-06-2009 05:11:00 14.4 C 9.15 g/m*3 14.4 C 0 km/h
1349 10-06-2009 05:23:00 14.4 C 9.27 g/m*3 14.4 C 0 km/h
1350 10-06-2009 05:35:00 14.4 C 9.27 g/m*3 14.4 C 0 km/h
Sensor: Nr:Datum:Temp:Abs-Feuchte:Windchill:Wind:
Aussen-T/F 1351 10-06-2009 05:47:00 14.4 C 9.27 g/m*3 14.4 C 0 km/h
1352 10-06-2009 05:59:00 14.5 C 9.2 g/m*3 14.5 C 0 km/h
1353 10-06-2009 06:11:00 14.4 C 9.15 g/m*3 14.4 C 0 km/h
1354 10-06-2009 06:23:00 14.5 C 9.2 g/m*3 14.5 C 0 km/h
1355 10-06-2009 06:35:00 14.8 C 9.37 g/m*3 14.8 C 0 km/h
1356 10-06-2009 06:47:00 14.9 C 9.3 g/m*3 14.9 C 0 km/h
1357 10-06-2009 06:59:00 15.1 C 9.16 g/m*3 15.1 C 0 km/h
1358 10-06-2009 07:11:59 15.2 C 9.09 g/m*3 15.2 C 0 km/h
1359 10-06-2009 07:23:58 15.4 C 9.2 g/m*3 15.4 C 0 km/h
1360 10-06-2009 07:35:58 15.6 C 9.18 g/m*3 15.6 C 0 km/h
1361 10-06-2009 07:47:58 15.8 C 9.29 g/m*3 15.8 C 0 km/h
1362 10-06-2009 07:59:58 16.1 C 9.18 g/m*3 16.1 C 0 km/h
1363 10-06-2009 08:11:58 16.2 C 8.96 g/m*3 16.2 C 0 km/h
1364 10-06-2009 08:23:57 16.5 C 9.13 g/m*3 16.5 C 0 km/h
1365 10-06-2009 08:35:58 16.7 C 9.1 g/m*3 16.7 C 0 km/h
1366 10-06-2009 08:47:57 16.8 C 9.15 g/m*3 16.8 C 0 km/h
1367 10-06-2009 08:59:57 16.7 C 9.1 g/m*3 16.7 C 0 km/h
1368 10-06-2009 09:11:57 17.1 C 8.88 g/m*3 17.1 C 0 km/h
1369 10-06-2009 09:23:58 16.9 C 8.92 g/m*3 16.9 C 0 km/h
1370 10-06-2009 09:35:57 16.5 C 9.13 g/m*3 16.5 C 0 km/h
1371 10-06-2009 09:47:57 15.6 C 9.58 g/m*3 15.6 C 0 km/h
1372 10-06-2009 09:59:57 15.2 C 9.73 g/m*3 15.2 C 0 km/h
1373 10-06-2009 10:11:56 14.9 C 10.07 g/m*3 14.9 C 0 km/h
1374 10-06-2009 10:23:57 14.6 C 10.01 g/m*3 14.6 C 0 km/h
1375 10-06-2009 10:35:56 15 C 10.39 g/m*3 15 C 0 km/h
Sensor: Nr:Datum:Temp:Abs-Feuchte:Windchill:Wind:
Aussen-T/F 1376 10-06-2009 10:47:56 15.3 C 10.45 g/m*3 15.3 C 0 km/h
1377 10-06-2009 10:59:57 15.7 C 10.3 g/m*3 15.7 C 0 km/h
1378 10-06-2009 11:11:56 16.2 C 10.2 g/m*3 16.2 C 0 km/h
1379 10-06-2009 11:23:56 16.9 C 10.36 g/m*3 16.9 C 0 km/h
1380 10-06-2009 11:35:56 17.3 C 10.02 g/m*3 17.3 C 0 km/h
1381 10-06-2009 11:47:56 18.3 C 9.85 g/m*3 18.3 C 0 km/h
1382 10-06-2009 11:59:56 18.4 C 9.75 g/m*3 18.4 C 0 km/h
1383 10-06-2009 12:11:56 19 C 9.45 g/m*3 19 C 0 km/h
1384 10-06-2009 12:23:55 19.9 C 8.93 g/m*3 19.9 C 0 km/h
1385 10-06-2009 12:35:55 20.1 C 8.17 g/m*3 20.1 C 0 km/h
1386 10-06-2009 12:47:55 20.3 C 7.91 g/m*3 20.3 C 0 km/h
1387 10-06-2009 12:59:55 19.4 C 7.84 g/m*3 19.4 C 0 km/h
1388 10-06-2009 13:11:55 19.5 C 8.22 g/m*3 19.5 C 0 km/h
1389 10-06-2009 13:23:55 22.8 C 7.72 g/m*3 22.8 C 0 km/h
1390 10-06-2009 13:35:55 23.4 C 7.36 g/m*3 23.4 C 0 km/h
1391 10-06-2009 13:47:55 21.6 C 6.45 g/m*3 21.6 C 0 km/h
1392 10-06-2009 13:59:55 22.7 C 6.67 g/m*3 22.7 C 0 km/h
1393 10-06-2009 14:11:54 22.1 C 6.64 g/m*3 22.1 C 0 km/h
1394 10-06-2009 14:23:54 22 C 6.21 g/m*3 22 C 0 km/h
1395 10-06-2009 14:35:54 22 C 6.6 g/m*3 22 C 0 km/h
1396 10-06-2009 14:47:54 22.3 C 6.32 g/m*3 22.3 C 0 km/h
1397 10-06-2009 14:59:55 22.6 C 6.43 g/m*3 22.6 C 0 km/h
1398 10-06-2009 15:11:53 22.5 C 5.79 g/m*3 22.5 C 0 km/h
1399 10-06-2009 15:23:54 23.5 C 6.13 g/m*3 23.5 C 0 km/h
1400 10-06-2009 15:35:54 23.4 C 5.68 g/m*3 23.4 C 0 km/h
Sensor: Nr:Datum:Temp:Abs-Feuchte:Windchill:Wind:
Aussen-T/F 1401 10-06-2009 15:47:53 23.3 C 5.44 g/m*3 23.3 C 0 km/h
1402 10-06-2009 15:59:53 23.5 C 5.5 g/m*3 23.5 C 0 km/h
1403 10-06-2009 16:11:54 23.4 C 4.84 g/m*3 23.4 C 0 km/h
1404 10-06-2009 16:23:53 22.8 C 5.08 g/m*3 22.8 C 0 km/h
1405 10-06-2009 16:35:53 23.1 C 5.17 g/m*3 23.1 C 0 km/h
1406 10-06-2009 16:47:53 24.1 C 5.47 g/m*3 24.1 C 0 km/h
1407 10-06-2009 16:59:53 23.2 C 5.2 g/m*3 23.2 C 0 km/h
1408 10-06-2009 17:11:53 23.2 C 4.57 g/m*3 23.2 C 0 km/h
1409 10-06-2009 17:23:53 23.8 C 4.95 g/m*3 23.8 C 0 km/h
1410 10-06-2009 17:35:52 22.2 C 4.91 g/m*3 22.2 C 0 km/h
1411 10-06-2009 17:47:53 22.3 C 5.13 g/m*3 22.3 C 0 km/h
1412 10-06-2009 17:59:53 21.9 C 5.21 g/m*3 21.9 C 0 km/h
1413 10-06-2009 18:11:52 21.5 C 5.47 g/m*3 21.5 C 0 km/h
1414 10-06-2009 18:23:52 19.4 C 7.51 g/m*3 19.4 C 0 km/h
1415 10-06-2009 18:35:52 17.7 C 9.05 g/m*3 17.7 C 0 km/h
1416 10-06-2009 18:47:52 18.5 C 9.02 g/m*3 18.5 C 0 km/h
1417 10-06-2009 18:59:53 18.7 C 8.97 g/m*3 18.7 C 0 km/h
1418 10-06-2009 19:11:51 18.5 C 8.7 g/m*3 18.5 C 0 km/h
1419 10-06-2009 19:23:51 18.4 C 8.65 g/m*3 18.4 C 0 km/h
1420 10-06-2009 19:35:52 18.3 C 8.76 g/m*3 18.3 C 0 km/h
1421 10-06-2009 19:47:51 17.2 C 8.93 g/m*3 17.2 C 0 km/h
1422 10-06-2009 19:59:51 15.8 C 9.42 g/m*3 15.8 C 0 km/h
1423 10-06-2009 20:11:51 15.6 C 9.84 g/m*3 15.6 C 0 km/h
1424 10-06-2009 20:23:51 15.5 C 9.52 g/m*3 15.5 C 0 km/h
1425 10-06-2009 20:35:51 15.6 C 9.44 g/m*3 15.6 C 0 km/h
Sensor: Nr:Datum:Temp:Abs-Feuchte:Windchill:Wind:
Aussen-T/F 1426 10-06-2009 20:47:50 15.8 C 9.69 g/m*3 15.8 C 0 km/h
1427 10-06-2009 20:59:50 15.4 C 9.59 g/m*3 15.4 C 0 km/h
1428 10-06-2009 21:11:50 15.5 C 9.65 g/m*3 15.5 C 0 km/h
1429 10-06-2009 21:23:51 15.6 C 9.71 g/m*3 15.6 C 0 km/h
1430 10-06-2009 21:35:50 15.6 C 9.31 g/m*3 15.6 C 0 km/h
1431 10-06-2009 21:47:50 15.8 C 9.15 g/m*3 15.8 C 0 km/h
1432 10-06-2009 21:59:50 15.5 C 9.12 g/m*3 15.5 C 0 km/h
1433 10-06-2009 22:11:50 14.5 C 9.83 g/m*3 14.5 C 0 km/h
1434 10-06-2009 22:24:50 14.3 C 10.07 g/m*3 14.3 C 0 km/h
1435 10-06-2009 22:36:50 14.1 C 10.19 g/m*3 14.1 C 0 km/h
1436 10-06-2009 22:48:50 14.2 C 10.38 g/m*3 14.2 C 0 km/h
1437 10-06-2009 23:00:50 14.2 C 10.5 g/m*3 14.2 C 0 km/h
1438 10-06-2009 23:12:51 14.2 C 10.62 g/m*3 14.2 C 0 km/h
1439 10-06-2009 23:24:51 14 C 10.49 g/m*3 14 C 0 km/h
1440 10-06-2009 23:36:51 14.1 C 10.56 g/m*3 14.1 C 0 km/h
1441 10-06-2009 23:48:51 14.4 C 10.51 g/m*3 14.4 C 0 km/h
1442 11-06-2009 00:00:51 14.5 C 10.45 g/m*3 14.5 C 0 km/h
1443 11-06-2009 00:12:51 14.2 C 10.14 g/m*3 14.2 C 0 km/h
1444 11-06-2009 00:24:51 14.2 C 10.26 g/m*3 14.2 C 0 km/h
1445 11-06-2009 00:36:51 14.1 C 10.19 g/m*3 14.1 C 0 km/h
1446 11-06-2009 00:48:51 14 C 10.25 g/m*3 14 C 0 km/h
1447 11-06-2009 01:00:51 13.8 C 10.25 g/m*3 13.8 C 0 km/h
1448 11-06-2009 01:12:51 13.9 C 10.43 g/m*3 13.9 C 0 km/h
1449 11-06-2009 01:24:51 13.9 C 10.67 g/m*3 13.9 C 0 km/h
1450 11-06-2009 01:36:51 13.9 C 10.79 g/m*3 13.9 C 0 km/h
Sensor: Nr:Datum:Temp:Abs-Feuchte:Windchill:Wind:
Aussen-T/F 1451 11-06-2009 01:48:51 13.9 C 10.91 g/m*3 13.9 C 0 km/h
1452 11-06-2009 02:00:51 14 C 10.98 g/m*3 14 C 0 km/h
1453 11-06-2009 02:12:51 13.9 C 11.03 g/m*3 13.9 C 0 km/h
1454 11-06-2009 02:24:51 13.9 C 11.03 g/m*3 13.9 C 0 km/h
1455 11-06-2009 02:36:51 14 C 11.1 g/m*3 14 C 0 km/h
1456 11-06-2009 02:48:51 14 C 11.1 g/m*3 14 C 0 km/h
1457 11-06-2009 03:00:52 14 C 11.1 g/m*3 14 C 0 km/h
1458 11-06-2009 03:12:52 14.1 C 11.29 g/m*3 14.1 C 0 km/h
1459 11-06-2009 03:24:52 14.2 C 11.36 g/m*3 14.2 C 0 km/h
1460 11-06-2009 03:36:52 14.2 C 11.36 g/m*3 14.2 C 0 km/h
1461 11-06-2009 03:48:52 14 C 11.22 g/m*3 14 C 0 km/h
1462 11-06-2009 04:00:52 14 C 11.22 g/m*3 14 C 0 km/h
1463 11-06-2009 04:12:52 14 C 11.34 g/m*3 14 C 0 km/h
1464 11-06-2009 04:24:52 14 C 11.34 g/m*3 14 C 0 km/h
1465 11-06-2009 04:36:52 14.1 C 11.41 g/m*3 14.1 C 0 km/h
1466 11-06-2009 04:48:52 14.2 C 11.48 g/m*3 14.2 C 0 km/h
1467 11-06-2009 05:00:52 14.2 C 11.48 g/m*3 14.2 C 0 km/h
1468 11-06-2009 05:12:52 14.2 C 11.48 g/m*3 14.2 C 0 km/h
1469 11-06-2009 05:24:52 14.4 C 11.5 g/m*3 14.4 C 0 km/h
1470 11-06-2009 05:36:52 14.6 C 11.26 g/m*3 14.6 C 0 km/h
1471 11-06-2009 05:48:52 14.5 C 11.07 g/m*3 14.5 C 0 km/h
1472 11-06-2009 06:00:52 14.6 C 11.14 g/m*3 14.6 C 0 km/h
1473 11-06-2009 06:12:52 14.2 C 10.87 g/m*3 14.2 C 0 km/h
1474 11-06-2009 06:24:52 14.2 C 10.87 g/m*3 14.2 C 0 km/h
1475 11-06-2009 06:36:52 14.3 C 10.93 g/m*3 14.3 C 0 km/h
Sensor: Nr:Datum:Temp:Abs-Feuchte:Windchill:Wind:
Aussen-T/F 1476 11-06-2009 06:48:53 14.4 C 11 g/m*3 14.4 C 0 km/h
1477 11-06-2009 07:00:53 14.4 C 10.75 g/m*3 14.4 C 0 km/h
1478 11-06-2009 07:12:53 14.5 C 10.82 g/m*3 14.5 C 0 km/h
1479 11-06-2009 07:24:53 14.5 C 10.94 g/m*3 14.5 C 0 km/h
1480 11-06-2009 07:36:53 14.8 C 11.02 g/m*3 14.8 C 0 km/h
1481 11-06-2009 07:48:53 14.7 C 10.32 g/m*3 14.7 C 0 km/h
1482 11-06-2009 08:00:53 14.7 C 10.2 g/m*3 14.7 C 0 km/h
1483 11-06-2009 08:12:53 14.7 C 9.57 g/m*3 14.7 C 0 km/h
1484 11-06-2009 08:24:53 14.7 C 9.57 g/m*3 14.7 C 0 km/h
1485 11-06-2009 08:36:50 14.8 C 9.5 g/m*3 14.8 C 0 km/h
1486 11-06-2009 08:48:49 14.9 C 8.92 g/m*3 14.9 C 0 km/h
1487 11-06-2009 09:00:50 15 C 8.72 g/m*3 15 C 0 km/h
1488 11-06-2009 09:12:50 15 C 8.33 g/m*3 15 C 0 km/h
1489 11-06-2009 09:24:49 15.3 C 8.23 g/m*3 15.3 C 0 km/h
1490 11-06-2009 09:36:49 15.1 C 7.74 g/m*3 15.1 C 0 km/h
1491 11-06-2009 09:48:02 15 C 7.82 g/m*3 15 C 0 km/h
1492 11-06-2009 10:00:02 15 C 7.82 g/m*3 15 C 0 km/h
1493 11-06-2009 10:12:01 14.9 C 8.03 g/m*3 14.9 C 0 km/h
1494 11-06-2009 10:24:02 15.1 C 7.87 g/m*3 15.1 C 0 km/h
1495 11-06-2009 10:36:01 15.5 C 7.8 g/m*3 15.5 C 0 km/h
1496 11-06-2009 10:48:01 15.7 C 7.89 g/m*3 15.7 C 0 km/h
1497 11-06-2009 11:00:01 15.2 C 8.05 g/m*3 15.2 C 0 km/h
1498 11-06-2009 11:12:01 15.3 C 7.84 g/m*3 15.3 C 0 km/h
1499 11-06-2009 11:24:01 15.5 C 7.53 g/m*3 15.5 C 0 km/h
1500 11-06-2009 11:36:01 15.4 C 7.23 g/m*3 15.4 C 0 km/h
Sensor: Nr:Datum:Temp:Abs-Feuchte:Windchill:Wind:
Aussen-T/F 1501 11-06-2009 11:48:01 15.3 C 7.05 g/m*3 15.3 C 0 km/h
1502 11-06-2009 12:00:01 15.2 C 6.75 g/m*3 15.2 C 0 km/h
1503 11-06-2009 12:12:01 15.2 C 6.62 g/m*3 15.2 C 0 km/h
1504 11-06-2009 12:24:00 15.3 C 6.53 g/m*3 15.3 C 0 km/h
1505 11-06-2009 12:36:00 15.4 C 6.57 g/m*3 15.4 C 0 km/h
1506 11-06-2009 12:48:00 15.3 C 6.66 g/m*3 15.3 C 0 km/h
1507 11-06-2009 13:00:00 15.2 C 6.62 g/m*3 15.2 C 0 km/h
1508 11-06-2009 13:12:00 15.3 C 6.66 g/m*3 15.3 C 0 km/h
1509 11-06-2009 13:24:59 15.4 C 6.96 g/m*3 15.4 C 0 km/h
1510 11-06-2009 13:36:00 15.2 C 6.88 g/m*3 15.2 C 0 km/h
1511 11-06-2009 13:48:59 15.4 C 6.96 g/m*3 15.4 C 0 km/h
1512 11-06-2009 14:00:59 15.5 C 7.67 g/m*3 15.5 C 0 km/h
1513 11-06-2009 14:12:59 15.8 C 7.81 g/m*3 15.8 C 0 km/h
1514 11-06-2009 14:24:00 17.3 C 7.66 g/m*3 17.3 C 0 km/h
1515 11-06-2009 14:36:59 16.9 C 7.05 g/m*3 16.9 C 0 km/h
1516 11-06-2009 14:48:59 16.2 C 7.45 g/m*3 16.2 C 0 km/h
1517 11-06-2009 15:00:58 16.4 C 7.4 g/m*3 16.4 C 0 km/h
1518 11-06-2009 15:12:58 16.3 C 7.63 g/m*3 16.3 C 0 km/h
1519 11-06-2009 15:24:59 16.8 C 7.43 g/m*3 16.8 C 0 km/h
1520 11-06-2009 15:36:59 16.8 C 7.29 g/m*3 16.8 C 0 km/h
1521 11-06-2009 15:48:58 17.5 C 7.45 g/m*3 17.5 C 0 km/h
1522 11-06-2009 16:00:59 16.7 C 7.82 g/m*3 16.7 C 0 km/h
1523 11-06-2009 16:12:59 16.4 C 8.1 g/m*3 16.4 C 0 km/h
1524 11-06-2009 16:24:58 17.3 C 8.1 g/m*3 17.3 C 0 km/h
1525 11-06-2009 16:36:58 16.6 C 7.63 g/m*3 16.6 C 0 km/h
Sensor: Nr:Datum:Temp:Abs-Feuchte:Windchill:Wind:
Aussen-T/F 1526 11-06-2009 16:48:58 16 C 7.9 g/m*3 16 C 0 km/h
1527 11-06-2009 17:00:58 16.2 C 7.72 g/m*3 16.2 C 0 km/h
1528 11-06-2009 17:12:59 16.4 C 7.82 g/m*3 16.4 C 0 km/h
1529 11-06-2009 17:24:57 16.4 C 8.37 g/m*3 16.4 C 0 km/h
1530 11-06-2009 17:36:57 18.3 C 8.6 g/m*3 18.3 C 0 km/h
1531 11-06-2009 17:48:57 17.5 C 8.05 g/m*3 17.5 C 0 km/h
1532 11-06-2009 18:00:57 16 C 8.31 g/m*3 16 C 0 km/h
1533 11-06-2009 18:12:57 14.4 C 9.02 g/m*3 14.4 C 0 km/h
1534 11-06-2009 18:24:57 13.2 C 9.19 g/m*3 13.2 C 0 km/h
1535 11-06-2009 18:36:57 13.3 C 9.7 g/m*3 13.3 C 0 km/h
1536 11-06-2009 18:48:57 14.2 C 10.38 g/m*3 14.2 C 0 km/h
1537 11-06-2009 19:00:56 14.2 C 10.38 g/m*3 14.2 C 0 km/h
1538 11-06-2009 19:12:56 15.3 C 10.84 g/m*3 15.3 C 0 km/h
1539 11-06-2009 19:24:56 16 C 10.49 g/m*3 16 C 0 km/h
1540 11-06-2009 19:36:57 16 C 10.63 g/m*3 16 C 0 km/h
1541 11-06-2009 19:48:56 14.9 C 10.07 g/m*3 14.9 C 0 km/h
1542 11-06-2009 20:00:07 14.4 C 9.89 g/m*3 14.4 C 0 km/h
1543 11-06-2009 20:12:07 13.4 C 9.65 g/m*3 13.4 C 0 km/h
1544 11-06-2009 20:24:07 11.9 C 8.68 g/m*3 11.9 C 0 km/h
1545 11-06-2009 20:36:07 11.9 C 8.79 g/m*3 11.9 C 0 km/h
1546 11-06-2009 20:48:56 12.3 C 8.9 g/m*3 12.3 C 0 km/h
1547 11-06-2009 21:00:56 12.5 C 9.02 g/m*3 12.5 C 0 km/h
1548 11-06-2009 21:12:56 12.5 C 8.8 g/m*3 12.5 C 0 km/h
1549 11-06-2009 21:24:56 12.6 C 8.85 g/m*3 12.6 C 0 km/h
1550 11-06-2009 21:36:56 12.5 C 8.8 g/m*3 12.5 C 0 km/h
Sensor: Nr:Datum:Temp:Abs-Feuchte:Windchill:Wind:
Aussen-T/F 1551 11-06-2009 21:48:56 12.3 C 8.8 g/m*3 12.3 C 0 km/h
1552 11-06-2009 22:01:57 12.3 C 8.8 g/m*3 12.3 C 0 km/h
1553 11-06-2009 22:13:57 12.4 C 8.85 g/m*3 12.4 C 0 km/h
1554 11-06-2009 22:25:57 12.4 C 8.74 g/m*3 12.4 C 0 km/h
1555 11-06-2009 22:37:57 12.5 C 8.69 g/m*3 12.5 C 0 km/h
1556 11-06-2009 22:49:57 12.4 C 8.74 g/m*3 12.4 C 0 km/h
1557 11-06-2009 23:01:57 12.4 C 8.74 g/m*3 12.4 C 0 km/h
1558 11-06-2009 23:13:57 12.4 C 8.63 g/m*3 12.4 C 0 km/h
1559 11-06-2009 23:25:57 12.1 C 8.47 g/m*3 12.1 C 0 km/h
1560 11-06-2009 23:37:58 12 C 8.42 g/m*3 12 C 0 km/h
1561 11-06-2009 23:49:58 12 C 8.31 g/m*3 12 C 0 km/h
1562 12-06-2009 00:01:58 11.5 C 8.16 g/m*3 11.5 C 0 km/h
1563 12-06-2009 00:13:58 11.4 C 8.11 g/m*3 11.4 C 0 km/h
1564 12-06-2009 00:25:58 11.3 C 8.06 g/m*3 11.3 C 0 km/h
1565 12-06-2009 00:37:58 11.5 C 8.16 g/m*3 11.5 C 0 km/h
1566 12-06-2009 00:49:58 11.7 C 8.16 g/m*3 11.7 C 0 km/h
1567 12-06-2009 01:01:58 11.6 C 8.21 g/m*3 11.6 C 0 km/h
1568 12-06-2009 01:13:58 11.1 C 8.26 g/m*3 11.1 C 0 km/h
1569 12-06-2009 01:25:58 10.8 C 8.4 g/m*3 10.8 C 0 km/h
1570 12-06-2009 01:37:58 10.6 C 8.49 g/m*3 10.6 C 0 km/h
1571 12-06-2009 01:49:58 10.5 C 8.53 g/m*3 10.5 C 0 km/h
1572 12-06-2009 02:01:58 10.4 C 8.58 g/m*3 10.4 C 0 km/h
1573 12-06-2009 02:13:58 10.3 C 8.52 g/m*3 10.3 C 0 km/h
1574 12-06-2009 02:25:58 10.4 C 8.48 g/m*3 10.4 C 0 km/h
1575 12-06-2009 02:37:58 10.3 C 8.24 g/m*3 10.3 C 0 km/h
Sensor: Nr:Datum:Temp:Abs-Feuchte:Windchill:Wind:
Aussen-T/F 1576 12-06-2009 02:49:58 10.3 C 8.14 g/m*3 10.3 C 0 km/h
1577 12-06-2009 03:01:58 10.4 C 8.1 g/m*3 10.4 C 0 km/h
1578 12-06-2009 03:13:58 10.4 C 8 g/m*3 10.4 C 0 km/h
1579 12-06-2009 03:25:59 10.2 C 7.9 g/m*3 10.2 C 0 km/h
1580 12-06-2009 03:37:59 10 C 7.89 g/m*3 10 C 0 km/h
1581 12-06-2009 03:49:59 9.9 C 7.94 g/m*3 9.9 C 0 km/h
1582 12-06-2009 04:01:59 9.9 C 8.03 g/m*3 9.9 C 0 km/h
1583 12-06-2009 04:13:59 10 C 7.99 g/m*3 10 C 0 km/h
1584 12-06-2009 04:25:59 9.8 C 8.07 g/m*3 9.8 C 0 km/h
1585 12-06-2009 04:37:59 9.6 C 7.97 g/m*3 9.6 C 0 km/h
1586 12-06-2009 04:49:59 9.4 C 7.96 g/m*3 9.4 C 0 km/h
1587 12-06-2009 05:01:59 9.5 C 8.1 g/m*3 9.5 C 0 km/h
1588 12-06-2009 05:13:59 9.6 C 8.06 g/m*3 9.6 C 0 km/h
1589 12-06-2009 05:25:59 9.2 C 7.86 g/m*3 9.2 C 0 km/h
1590 12-06-2009 05:37:59 9.1 C 7.72 g/m*3 9.1 C 0 km/h
1591 12-06-2009 05:49:59 9.1 C 7.72 g/m*3 9.1 C 0 km/h
1592 12-06-2009 06:01:59 9.2 C 7.77 g/m*3 9.2 C 0 km/h
1593 12-06-2009 06:13:59 9.1 C 7.72 g/m*3 9.1 C 0 km/h
1594 12-06-2009 06:25:58 9.1 C 7.72 g/m*3 9.1 C 0 km/h
1595 12-06-2009 06:37:57 9.2 C 7.77 g/m*3 9.2 C 0 km/h
1596 12-06-2009 06:49:57 9.3 C 7.82 g/m*3 9.3 C 0 km/h
1597 12-06-2009 07:01:57 9.7 C 7.84 g/m*3 9.7 C 0 km/h
1598 12-06-2009 07:13:57 10 C 7.61 g/m*3 10 C 0 km/h
1599 12-06-2009 07:25:57 10.1 C 7.56 g/m*3 10.1 C 0 km/h
1600 12-06-2009 07:37:56 10.2 C 7.52 g/m*3 10.2 C 0 km/h
Sensor: Nr:Datum:Temp:Abs-Feuchte:Windchill:Wind:
Aussen-T/F 1601 12-06-2009 07:49:56 10.4 C 7.61 g/m*3 10.4 C 0 km/h
1602 12-06-2009 08:01:57 10.5 C 7.57 g/m*3 10.5 C 0 km/h
1603 12-06-2009 08:13:57 10.8 C 7.71 g/m*3 10.8 C 0 km/h
1604 12-06-2009 08:25:56 11 C 7.51 g/m*3 11 C 0 km/h
1605 12-06-2009 08:37:56 11.2 C 7.5 g/m*3 11.2 C 0 km/h
1606 12-06-2009 08:49:56 11.7 C 7.74 g/m*3 11.7 C 0 km/h
1607 12-06-2009 09:01:56 12.1 C 7.83 g/m*3 12.1 C 0 km/h
1608 12-06-2009 09:13:56 12.4 C 7.87 g/m*3 12.4 C 0 km/h
1609 12-06-2009 09:25:56 12.9 C 8.11 g/m*3 12.9 C 0 km/h
1610 12-06-2009 09:37:56 13.4 C 8.14 g/m*3 13.4 C 0 km/h
1611 12-06-2009 09:49:55 14.1 C 8.01 g/m*3 14.1 C 0 km/h
1612 12-06-2009 10:01:55 15.4 C 8.28 g/m*3 15.4 C 0 km/h
1613 12-06-2009 10:13:55 16.9 C 8.05 g/m*3 16.9 C 0 km/h
1614 12-06-2009 10:25:55 17.3 C 7.51 g/m*3 17.3 C 0 km/h
1615 12-06-2009 10:37:55 17.5 C 7.16 g/m*3 17.5 C 0 km/h
1616 12-06-2009 10:49:54 17.2 C 6.74 g/m*3 17.2 C 0 km/h
1617 12-06-2009 11:01:55 16.8 C 6.58 g/m*3 16.8 C 0 km/h
1618 12-06-2009 11:13:55 17.1 C 6.11 g/m*3 17.1 C 0 km/h
1619 12-06-2009 11:25:55 17.9 C 5.5 g/m*3 17.9 C 0 km/h
1620 12-06-2009 11:37:54 18.3 C 5.47 g/m*3 18.3 C 0 km/h
1621 12-06-2009 11:49:55 18.7 C 5.6 g/m*3 18.7 C 0 km/h
1622 12-06-2009 12:01:54 18.9 C 5.51 g/m*3 18.9 C 0 km/h
1623 12-06-2009 12:13:54 17.4 C 5.93 g/m*3 17.4 C 0 km/h
1624 12-06-2009 12:25:54 18.5 C 5.85 g/m*3 18.5 C 0 km/h
1625 12-06-2009 12:37:53 20.4 C 5.31 g/m*3 20.4 C 0 km/h
Sensor: Nr:Datum:Temp:Abs-Feuchte:Windchill:Wind:
Aussen-T/F 1626 12-06-2009 12:49:54 20.7 C 4.68 g/m*3 20.7 C 0 km/h
1627 12-06-2009 13:01:53 18.1 C 5.1 g/m*3 18.1 C 0 km/h
1628 12-06-2009 13:13:53 20.9 C 5.65 g/m*3 20.9 C 0 km/h
1629 12-06-2009 13:25:53 23.3 C 4.6 g/m*3 23.3 C 0 km/h
1630 12-06-2009 13:37:54 21.8 C 5.56 g/m*3 21.8 C 0 km/h
1631 12-06-2009 13:49:53 20.6 C 5.37 g/m*3 20.6 C 0 km/h
1632 12-06-2009 14:01:53 21 C 4.95 g/m*3 21 C 0 km/h
1633 12-06-2009 14:13:53 21.2 C 4.63 g/m*3 21.2 C 0 km/h
1634 12-06-2009 14:25:53 21.3 C 4.85 g/m*3 21.3 C 0 km/h
1635 12-06-2009 14:37:53 21.3 C 5.22 g/m*3 21.3 C 0 km/h
1636 12-06-2009 14:49:52 21 C 4.95 g/m*3 21 C 0 km/h
1637 12-06-2009 15:01:52 20.7 C 5.58 g/m*3 20.7 C 0 km/h
1638 12-06-2009 15:13:52 21.8 C 5.56 g/m*3 21.8 C 0 km/h
1639 12-06-2009 15:25:52 21.6 C 5.12 g/m*3 21.6 C 0 km/h
1640 12-06-2009 15:37:52 21.6 C 5.31 g/m*3 21.6 C 0 km/h
1641 12-06-2009 15:49:52 21.5 C 5.28 g/m*3 21.5 C 0 km/h
1642 12-06-2009 16:01:52 21.7 C 5.34 g/m*3 21.7 C 0 km/h
1643 12-06-2009 16:13:52 21.4 C 5.25 g/m*3 21.4 C 0 km/h
1644 12-06-2009 16:25:52 22.2 C 5.3 g/m*3 22.2 C 0 km/h
1645 12-06-2009 16:37:51 23.1 C 5.37 g/m*3 23.1 C 0 km/h
1646 12-06-2009 16:49:52 23.6 C 5.32 g/m*3 23.6 C 0 km/h
1647 12-06-2009 17:01:51 22.7 C 5.05 g/m*3 22.7 C 0 km/h
1648 12-06-2009 17:13:51 22.2 C 4.91 g/m*3 22.2 C 0 km/h
1649 12-06-2009 17:25:51 21.6 C 5.12 g/m*3 21.6 C 0 km/h
1650 12-06-2009 17:37:51 23 C 4.73 g/m*3 23 C 0 km/h
Sensor: Nr:Datum:Temp:Abs-Feuchte:Windchill:Wind:
Aussen-T/F 1651 12-06-2009 17:49:51 22.7 C 5.05 g/m*3 22.7 C 0 km/h
1652 12-06-2009 18:01:51 22.2 C 4.91 g/m*3 22.2 C 0 km/h
1653 12-06-2009 18:13:51 21.8 C 4.99 g/m*3 21.8 C 0 km/h
1654 12-06-2009 18:25:50 22.7 C 5.05 g/m*3 22.7 C 0 km/h
1655 12-06-2009 18:37:51 22 C 5.05 g/m*3 22 C 0 km/h
1656 12-06-2009 18:49:50 22.7 C 5.05 g/m*3 22.7 C 0 km/h
1657 12-06-2009 19:01:50 22.7 C 5.05 g/m*3 22.7 C 0 km/h
1658 12-06-2009 19:13:50 22.9 C 5.11 g/m*3 22.9 C 0 km/h
1659 12-06-2009 19:25:50 23.1 C 5.17 g/m*3 23.1 C 0 km/h
1660 12-06-2009 19:37:50 22.9 C 5.11 g/m*3 22.9 C 0 km/h
1661 12-06-2009 19:49:49 22.1 C 4.88 g/m*3 22.1 C 0 km/h
1662 12-06-2009 20:01:50 21.5 C 4.9 g/m*3 21.5 C 0 km/h
1663 12-06-2009 20:13:50 21.5 C 5.09 g/m*3 21.5 C 0 km/h
1664 12-06-2009 20:25:50 20.4 C 5.31 g/m*3 20.4 C 0 km/h
1665 12-06-2009 20:37:49 20.2 C 5.25 g/m*3 20.2 C 0 km/h
1666 12-06-2009 20:49:50 20 C 5.18 g/m*3 20 C 0 km/h
1667 12-06-2009 21:01:48 19.7 C 5.43 g/m*3 19.7 C 0 km/h
1668 12-06-2009 21:13:48 19 C 5.54 g/m*3 19 C 0 km/h
1669 12-06-2009 21:25:49 18.2 C 5.28 g/m*3 18.2 C 0 km/h
1670 12-06-2009 21:37:49 17.8 C 5.46 g/m*3 17.8 C 0 km/h
1671 12-06-2009 21:49:48 17.3 C 5.45 g/m*3 17.3 C 0 km/h
1672 12-06-2009 22:01:49 16.8 C 5.43 g/m*3 16.8 C 0 km/h
1673 12-06-2009 22:13:49 16.5 C 5.48 g/m*3 16.5 C 0 km/h
1674 12-06-2009 22:26:50 16.2 C 5.52 g/m*3 16.2 C 0 km/h
1675 12-06-2009 22:38:50 15.8 C 5.52 g/m*3 15.8 C 0 km/h
Sensor: Nr:Datum:Temp:Abs-Feuchte:Windchill:Wind:
Aussen-T/F 1676 12-06-2009 22:50:50 15.5 C 5.95 g/m*3 15.5 C 0 km/h
1677 12-06-2009 23:02:50 15 C 6.03 g/m*3 15 C 0 km/h
1678 12-06-2009 23:14:50 14.6 C 6.13 g/m*3 14.6 C 0 km/h
1679 12-06-2009 23:26:50 14.3 C 6.27 g/m*3 14.3 C 0 km/h
1680 12-06-2009 23:38:50 13.9 C 6.59 g/m*3 13.9 C 0 km/h
1681 12-06-2009 23:50:50 13.4 C 6.63 g/m*3 13.4 C 0 km/h
1682 13-06-2009 00:02:50 13.2 C 6.77 g/m*3 13.2 C 0 km/h
1683 13-06-2009 00:14:50 13 C 6.8 g/m*3 13 C 0 km/h
1684 13-06-2009 00:26:50 12.7 C 7.01 g/m*3 12.7 C 0 km/h
1685 13-06-2009 00:38:50 12.4 C 6.88 g/m*3 12.4 C 0 km/h
1686 13-06-2009 00:50:50 12.2 C 6.8 g/m*3 12.2 C 0 km/h
1687 13-06-2009 01:02:50 12.1 C 6.86 g/m*3 12.1 C 0 km/h
1688 13-06-2009 01:14:50 11.8 C 6.95 g/m*3 11.8 C 0 km/h
1689 13-06-2009 01:26:50 11.5 C 6.92 g/m*3 11.5 C 0 km/h
1690 13-06-2009 01:38:50 11.3 C 6.83 g/m*3 11.3 C 0 km/h
1691 13-06-2009 01:50:51 11.1 C 6.65 g/m*3 11.1 C 0 km/h
1692 13-06-2009 02:02:51 10.9 C 6.76 g/m*3 10.9 C 0 km/h
1693 13-06-2009 02:14:51 10.7 C 6.78 g/m*3 10.7 C 0 km/h
1694 13-06-2009 02:26:51 10.6 C 6.83 g/m*3 10.6 C 0 km/h
1695 13-06-2009 02:38:51 10.3 C 6.9 g/m*3 10.3 C 0 km/h
1696 13-06-2009 02:50:51 10.2 C 6.85 g/m*3 10.2 C 0 km/h
1697 13-06-2009 03:02:51 9.9 C 6.91 g/m*3 9.9 C 0 km/h
1698 13-06-2009 03:14:51 9.7 C 6.91 g/m*3 9.7 C 0 km/h
1699 13-06-2009 03:26:51 9.5 C 6.92 g/m*3 9.5 C 0 km/h
1700 13-06-2009 03:38:51 9.5 C 6.92 g/m*3 9.5 C 0 km/h
Sensor: Nr:Datum:Temp:Abs-Feuchte:Windchill:Wind:
Aussen-T/F 1701 13-06-2009 03:50:51 9.2 C 6.97 g/m*3 9.2 C 0 km/h
1702 13-06-2009 04:02:51 9 C 6.88 g/m*3 9 C 0 km/h
1703 13-06-2009 04:14:51 8.9 C 7.01 g/m*3 8.9 C 0 km/h
1704 13-06-2009 04:26:51 8.7 C 6.92 g/m*3 8.7 C 0 km/h
1705 13-06-2009 04:38:51 8.6 C 6.87 g/m*3 8.6 C 0 km/h
1706 13-06-2009 04:50:51 8.5 C 6.83 g/m*3 8.5 C 0 km/h
1707 13-06-2009 05:02:51 8.4 C 6.79 g/m*3 8.4 C 0 km/h
1708 13-06-2009 05:14:51 8.3 C 6.66 g/m*3 8.3 C 0 km/h
1709 13-06-2009 05:26:51 8.2 C 6.7 g/m*3 8.2 C 0 km/h
1710 13-06-2009 05:38:51 8.1 C 6.66 g/m*3 8.1 C 0 km/h
1711 13-06-2009 05:50:51 8.1 C 6.74 g/m*3 8.1 C 0 km/h
1712 13-06-2009 06:02:49 8.2 C 6.78 g/m*3 8.2 C 0 km/h
1713 13-06-2009 06:14:50 8.3 C 6.91 g/m*3 8.3 C 0 km/h
1714 13-06-2009 06:26:51 8.2 C 6.95 g/m*3 8.2 C 0 km/h
1715 13-06-2009 06:38:49 8.4 C 7.04 g/m*3 8.4 C 0 km/h
1716 13-06-2009 06:50:49 8.4 C 7.04 g/m*3 8.4 C 0 km/h
1717 13-06-2009 07:02:49 8.6 C 7.13 g/m*3 8.6 C 0 km/h
1718 13-06-2009 07:14:49 8.7 C 7.18 g/m*3 8.7 C 0 km/h
1719 13-06-2009 07:26:49 8.8 C 7.14 g/m*3 8.8 C 0 km/h
1720 13-06-2009 07:38:49 9.1 C 7.19 g/m*3 9.1 C 0 km/h
1721 13-06-2009 07:50:49 9.3 C 7.19 g/m*3 9.3 C 0 km/h
1722 13-06-2009 08:02:49 9.7 C 7.38 g/m*3 9.7 C 0 km/h
1723 13-06-2009 08:14:48 10 C 7.05 g/m*3 10 C 0 km/h
1724 13-06-2009 08:26:48 10.2 C 6.95 g/m*3 10.2 C 0 km/h
1725 13-06-2009 08:38:48 10.6 C 7.12 g/m*3 10.6 C 0 km/h
Sensor: Nr:Datum:Temp:Abs-Feuchte:Windchill:Wind:
Aussen-T/F 1726 13-06-2009 08:50:48 11.7 C 7.22 g/m*3 11.7 C 0 km/h
1727 13-06-2009 09:02:47 12.5 C 7.04 g/m*3 12.5 C 0 km/h
1728 13-06-2009 09:14:48 13.3 C 7.16 g/m*3 13.3 C 0 km/h
1729 13-06-2009 09:26:48 14 C 7 g/m*3 14 C 0 km/h
1730 13-06-2009 09:38:48 14.6 C 7.01 g/m*3 14.6 C 0 km/h
1731 13-06-2009 09:50:47 15.2 C 7.01 g/m*3 15.2 C 0 km/h
1732 13-06-2009 10:02:48 15.4 C 6.96 g/m*3 15.4 C 0 km/h
1733 13-06-2009 10:14:47 15.7 C 6.96 g/m*3 15.7 C 0 km/h
1734 13-06-2009 10:26:47 16.8 C 7.29 g/m*3 16.8 C 0 km/h
1735 13-06-2009 10:38:47 17.3 C 6.78 g/m*3 17.3 C 0 km/h
1736 13-06-2009 10:50:47 18.4 C 6.76 g/m*3 18.4 C 0 km/h
1737 13-06-2009 11:02:47 18.9 C 6.8 g/m*3 18.9 C 0 km/h
1738 13-06-2009 11:14:47 19.6 C 6.75 g/m*3 19.6 C 0 km/h
1739 13-06-2009 11:26:47 19.9 C 6.36 g/m*3 19.9 C 0 km/h
1740 13-06-2009 11:38:46 20.9 C 6.74 g/m*3 20.9 C 0 km/h
1741 13-06-2009 11:50:47 20.4 C 6.19 g/m*3 20.4 C 0 km/h
1742 13-06-2009 12:02:46 21.6 C 5.88 g/m*3 21.6 C 0 km/h
1743 13-06-2009 12:14:46 21.3 C 5.78 g/m*3 21.3 C 0 km/h
1744 13-06-2009 12:26:46 23.6 C 6.38 g/m*3 23.6 C 0 km/h
1745 13-06-2009 12:38:46 24.2 C 6.16 g/m*3 24.2 C 0 km/h
1746 13-06-2009 12:50:46 24.4 C 5.79 g/m*3 24.4 C 0 km/h
1747 13-06-2009 13:02:45 25.3 C 6.09 g/m*3 25.3 C 0 km/h
1748 13-06-2009 13:14:45 25 C 5.75 g/m*3 25 C 0 km/h
1749 13-06-2009 13:26:45 25.5 C 5.68 g/m*3 25.5 C 0 km/h
1750 13-06-2009 13:38:46 26.6 C 5.54 g/m*3 26.6 C 0 km/h
Sensor: Nr:Datum:Temp:Abs-Feuchte:Windchill:Wind:
Aussen-T/F 1751 13-06-2009 13:50:45 27.1 C 5.69 g/m*3 27.1 C 0 km/h
1752 13-06-2009 14:02:45 26.9 C 5.37 g/m*3 26.9 C 0 km/h
1753 13-06-2009 14:14:45 25 C 5.75 g/m*3 25 C 0 km/h
1754 13-06-2009 14:26:45 25.4 C 6.12 g/m*3 25.4 C 0 km/h
1755 13-06-2009 14:38:45 25.4 C 6.12 g/m*3 25.4 C 0 km/h
1756 13-06-2009 14:50:45 26.5 C 6.51 g/m*3 26.5 C 0 km/h
1757 13-06-2009 15:02:44 25.8 C 6.02 g/m*3 25.8 C 0 km/h
1758 13-06-2009 15:14:44 26 C 6.33 g/m*3 26 C 0 km/h
1759 13-06-2009 15:26:44 26.7 C 6.33 g/m*3 26.7 C 0 km/h
1760 13-06-2009 15:38:44 28.1 C 6.29 g/m*3 28.1 C 0 km/h
1761 13-06-2009 15:50:44 28.8 C 6.25 g/m*3 28.8 C 0 km/h
1762 13-06-2009 16:02:44 28.2 C 6.05 g/m*3 28.2 C 0 km/h
1763 13-06-2009 16:14:44 28.4 C 6.12 g/m*3 28.4 C 0 km/h
1764 13-06-2009 16:26:44 27.5 C 5.82 g/m*3 27.5 C 0 km/h
1765 13-06-2009 16:38:44 27.9 C 6.76 g/m*3 27.9 C 0 km/h
1766 13-06-2009 16:50:43 29.9 C 6.33 g/m*3 29.9 C 0 km/h
1767 13-06-2009 17:02:44 30.5 C 6.23 g/m*3 30.5 C 0 km/h
1768 13-06-2009 17:14:43 30.9 C 6.37 g/m*3 30.9 C 0 km/h
1769 13-06-2009 17:26:43 30.1 C 6.1 g/m*3 30.1 C 0 km/h
1770 13-06-2009 17:38:43 29.8 C 6 g/m*3 29.8 C 0 km/h
1771 13-06-2009 17:50:43 28.8 C 6.25 g/m*3 28.8 C 0 km/h
1772 13-06-2009 18:02:43 27.9 C 6.22 g/m*3 27.9 C 0 km/h
1773 13-06-2009 18:14:43 28 C 5.98 g/m*3 28 C 0 km/h
1774 13-06-2009 18:26:43 27.3 C 6.02 g/m*3 27.3 C 0 km/h
1775 13-06-2009 18:38:42 27.5 C 6.08 g/m*3 27.5 C 0 km/h
Sensor: Nr:Datum:Temp:Abs-Feuchte:Windchill:Wind:
Aussen-T/F 1776 13-06-2009 18:50:43 27.4 C 6.05 g/m*3 27.4 C 0 km/h
1777 13-06-2009 19:02:42 27 C 6.18 g/m*3 27 C 0 km/h
1778 13-06-2009 19:14:42 27.8 C 6.19 g/m*3 27.8 C 0 km/h
1779 13-06-2009 19:26:42 27.7 C 6.42 g/m*3 27.7 C 0 km/h
1780 13-06-2009 19:38:42 27.6 C 6.38 g/m*3 27.6 C 0 km/h
1781 13-06-2009 19:50:42 26.9 C 6.4 g/m*3 26.9 C 0 km/h
1782 13-06-2009 20:02:41 26.8 C 6.36 g/m*3 26.8 C 0 km/h
1783 13-06-2009 20:14:42 26.1 C 6.37 g/m*3 26.1 C 0 km/h
1784 13-06-2009 20:26:42 26.1 C 6.37 g/m*3 26.1 C 0 km/h
1785 13-06-2009 20:38:42 25.5 C 6.63 g/m*3 25.5 C 0 km/h
1786 13-06-2009 20:50:41 24.6 C 7.2 g/m*3 24.6 C 0 km/h
1787 13-06-2009 21:02:42 23.7 C 7.7 g/m*3 23.7 C 0 km/h
1788 13-06-2009 21:14:41 22.7 C 7.88 g/m*3 22.7 C 0 km/h
1789 13-06-2009 21:26:41 21.6 C 7.59 g/m*3 21.6 C 0 km/h
1790 13-06-2009 21:38:41 20.7 C 7.56 g/m*3 20.7 C 0 km/h
1791 13-06-2009 21:50:40 19.8 C 7.52 g/m*3 19.8 C 0 km/h
1792 13-06-2009 22:02:41 19.5 C 7.72 g/m*3 19.5 C 0 km/h
1793 13-06-2009 22:14:40 19.1 C 7.54 g/m*3 19.1 C 0 km/h
1794 13-06-2009 22:26:40 19.1 C 7.54 g/m*3 19.1 C 0 km/h
1795 13-06-2009 22:38:41 18.9 C 7.45 g/m*3 18.9 C 0 km/h
1796 13-06-2009 22:51:41 18.6 C 7.64 g/m*3 18.6 C 0 km/h
1797 13-06-2009 23:03:41 18.2 C 7.46 g/m*3 18.2 C 0 km/h
1798 13-06-2009 23:15:41 18.1 C 7.57 g/m*3 18.1 C 0 km/h
1799 13-06-2009 23:27:41 17.9 C 7.79 g/m*3 17.9 C 0 km/h
1800 13-06-2009 23:39:41 17.3 C 7.51 g/m*3 17.3 C 0 km/h
Sensor: Nr:Datum:Temp:Abs-Feuchte:Windchill:Wind:
Aussen-T/F 1801 13-06-2009 23:51:41 17 C 7.52 g/m*3 17 C 0 km/h
1802 14-06-2009 00:03:41 16.8 C 7.72 g/m*3 16.8 C 0 km/h
1803 14-06-2009 00:15:41 16.5 C 7.72 g/m*3 16.5 C 0 km/h
1804 14-06-2009 00:27:41 16.3 C 7.77 g/m*3 16.3 C 0 km/h
1805 14-06-2009 00:39:41 16 C 8.04 g/m*3 16 C 0 km/h
1806 14-06-2009 00:51:41 15.6 C 8.11 g/m*3 15.6 C 0 km/h
1807 14-06-2009 01:03:41 15.6 C 7.98 g/m*3 15.6 C 0 km/h
1808 14-06-2009 01:15:41 15.4 C 7.88 g/m*3 15.4 C 0 km/h
1809 14-06-2009 01:27:41 15.2 C 7.79 g/m*3 15.2 C 0 km/h
1810 14-06-2009 01:39:41 15 C 8.08 g/m*3 15 C 0 km/h
1811 14-06-2009 01:51:41 14.8 C 8.11 g/m*3 14.8 C 0 km/h
1812 14-06-2009 02:03:41 14.7 C 8.18 g/m*3 14.7 C 0 km/h
1813 14-06-2009 02:15:41 14.6 C 8.26 g/m*3 14.6 C 0 km/h
1814 14-06-2009 02:27:42 14.3 C 8.23 g/m*3 14.3 C 0 km/h
1815 14-06-2009 02:39:42 14.1 C 8.37 g/m*3 14.1 C 0 km/h
1816 14-06-2009 02:51:42 14 C 8.44 g/m*3 14 C 0 km/h
1817 14-06-2009 03:03:42 13.9 C 8.51 g/m*3 13.9 C 0 km/h
1818 14-06-2009 03:15:42 13.6 C 8.36 g/m*3 13.6 C 0 km/h
1819 14-06-2009 03:27:42 13.6 C 8.36 g/m*3 13.6 C 0 km/h
1820 14-06-2009 03:39:42 13.4 C 8.37 g/m*3 13.4 C 0 km/h
1821 14-06-2009 03:51:42 13.4 C 8.37 g/m*3 13.4 C 0 km/h
1822 14-06-2009 04:03:42 13.1 C 8.22 g/m*3 13.1 C 0 km/h
1823 14-06-2009 04:15:42 12.9 C 8.23 g/m*3 12.9 C 0 km/h
1824 14-06-2009 04:27:42 12.8 C 8.29 g/m*3 12.8 C 0 km/h
1825 14-06-2009 04:39:42 12.7 C 8.35 g/m*3 12.7 C 0 km/h
Sensor: Nr:Datum:Temp:Abs-Feuchte:Windchill:Wind:
Aussen-T/F 1826 14-06-2009 04:51:42 12.5 C 8.25 g/m*3 12.5 C 0 km/h
1827 14-06-2009 05:03:42 12.4 C 8.3 g/m*3 12.4 C 0 km/h
1828 14-06-2009 05:15:42 12.2 C 8.2 g/m*3 12.2 C 0 km/h
1829 14-06-2009 05:27:42 12.2 C 8.31 g/m*3 12.2 C 0 km/h
1830 14-06-2009 05:39:42 12.1 C 8.26 g/m*3 12.1 C 0 km/h
1831 14-06-2009 05:51:42 12 C 8.31 g/m*3 12 C 0 km/h
1832 14-06-2009 06:03:42 12 C 8.31 g/m*3 12 C 0 km/h
1833 14-06-2009 06:15:43 12.4 C 8.52 g/m*3 12.4 C 0 km/h
1834 14-06-2009 06:27:43 12.8 C 8.62 g/m*3 12.8 C 0 km/h
1835 14-06-2009 06:39:43 13 C 8.62 g/m*3 13 C 0 km/h
1836 14-06-2009 06:51:43 13.2 C 8.61 g/m*3 13.2 C 0 km/h
1837 14-06-2009 07:03:43 13 C 8.51 g/m*3 13 C 0 km/h
1838 14-06-2009 07:15:43 13 C 8.62 g/m*3 13 C 0 km/h
1839 14-06-2009 07:27:43 13.1 C 8.67 g/m*3 13.1 C 0 km/h
1840 14-06-2009 07:39:43 13.4 C 8.72 g/m*3 13.4 C 0 km/h
1841 14-06-2009 07:51:43 13.4 C 8.72 g/m*3 13.4 C 0 km/h
1842 14-06-2009 08:03:41 13.6 C 8.71 g/m*3 13.6 C 0 km/h
1843 14-06-2009 08:15:41 13.6 C 8.71 g/m*3 13.6 C 0 km/h
1844 14-06-2009 08:27:41 13.8 C 8.58 g/m*3 13.8 C 0 km/h
1845 14-06-2009 08:39:41 14.2 C 8.55 g/m*3 14.2 C 0 km/h
1846 14-06-2009 08:51:40 14.8 C 8.87 g/m*3 14.8 C 0 km/h
1847 14-06-2009 09:03:41 15.3 C 8.88 g/m*3 15.3 C 0 km/h
1848 14-06-2009 09:15:41 15.9 C 8.94 g/m*3 15.9 C 0 km/h
1849 14-06-2009 09:27:41 16.7 C 9.24 g/m*3 16.7 C 0 km/h
1850 14-06-2009 09:39:41 17.6 C 9.3 g/m*3 17.6 C 0 km/h
Sensor: Nr:Datum:Temp:Abs-Feuchte:Windchill:Wind:
Aussen-T/F 1851 14-06-2009 09:51:40 18.3 C 9.07 g/m*3 18.3 C 0 km/h
1852 14-06-2009 10:03:40 19.4 C 9.34 g/m*3 19.4 C 0 km/h
1853 14-06-2009 10:15:40 20.1 C 9.21 g/m*3 20.1 C 0 km/h
1854 14-06-2009 10:27:40 20.8 C 9.05 g/m*3 20.8 C 0 km/h
1855 14-06-2009 10:39:39 21.6 C 8.72 g/m*3 21.6 C 0 km/h
1856 14-06-2009 10:51:40 21.7 C 8.39 g/m*3 21.7 C 0 km/h
1857 14-06-2009 11:03:39 22.5 C 8.39 g/m*3 22.5 C 0 km/h
1858 14-06-2009 11:15:39 23.7 C 8.77 g/m*3 23.7 C 0 km/h
1859 14-06-2009 11:27:39 24.8 C 8.88 g/m*3 24.8 C 0 km/h
1860 14-06-2009 11:39:40 25.5 C 8.52 g/m*3 25.5 C 0 km/h
1861 14-06-2009 11:51:39 26.1 C 7.59 g/m*3 26.1 C 0 km/h
1862 14-06-2009 12:03:39 26.8 C 7.64 g/m*3 26.8 C 0 km/h
1863 14-06-2009 12:15:39 26.4 C 7.22 g/m*3 26.4 C 0 km/h
1864 14-06-2009 12:27:39 27 C 7.72 g/m*3 27 C 0 km/h
1865 14-06-2009 12:39:39 26.1 C 7.1 g/m*3 26.1 C 0 km/h
1866 14-06-2009 12:51:38 27.9 C 7.3 g/m*3 27.9 C 0 km/h
1867 14-06-2009 13:03:39 27.5 C 7.14 g/m*3 27.5 C 0 km/h
1868 14-06-2009 13:15:38 28.3 C 7.46 g/m*3 28.3 C 0 km/h
1869 14-06-2009 13:27:38 28.2 C 7.42 g/m*3 28.2 C 0 km/h
1870 14-06-2009 13:39:38 28.2 C 7.42 g/m*3 28.2 C 0 km/h
1871 14-06-2009 13:51:37 27.8 C 6.99 g/m*3 27.8 C 0 km/h
1872 14-06-2009 14:03:38 28.7 C 7.63 g/m*3 28.7 C 0 km/h
1873 14-06-2009 14:15:38 28.9 C 7.71 g/m*3 28.9 C 0 km/h
1874 14-06-2009 14:27:38 28.3 C 7.74 g/m*3 28.3 C 0 km/h
1875 14-06-2009 14:39:37 28.6 C 7.59 g/m*3 28.6 C 0 km/h
Sensor: Nr:Datum:Temp:Abs-Feuchte:Windchill:Wind:
Aussen-T/F 1876 14-06-2009 14:51:38 28.6 C 7.59 g/m*3 28.6 C 0 km/h
1877 14-06-2009 15:03:37 29.1 C 7.51 g/m*3 29.1 C 0 km/h
1878 14-06-2009 15:15:37 29.6 C 7.42 g/m*3 29.6 C 0 km/h
1879 14-06-2009 15:27:37 29.6 C 7.42 g/m*3 29.6 C 0 km/h
1880 14-06-2009 15:39:36 30.2 C 7.66 g/m*3 30.2 C 0 km/h
1881 14-06-2009 15:51:37 30.3 C 7.09 g/m*3 30.3 C 0 km/h
1882 14-06-2009 16:03:36 30.4 C 7.13 g/m*3 30.4 C 0 km/h
1883 14-06-2009 16:15:36 30.3 C 7.09 g/m*3 30.3 C 0 km/h
1884 14-06-2009 16:27:36 30.9 C 7 g/m*3 30.9 C 0 km/h
1885 14-06-2009 16:39:37 31.5 C 7.23 g/m*3 31.5 C 0 km/h
1886 14-06-2009 16:51:36 30.8 C 6.65 g/m*3 30.8 C 0 km/h
1887 14-06-2009 17:03:36 31.2 C 6.47 g/m*3 31.2 C 0 km/h
1888 14-06-2009 17:15:36 31 C 6.72 g/m*3 31 C 0 km/h
1889 14-06-2009 17:27:36 31.2 C 6.47 g/m*3 31.2 C 0 km/h
1890 14-06-2009 17:39:36 30.7 C 7.24 g/m*3 30.7 C 0 km/h
1891 14-06-2009 17:51:35 26.2 C 8.86 g/m*3 26.2 C 0 km/h
1892 14-06-2009 18:03:36 24.8 C 10.7 g/m*3 24.8 C 0 km/h
1893 14-06-2009 18:15:35 26.4 C 9.71 g/m*3 26.4 C 0 km/h
1894 14-06-2009 18:27:35 27.9 C 10.01 g/m*3 27.9 C 0 km/h
1895 14-06-2009 18:39:35 27.2 C 9.63 g/m*3 27.2 C 0 km/h
1896 14-06-2009 18:51:35 25.1 C 10.88 g/m*3 25.1 C 0 km/h
1897 14-06-2009 19:03:35 24.6 C 11.93 g/m*3 24.6 C 0 km/h
1898 14-06-2009 19:15:35 22.4 C 14.1 g/m*3 22.4 C 0 km/h
1899 14-06-2009 19:27:35 22 C 15.72 g/m*3 22 C 0 km/h
1900 14-06-2009 19:39:34 22.4 C 16.09 g/m*3 22.4 C 0 km/h
Sensor: Nr:Datum:Temp:Abs-Feuchte:Windchill:Wind:
Aussen-T/F 1901 14-06-2009 19:51:35 22.3 C 15.6 g/m*3 22.3 C 0 km/h
1902 14-06-2009 20:03:34 21.8 C 14.97 g/m*3 21.8 C 0 km/h
1903 14-06-2009 20:15:34 21.6 C 14.79 g/m*3 21.6 C 0 km/h
1904 14-06-2009 20:27:34 21.2 C 14.27 g/m*3 21.2 C 0 km/h
1905 14-06-2009 20:39:34 20.7 C 14.4 g/m*3 20.7 C 0 km/h
1906 14-06-2009 20:51:34 20.6 C 14.86 g/m*3 20.6 C 0 km/h
1907 14-06-2009 21:03:34 20.4 C 14.86 g/m*3 20.4 C 0 km/h
1908 14-06-2009 21:15:33 20.4 C 15.04 g/m*3 20.4 C 0 km/h
1909 14-06-2009 21:27:33 20.4 C 15.04 g/m*3 20.4 C 0 km/h
1910 14-06-2009 21:39:33 20.1 C 14.78 g/m*3 20.1 C 0 km/h
1911 14-06-2009 21:51:33 20 C 14.52 g/m*3 20 C 0 km/h
1912 14-06-2009 22:03:33 19.9 C 14.43 g/m*3 19.9 C 0 km/h
1913 14-06-2009 22:16:34 19.8 C 14.18 g/m*3 19.8 C 0 km/h
1914 14-06-2009 22:28:34 19.8 C 14.18 g/m*3 19.8 C 0 km/h
1915 14-06-2009 22:40:34 19.8 C 14.18 g/m*3 19.8 C 0 km/h
1916 14-06-2009 22:52:34 19.7 C 13.92 g/m*3 19.7 C 0 km/h
1917 14-06-2009 23:04:34 19.1 C 13.61 g/m*3 19.1 C 0 km/h
1918 14-06-2009 23:16:34 18.9 C 13.77 g/m*3 18.9 C 0 km/h
1919 14-06-2009 23:28:34 18.7 C 13.77 g/m*3 18.7 C 0 km/h
1920 14-06-2009 23:40:34 18.7 C 13.93 g/m*3 18.7 C 0 km/h
1921 14-06-2009 23:52:34 18.5 C 13.61 g/m*3 18.5 C 0 km/h
1922 15-06-2009 00:04:34 18.4 C 13.53 g/m*3 18.4 C 0 km/h
1923 15-06-2009 00:16:34 18.3 C 13.45 g/m*3 18.3 C 0 km/h
1924 15-06-2009 00:28:34 18.2 C 13.37 g/m*3 18.2 C 0 km/h
1925 15-06-2009 00:40:34 18.3 C 13.6 g/m*3 18.3 C 0 km/h
Sensor: Nr:Datum:Temp:Abs-Feuchte:Windchill:Wind:
Aussen-T/F 1926 15-06-2009 00:52:34 18.3 C 13.45 g/m*3 18.3 C 0 km/h
1927 15-06-2009 01:04:34 17.9 C 13.13 g/m*3 17.9 C 0 km/h
1928 15-06-2009 01:16:34 17.7 C 12.98 g/m*3 17.7 C 0 km/h
1929 15-06-2009 01:28:34 17.5 C 12.82 g/m*3 17.5 C 0 km/h
1930 15-06-2009 01:40:35 17.3 C 12.67 g/m*3 17.3 C 0 km/h
1931 15-06-2009 01:52:35 17.3 C 12.82 g/m*3 17.3 C 0 km/h
1932 15-06-2009 02:04:35 17.2 C 12.74 g/m*3 17.2 C 0 km/h
1933 15-06-2009 02:16:35 17.1 C 12.66 g/m*3 17.1 C 0 km/h
1934 15-06-2009 02:28:35 17 C 12.59 g/m*3 17 C 0 km/h
1935 15-06-2009 02:40:35 16.9 C 12.51 g/m*3 16.9 C 0 km/h
1936 15-06-2009 02:52:35 16.9 C 12.51 g/m*3 16.9 C 0 km/h
1937 15-06-2009 03:04:35 17 C 12.59 g/m*3 17 C 0 km/h
1938 15-06-2009 03:16:35 17.1 C 12.66 g/m*3 17.1 C 0 km/h
1939 15-06-2009 03:28:35 17.1 C 12.66 g/m*3 17.1 C 0 km/h
1940 15-06-2009 03:40:35 17.2 C 12.59 g/m*3 17.2 C 0 km/h
1941 15-06-2009 03:52:35 17 C 12.3 g/m*3 17 C 0 km/h
1942 15-06-2009 04:04:35 16.8 C 12.3 g/m*3 16.8 C 0 km/h
1943 15-06-2009 04:16:35 16.8 C 12.44 g/m*3 16.8 C 0 km/h
1944 15-06-2009 04:28:35 16.6 C 12.29 g/m*3 16.6 C 0 km/h
1945 15-06-2009 04:40:35 16.4 C 12.14 g/m*3 16.4 C 0 km/h
1946 15-06-2009 04:52:35 16.3 C 12.07 g/m*3 16.3 C 0 km/h
1947 15-06-2009 05:04:35 16.3 C 12.21 g/m*3 16.3 C 0 km/h
1948 15-06-2009 05:16:35 16.4 C 12.42 g/m*3 16.4 C 0 km/h
1949 15-06-2009 05:28:36 16.5 C 12.5 g/m*3 16.5 C 0 km/h
1950 15-06-2009 05:40:36 16.6 C 12.57 g/m*3 16.6 C 0 km/h
Sensor: Nr:Datum:Temp:Abs-Feuchte:Windchill:Wind:
Aussen-T/F 1951 15-06-2009 05:52:36 16.6 C 12.57 g/m*3 16.6 C 0 km/h
1952 15-06-2009 06:04:36 16.8 C 12.58 g/m*3 16.8 C 0 km/h
1953 15-06-2009 06:16:36 16.5 C 12.36 g/m*3 16.5 C 0 km/h
1954 15-06-2009 06:28:36 16.8 C 12.58 g/m*3 16.8 C 0 km/h
1955 15-06-2009 06:40:36 16.9 C 12.51 g/m*3 16.9 C 0 km/h
1956 15-06-2009 06:52:36 17 C 12.44 g/m*3 17 C 0 km/h
1957 15-06-2009 07:04:36 17.2 C 12.45 g/m*3 17.2 C 0 km/h
1958 15-06-2009 07:16:34 16.8 C 12.3 g/m*3 16.8 C 0 km/h
1959 15-06-2009 07:28:34 17 C 12.3 g/m*3 17 C 0 km/h
1960 15-06-2009 07:40:34 17.3 C 12.52 g/m*3 17.3 C 0 km/h
1961 15-06-2009 07:52:33 17.5 C 12.52 g/m*3 17.5 C 0 km/h
1962 15-06-2009 08:04:34 17.8 C 12.75 g/m*3 17.8 C 0 km/h
1963 15-06-2009 08:16:33 17.8 C 12.75 g/m*3 17.8 C 0 km/h
1964 15-06-2009 08:28:33 17.9 C 12.98 g/m*3 17.9 C 0 km/h
1965 15-06-2009 08:40:33 18 C 12.9 g/m*3 18 C 0 km/h
1966 15-06-2009 08:52:33 18.1 C 12.98 g/m*3 18.1 C 0 km/h
1967 15-06-2009 09:04:32 18.5 C 13.13 g/m*3 18.5 C 0 km/h
1968 15-06-2009 09:16:33 18.5 C 12.97 g/m*3 18.5 C 0 km/h
1969 15-06-2009 09:28:34 18.5 C 12.82 g/m*3 18.5 C 0 km/h
1970 15-06-2009 09:40:32 18.5 C 12.82 g/m*3 18.5 C 0 km/h
1971 15-06-2009 09:52:32 18.3 C 12.66 g/m*3 18.3 C 0 km/h
1972 15-06-2009 10:04:32 18 C 12.44 g/m*3 18 C 0 km/h
1973 15-06-2009 10:16:32 17.9 C 12.83 g/m*3 17.9 C 0 km/h
1974 15-06-2009 10:28:32 17.9 C 12.98 g/m*3 17.9 C 0 km/h
1975 15-06-2009 10:40:32 17.8 C 13.05 g/m*3 17.8 C 0 km/h
Sensor: Nr:Datum:Temp:Abs-Feuchte:Windchill:Wind:
Aussen-T/F 1976 15-06-2009 10:52:32 17.6 C 12.9 g/m*3 17.6 C 0 km/h
1977 15-06-2009 11:04:32 17.2 C 12.74 g/m*3 17.2 C 0 km/h
1978 15-06-2009 11:16:31 17.2 C 12.89 g/m*3 17.2 C 0 km/h
1979 15-06-2009 11:28:31 17.3 C 13.11 g/m*3 17.3 C 0 km/h
1980 15-06-2009 11:40:31 17.3 C 13.11 g/m*3 17.3 C 0 km/h
1981 15-06-2009 11:52:31 17.3 C 13.26 g/m*3 17.3 C 0 km/h
1982 15-06-2009 12:04:31 17.5 C 13.57 g/m*3 17.5 C 0 km/h
1983 15-06-2009 12:16:31 17.5 C 13.57 g/m*3 17.5 C 0 km/h
1984 15-06-2009 12:28:31 17.5 C 13.57 g/m*3 17.5 C 0 km/h
1985 15-06-2009 12:40:30 17.8 C 13.96 g/m*3 17.8 C 0 km/h
1986 15-06-2009 12:52:31 18.1 C 14.06 g/m*3 18.1 C 0 km/h
1987 15-06-2009 13:04:30 18.3 C 14.23 g/m*3 18.3 C 0 km/h
1988 15-06-2009 13:16:30 17.9 C 14.05 g/m*3 17.9 C 0 km/h
1989 15-06-2009 13:28:30 18 C 13.98 g/m*3 18 C 0 km/h
1990 15-06-2009 13:40:30 18.3 C 14.23 g/m*3 18.3 C 0 km/h
1991 15-06-2009 13:52:30 18.4 C 14.31 g/m*3 18.4 C 0 km/h
1992 15-06-2009 14:04:30 18.2 C 14.14 g/m*3 18.2 C 0 km/h
1993 15-06-2009 14:16:30 17.9 C 14.05 g/m*3 17.9 C 0 km/h
1994 15-06-2009 14:28:30 17.9 C 14.05 g/m*3 17.9 C 0 km/h
1995 15-06-2009 14:40:30 17.8 C 14.12 g/m*3 17.8 C 0 km/h
1996 15-06-2009 14:52:29 17.6 C 13.95 g/m*3 17.6 C 0 km/h
1997 15-06-2009 15:04:29 17.8 C 14.12 g/m*3 17.8 C 0 km/h
1998 15-06-2009 15:16:29 17.9 C 14.2 g/m*3 17.9 C 0 km/h
1999 15-06-2009 15:28:29 17.9 C 14.2 g/m*3 17.9 C 0 km/h
2000 15-06-2009 15:40:29 17.1 C 13.54 g/m*3 17.1 C 0 km/h
Sensor: Nr:Datum:Temp:Abs-Feuchte:Windchill:Wind:
Aussen-T/F 2001 15-06-2009 15:52:28 16.8 C 13.44 g/m*3 16.8 C 0 km/h
2002 15-06-2009 16:04:29 16.4 C 13.12 g/m*3 16.4 C 0 km/h
2003 15-06-2009 16:16:29 16.2 C 12.96 g/m*3 16.2 C 0 km/h
2004 15-06-2009 16:28:29 16.2 C 12.96 g/m*3 16.2 C 0 km/h
2005 15-06-2009 16:40:28 16.1 C 12.88 g/m*3 16.1 C 0 km/h
2006 15-06-2009 16:52:29 16.2 C 12.96 g/m*3 16.2 C 0 km/h
2007 15-06-2009 17:04:28 15.8 C 12.65 g/m*3 15.8 C 0 km/h
2008 15-06-2009 17:16:28 16.1 C 12.75 g/m*3 16.1 C 0 km/h
2009 15-06-2009 17:28:28 16.4 C 12.98 g/m*3 16.4 C 0 km/h
2010 15-06-2009 17:40:28 16.8 C 13.3 g/m*3 16.8 C 0 km/h
2011 15-06-2009 17:52:28 16.6 C 13.14 g/m*3 16.6 C 0 km/h
2012 15-06-2009 18:04:28 16.6 C 13 g/m*3 16.6 C 0 km/h
2013 15-06-2009 18:16:27 16.4 C 12.84 g/m*3 16.4 C 0 km/h
2014 15-06-2009 18:28:27 16.3 C 12.76 g/m*3 16.3 C 0 km/h
2015 15-06-2009 18:40:28 16.2 C 12.69 g/m*3 16.2 C 0 km/h
2016 15-06-2009 18:52:27 15.7 C 12.04 g/m*3 15.7 C 0 km/h
2017 15-06-2009 19:04:27 15.8 C 11.85 g/m*3 15.8 C 0 km/h
2018 15-06-2009 19:16:26 15.7 C 11.77 g/m*3 15.7 C 0 km/h
2019 15-06-2009 19:28:26 15.5 C 11.76 g/m*3 15.5 C 0 km/h
2020 15-06-2009 19:40:27 15.4 C 11.82 g/m*3 15.4 C 0 km/h
2021 15-06-2009 19:52:26 15.2 C 11.81 g/m*3 15.2 C 0 km/h
2022 15-06-2009 20:04:26 15.1 C 11.87 g/m*3 15.1 C 0 km/h
2023 15-06-2009 20:16:27 15.2 C 11.94 g/m*3 15.2 C 0 km/h
2024 15-06-2009 20:28:27 15.2 C 12.07 g/m*3 15.2 C 0 km/h
2025 15-06-2009 20:40:26 15.1 C 12 g/m*3 15.1 C 0 km/h
Sensor: Nr:Datum:Temp:Abs-Feuchte:Windchill:Wind:
Aussen-T/F 2026 15-06-2009 20:52:26 14.9 C 11.98 g/m*3 14.9 C 0 km/h
2027 15-06-2009 21:04:26 14.7 C 11.71 g/m*3 14.7 C 0 km/h
2028 15-06-2009 21:16:26 14.8 C 11.78 g/m*3 14.8 C 0 km/h
2029 15-06-2009 21:28:26 14.9 C 11.98 g/m*3 14.9 C 0 km/h
2030 15-06-2009 21:40:26 14.8 C 11.91 g/m*3 14.8 C 0 km/h
2031 15-06-2009 21:52:25 14.8 C 11.91 g/m*3 14.8 C 0 km/h
2032 15-06-2009 22:04:25 14.8 C 11.91 g/m*3 14.8 C 0 km/h
2033 15-06-2009 22:17:26 14.6 C 11.76 g/m*3 14.6 C 0 km/h
2034 15-06-2009 22:29:26 14.7 C 11.71 g/m*3 14.7 C 0 km/h
2035 15-06-2009 22:41:26 14.4 C 11.37 g/m*3 14.4 C 0 km/h
2036 15-06-2009 22:53:26 14.1 C 11.04 g/m*3 14.1 C 0 km/h
2037 15-06-2009 23:05:26 14.1 C 11.04 g/m*3 14.1 C 0 km/h
2038 15-06-2009 23:17:26 14 C 10.86 g/m*3 14 C 0 km/h
2039 15-06-2009 23:29:26 13.8 C 10.84 g/m*3 13.8 C 0 km/h
2040 15-06-2009 23:41:26 13.7 C 10.78 g/m*3 13.7 C 0 km/h
2041 15-06-2009 23:53:26 13.6 C 10.71 g/m*3 13.6 C 0 km/h
2042 16-06-2009 00:05:26 13.5 C 10.64 g/m*3 13.5 C 0 km/h
2043 16-06-2009 00:17:26 13.4 C 10.58 g/m*3 13.4 C 0 km/h
2044 16-06-2009 00:29:26 13.2 C 10.45 g/m*3 13.2 C 0 km/h
2045 16-06-2009 00:41:26 13 C 10.43 g/m*3 13 C 0 km/h
2046 16-06-2009 00:53:26 12.8 C 10.3 g/m*3 12.8 C 0 km/h
2047 16-06-2009 01:05:27 12.8 C 10.42 g/m*3 12.8 C 0 km/h
2048 16-06-2009 01:17:27 12.7 C 10.35 g/m*3 12.7 C 0 km/h
2049 16-06-2009 01:29:27 12.5 C 10.22 g/m*3 12.5 C 0 km/h
2050 16-06-2009 01:41:27 12.3 C 10.1 g/m*3 12.3 C 0 km/h
Sensor: Nr:Datum:Temp:Abs-Feuchte:Windchill:Wind:
Aussen-T/F 2051 16-06-2009 01:53:27 12.1 C 9.97 g/m*3 12.1 C 0 km/h
2052 16-06-2009 02:05:27 12.1 C 9.97 g/m*3 12.1 C 0 km/h
2053 16-06-2009 02:17:27 12.1 C 9.97 g/m*3 12.1 C 0 km/h
2054 16-06-2009 02:29:27 12 C 10.02 g/m*3 12 C 0 km/h
2055 16-06-2009 02:41:27 12 C 10.02 g/m*3 12 C 0 km/h
2056 16-06-2009 02:53:27 12 C 10.02 g/m*3 12 C 0 km/h
2057 16-06-2009 03:05:27 12 C 10.02 g/m*3 12 C 0 km/h
2058 16-06-2009 03:17:27 12.1 C 10.08 g/m*3 12.1 C 0 km/h
2059 16-06-2009 03:29:27 12.1 C 10.08 g/m*3 12.1 C 0 km/h
2060 16-06-2009 03:41:27 12.1 C 10.19 g/m*3 12.1 C 0 km/h
2061 16-06-2009 03:53:27 11.8 C 10 g/m*3 11.8 C 0 km/h
2062 16-06-2009 04:05:27 11.8 C 10 g/m*3 11.8 C 0 km/h
2063 16-06-2009 04:17:27 12.1 C 10.19 g/m*3 12.1 C 0 km/h
2064 16-06-2009 04:29:27 12.1 C 10.19 g/m*3 12.1 C 0 km/h
2065 16-06-2009 04:41:27 12.1 C 10.19 g/m*3 12.1 C 0 km/h
2066 16-06-2009 04:53:28 12 C 10.12 g/m*3 12 C 0 km/h
2067 16-06-2009 05:05:28 12.1 C 10.19 g/m*3 12.1 C 0 km/h
2068 16-06-2009 05:17:28 12.2 C 10.25 g/m*3 12.2 C 0 km/h
2069 16-06-2009 05:29:28 12.4 C 10.38 g/m*3 12.4 C 0 km/h
2070 16-06-2009 05:41:28 12.4 C 10.38 g/m*3 12.4 C 0 km/h
2071 16-06-2009 05:53:28 12.4 C 10.38 g/m*3 12.4 C 0 km/h
2072 16-06-2009 06:05:28 12.4 C 10.38 g/m*3 12.4 C 0 km/h
2073 16-06-2009 06:17:28 12.4 C 10.38 g/m*3 12.4 C 0 km/h
2074 16-06-2009 06:29:28 12.4 C 10.38 g/m*3 12.4 C 0 km/h
2075 16-06-2009 06:41:28 12.3 C 10.32 g/m*3 12.3 C 0 km/h
Sensor: Nr:Datum:Temp:Abs-Feuchte:Windchill:Wind:
Aussen-T/F 2076 16-06-2009 06:53:26 12.3 C 10.32 g/m*3 12.3 C 0 km/h
2077 16-06-2009 07:05:26 12.3 C 10.32 g/m*3 12.3 C 0 km/h
2078 16-06-2009 07:17:26 12.4 C 10.38 g/m*3 12.4 C 0 km/h
2079 16-06-2009 07:29:26 12.5 C 10.44 g/m*3 12.5 C 0 km/h
2080 16-06-2009 07:41:26 12.6 C 10.51 g/m*3 12.6 C 0 km/h
2081 16-06-2009 07:53:25 12.6 C 10.51 g/m*3 12.6 C 0 km/h
2082 16-06-2009 08:05:26 12.8 C 10.64 g/m*3 12.8 C 0 km/h
2083 16-06-2009 08:17:25 12.7 C 10.58 g/m*3 12.7 C 0 km/h
2084 16-06-2009 08:29:25 12.9 C 10.71 g/m*3 12.9 C 0 km/h
2085 16-06-2009 08:41:25 13.2 C 10.91 g/m*3 13.2 C 0 km/h
2086 16-06-2009 08:53:25 13.2 C 10.91 g/m*3 13.2 C 0 km/h
2087 16-06-2009 09:05:25 13.6 C 11.18 g/m*3 13.6 C 0 km/h
2088 16-06-2009 09:17:25 13.5 C 11.11 g/m*3 13.5 C 0 km/h
2089 16-06-2009 09:29:25 14.1 C 11.41 g/m*3 14.1 C 0 km/h
2090 16-06-2009 09:41:24 14.5 C 11.44 g/m*3 14.5 C 0 km/h
2091 16-06-2009 09:53:25 14.4 C 11 g/m*3 14.4 C 0 km/h
2092 16-06-2009 10:05:24 14.7 C 10.58 g/m*3 14.7 C 0 km/h
2093 16-06-2009 10:17:24 15.2 C 10.25 g/m*3 15.2 C 0 km/h
2094 16-06-2009 10:29:24 16.5 C 10.53 g/m*3 16.5 C 0 km/h
2095 16-06-2009 10:41:24 16.1 C 10.01 g/m*3 16.1 C 0 km/h
2096 16-06-2009 10:53:24 16.6 C 10.17 g/m*3 16.6 C 0 km/h
2097 16-06-2009 11:05:23 17.7 C 9.81 g/m*3 17.7 C 0 km/h
2098 16-06-2009 11:17:23 17.5 C 9.39 g/m*3 17.5 C 0 km/h
2099 16-06-2009 11:29:23 18.1 C 9.43 g/m*3 18.1 C 0 km/h
2100 16-06-2009 11:41:24 18.7 C 8.65 g/m*3 18.7 C 0 km/h
Sensor: Nr:Datum:Temp:Abs-Feuchte:Windchill:Wind:
Aussen-T/F 2101 16-06-2009 11:53:23 19 C 8.47 g/m*3 19 C 0 km/h
2102 16-06-2009 12:05:23 19.8 C 7.34 g/m*3 19.8 C 0 km/h
2103 16-06-2009 12:17:23 20.2 C 7.52 g/m*3 20.2 C 0 km/h
2104 16-06-2009 12:29:23 20.8 C 7.24 g/m*3 20.8 C 0 km/h
2105 16-06-2009 12:41:23 21.4 C 6.75 g/m*3 21.4 C 0 km/h
2106 16-06-2009 12:53:22 20 C 6.74 g/m*3 20 C 0 km/h
2107 16-06-2009 13:05:23 21.6 C 6.64 g/m*3 21.6 C 0 km/h
2108 16-06-2009 13:17:23 21.7 C 6.49 g/m*3 21.7 C 0 km/h
2109 16-06-2009 13:29:23 21.5 C 6.6 g/m*3 21.5 C 0 km/h
2110 16-06-2009 13:41:22 23 C 5.96 g/m*3 23 C 0 km/h
2111 16-06-2009 13:53:23 23.6 C 5.96 g/m*3 23.6 C 0 km/h
2112 16-06-2009 14:05:22 22.8 C 5.69 g/m*3 22.8 C 0 km/h
2113 16-06-2009 14:17:22 22.3 C 5.92 g/m*3 22.3 C 0 km/h
2114 16-06-2009 14:29:23 22.3 C 5.92 g/m*3 22.3 C 0 km/h
2115 16-06-2009 14:41:21 22.3 C 6.12 g/m*3 22.3 C 0 km/h
2116 16-06-2009 14:53:22 20.7 C 5.94 g/m*3 20.7 C 0 km/h
2117 16-06-2009 15:05:21 19.9 C 6.36 g/m*3 19.9 C 0 km/h
2118 16-06-2009 15:17:21 20.3 C 6.86 g/m*3 20.3 C 0 km/h
2119 16-06-2009 15:29:21 21.6 C 7.02 g/m*3 21.6 C 0 km/h
2120 16-06-2009 15:41:22 20.7 C 6.12 g/m*3 20.7 C 0 km/h
2121 16-06-2009 15:53:21 18.8 C 9.34 g/m*3 18.8 C 0 km/h
2122 16-06-2009 16:05:21 20.1 C 12.34 g/m*3 20.1 C 0 km/h
2123 16-06-2009 16:17:20 22.4 C 13.31 g/m*3 22.4 C 0 km/h
2124 16-06-2009 16:29:20 21 C 8.79 g/m*3 21 C 0 km/h
2125 16-06-2009 16:41:21 20.4 C 7.78 g/m*3 20.4 C 0 km/h
Sensor: Nr:Datum:Temp:Abs-Feuchte:Windchill:Wind:
Aussen-T/F 2126 16-06-2009 16:53:20 20.7 C 6.66 g/m*3 20.7 C 0 km/h
2127 16-06-2009 17:05:20 20.3 C 7.03 g/m*3 20.3 C 0 km/h
2128 16-06-2009 17:17:20 19.6 C 7.26 g/m*3 19.6 C 0 km/h
2129 16-06-2009 17:29:20 19.6 C 8.61 g/m*3 19.6 C 0 km/h
2130 16-06-2009 17:41:20 20.1 C 8.87 g/m*3 20.1 C 0 km/h
2131 16-06-2009 17:53:19 20.9 C 8.56 g/m*3 20.9 C 0 km/h
2132 16-06-2009 18:05:20 23 C 8.43 g/m*3 23 C 0 km/h
2133 16-06-2009 18:17:20 23.7 C 8.13 g/m*3 23.7 C 0 km/h
2134 16-06-2009 18:29:20 23.3 C 8.15 g/m*3 23.3 C 0 km/h
2135 16-06-2009 18:41:19 24.7 C 7.92 g/m*3 24.7 C 0 km/h
2136 16-06-2009 18:53:20 22.1 C 7.22 g/m*3 22.1 C 0 km/h
2137 16-06-2009 19:05:19 20.8 C 7.97 g/m*3 20.8 C 0 km/h
2138 16-06-2009 19:17:19 22.3 C 7.9 g/m*3 22.3 C 0 km/h
2139 16-06-2009 19:29:19 20.2 C 7.69 g/m*3 20.2 C 0 km/h
2140 16-06-2009 19:41:18 20.5 C 8.01 g/m*3 20.5 C 0 km/h
2141 16-06-2009 19:53:19 20 C 7.6 g/m*3 20 C 0 km/h
2142 16-06-2009 20:05:19 20 C 7.95 g/m*3 20 C 0 km/h
2143 16-06-2009 20:17:18 20.6 C 7.87 g/m*3 20.6 C 0 km/h
2144 16-06-2009 20:29:18 20.1 C 7.65 g/m*3 20.1 C 0 km/h
2145 16-06-2009 20:41:19 19.6 C 7.6 g/m*3 19.6 C 0 km/h
2146 16-06-2009 20:53:18 19.5 C 7.89 g/m*3 19.5 C 0 km/h
2147 16-06-2009 21:05:18 19.3 C 8.13 g/m*3 19.3 C 0 km/h
2148 16-06-2009 21:17:18 18.9 C 8.59 g/m*3 18.9 C 0 km/h
2149 16-06-2009 21:29:19 18.2 C 8.7 g/m*3 18.2 C 0 km/h
2150 16-06-2009 21:41:17 17.3 C 8.84 g/m*3 17.3 C 0 km/h
Sensor: Nr:Datum:Temp:Abs-Feuchte:Windchill:Wind:
Aussen-T/F 2151 16-06-2009 21:53:18 16.7 C 8.95 g/m*3 16.7 C 0 km/h
2152 16-06-2009 22:05:17 16.1 C 8.91 g/m*3 16.1 C 0 km/h
2153 16-06-2009 22:17:17 15.7 C 8.96 g/m*3 15.7 C 0 km/h
2154 16-06-2009 22:29:17 15.2 C 8.96 g/m*3 15.2 C 0 km/h
2155 16-06-2009 22:42:17 15 C 9.1 g/m*3 15 C 0 km/h
2156 16-06-2009 22:54:17 14.9 C 9.43 g/m*3 14.9 C 0 km/h
2157 16-06-2009 23:06:17 14.8 C 9.37 g/m*3 14.8 C 0 km/h
2158 16-06-2009 23:18:17 14.6 C 9.39 g/m*3 14.6 C 0 km/h
2159 16-06-2009 23:30:17 14.5 C 9.45 g/m*3 14.5 C 0 km/h
2160 16-06-2009 23:42:17 14.3 C 9.46 g/m*3 14.3 C 0 km/h
2161 16-06-2009 23:54:17 14 C 9.41 g/m*3 14 C 0 km/h
2162 17-06-2009 00:06:17 13.7 C 9.35 g/m*3 13.7 C 0 km/h
2163 17-06-2009 00:18:18 13.7 C 9.47 g/m*3 13.7 C 0 km/h
2164 17-06-2009 00:30:18 13.6 C 9.53 g/m*3 13.6 C 0 km/h
2165 17-06-2009 00:42:18 13.4 C 9.42 g/m*3 13.4 C 0 km/h
2166 17-06-2009 00:54:18 13.3 C 9.36 g/m*3 13.3 C 0 km/h
2167 17-06-2009 01:06:18 13.1 C 9.24 g/m*3 13.1 C 0 km/h
2168 17-06-2009 01:18:18 12.9 C 9.24 g/m*3 12.9 C 0 km/h
2169 17-06-2009 01:30:18 12.8 C 9.18 g/m*3 12.8 C 0 km/h
2170 17-06-2009 01:42:18 12.6 C 9.18 g/m*3 12.6 C 0 km/h
2171 17-06-2009 01:54:18 12.5 C 9.35 g/m*3 12.5 C 0 km/h
2172 17-06-2009 02:06:18 12.2 C 9.17 g/m*3 12.2 C 0 km/h
2173 17-06-2009 02:18:18 11.9 C 9.21 g/m*3 11.9 C 0 km/h
2174 17-06-2009 02:30:18 11.8 C 9.16 g/m*3 11.8 C 0 km/h
2175 17-06-2009 02:42:18 11.6 C 9.04 g/m*3 11.6 C 0 km/h
Sensor: Nr:Datum:Temp:Abs-Feuchte:Windchill:Wind:
Aussen-T/F 2176 17-06-2009 02:54:18 11.5 C 8.99 g/m*3 11.5 C 0 km/h
2177 17-06-2009 03:06:18 11.5 C 8.99 g/m*3 11.5 C 0 km/h
2178 17-06-2009 03:18:18 11.4 C 8.93 g/m*3 11.4 C 0 km/h
2179 17-06-2009 03:30:18 11.8 C 9.26 g/m*3 11.8 C 0 km/h
2180 17-06-2009 03:42:18 12 C 9.27 g/m*3 12 C 0 km/h
2181 17-06-2009 03:54:18 12.2 C 9.28 g/m*3 12.2 C 0 km/h
2182 17-06-2009 04:06:18 12.2 C 9.17 g/m*3 12.2 C 0 km/h
2183 17-06-2009 04:18:19 12.2 C 9.17 g/m*3 12.2 C 0 km/h
2184 17-06-2009 04:30:19 12 C 8.95 g/m*3 12 C 0 km/h
2185 17-06-2009 04:42:19 11.9 C 9 g/m*3 11.9 C 0 km/h
2186 17-06-2009 04:54:19 11.9 C 9 g/m*3 11.9 C 0 km/h
2187 17-06-2009 05:06:19 12.1 C 9.01 g/m*3 12.1 C 0 km/h
2188 17-06-2009 05:18:19 11.8 C 8.95 g/m*3 11.8 C 0 km/h
2189 17-06-2009 05:30:19 11.8 C 8.95 g/m*3 11.8 C 0 km/h
2190 17-06-2009 05:42:19 11.6 C 8.94 g/m*3 11.6 C 0 km/h
2191 17-06-2009 05:54:19 11.5 C 8.88 g/m*3 11.5 C 0 km/h
2192 17-06-2009 06:06:19 11.3 C 8.87 g/m*3 11.3 C 0 km/h
2193 17-06-2009 06:18:19 11.3 C 8.98 g/m*3 11.3 C 0 km/h
2194 17-06-2009 06:30:19 11.4 C 9.03 g/m*3 11.4 C 0 km/h
2195 17-06-2009 06:42:19 11.2 C 8.82 g/m*3 11.2 C 0 km/h
2196 17-06-2009 06:54:19 11.3 C 8.87 g/m*3 11.3 C 0 km/h
2197 17-06-2009 07:06:17 11.5 C 9.09 g/m*3 11.5 C 0 km/h
2198 17-06-2009 07:18:18 11.7 C 9.1 g/m*3 11.7 C 0 km/h
2199 17-06-2009 07:30:18 11.9 C 9 g/m*3 11.9 C 0 km/h
2200 17-06-2009 07:42:18 12.3 C 9.12 g/m*3 12.3 C 0 km/h
Sensor: Nr:Datum:Temp:Abs-Feuchte:Windchill:Wind:
Aussen-T/F 2201 17-06-2009 07:54:17 12.5 C 9.13 g/m*3 12.5 C 0 km/h
2202 17-06-2009 08:06:17 13 C 9.19 g/m*3 13 C 0 km/h
2203 17-06-2009 08:18:17 13 C 9.07 g/m*3 13 C 0 km/h
2204 17-06-2009 08:30:16 13.4 C 9.3 g/m*3 13.4 C 0 km/h
2205 17-06-2009 08:42:16 14.2 C 9.52 g/m*3 14.2 C 0 km/h
2206 17-06-2009 08:54:17 14.1 C 9.1 g/m*3 14.1 C 0 km/h
2207 17-06-2009 09:06:16 14.1 C 9.1 g/m*3 14.1 C 0 km/h
2208 17-06-2009 09:18:16 15 C 9.36 g/m*3 15 C 0 km/h
2209 17-06-2009 09:30:17 15.6 C 9.44 g/m*3 15.6 C 0 km/h
2210 17-06-2009 09:42:17 15.9 C 9.48 g/m*3 15.9 C 0 km/h
2211 17-06-2009 09:54:16 15.8 C 9.83 g/m*3 15.8 C 0 km/h
2212 17-06-2009 10:06:15 16.9 C 10.36 g/m*3 16.9 C 0 km/h
2213 17-06-2009 10:18:16 17.4 C 9.93 g/m*3 17.4 C 0 km/h
2214 17-06-2009 10:30:16 18.2 C 9.79 g/m*3 18.2 C 0 km/h
2215 17-06-2009 10:42:16 18.3 C 9.22 g/m*3 18.3 C 0 km/h
2216 17-06-2009 10:54:15 19.6 C 9.28 g/m*3 19.6 C 0 km/h
2217 17-06-2009 11:06:16 19.8 C 8.88 g/m*3 19.8 C 0 km/h
2218 17-06-2009 11:18:15 20.9 C 9.11 g/m*3 20.9 C 0 km/h
2219 17-06-2009 11:30:15 22.2 C 9.03 g/m*3 22.2 C 0 km/h
2220 17-06-2009 11:42:15 21.7 C 8.2 g/m*3 21.7 C 0 km/h
2221 17-06-2009 11:54:15 22.6 C 8.04 g/m*3 22.6 C 0 km/h
2222 17-06-2009 12:06:15 24.1 C 7.66 g/m*3 24.1 C 0 km/h
2223 17-06-2009 12:18:15 25 C 6.45 g/m*3 25 C 0 km/h
2224 17-06-2009 12:30:14 23.9 C 7.36 g/m*3 23.9 C 0 km/h
2225 17-06-2009 12:42:14 25 C 6.91 g/m*3 25 C 0 km/h
Sensor: Nr:Datum:Temp:Abs-Feuchte:Windchill:Wind:
Aussen-T/F 2226 17-06-2009 12:54:15 25.4 C 7.06 g/m*3 25.4 C 0 km/h
2227 17-06-2009 13:06:14 25.7 C 6.46 g/m*3 25.7 C 0 km/h
2228 17-06-2009 13:18:14 28.5 C 6.71 g/m*3 28.5 C 0 km/h
2229 17-06-2009 13:30:13 28.9 C 5.71 g/m*3 28.9 C 0 km/h
2230 17-06-2009 13:42:13 29 C 5.74 g/m*3 29 C 0 km/h
2231 17-06-2009 13:54:14 28.8 C 5.68 g/m*3 28.8 C 0 km/h
2232 17-06-2009 14:06:13 28.1 C 6.02 g/m*3 28.1 C 0 km/h
2233 17-06-2009 14:18:13 27.3 C 6.54 g/m*3 27.3 C 0 km/h
2234 17-06-2009 14:30:14 27.8 C 6.72 g/m*3 27.8 C 0 km/h
2235 17-06-2009 14:42:14 27.2 C 5.99 g/m*3 27.2 C 0 km/h
2236 17-06-2009 14:54:13 28.6 C 6.18 g/m*3 28.6 C 0 km/h
2237 17-06-2009 15:06:13 28.8 C 5.68 g/m*3 28.8 C 0 km/h
2238 17-06-2009 15:18:13 27.3 C 5.76 g/m*3 27.3 C 0 km/h
2239 17-06-2009 15:30:13 28.1 C 5.74 g/m*3 28.1 C 0 km/h
2240 17-06-2009 15:42:13 29.9 C 6.03 g/m*3 29.9 C 0 km/h
2241 17-06-2009 15:54:12 29.2 C 5.81 g/m*3 29.2 C 0 km/h
2242 17-06-2009 16:06:13 29.2 C 5.81 g/m*3 29.2 C 0 km/h
2243 17-06-2009 16:18:13 29.7 C 5.97 g/m*3 29.7 C 0 km/h
2244 17-06-2009 16:30:12 30.4 C 6.2 g/m*3 30.4 C 0 km/h
2245 17-06-2009 16:42:12 30.3 C 6.16 g/m*3 30.3 C 0 km/h
2246 17-06-2009 16:54:13 30.6 C 6.26 g/m*3 30.6 C 0 km/h
2247 17-06-2009 17:06:12 30.8 C 6.33 g/m*3 30.8 C 0 km/h
2248 17-06-2009 17:18:12 30.9 C 6.37 g/m*3 30.9 C 0 km/h
2249 17-06-2009 17:30:11 31.1 C 6.43 g/m*3 31.1 C 0 km/h
2250 17-06-2009 17:42:11 30.8 C 6.33 g/m*3 30.8 C 0 km/h
Sensor: Nr:Datum:Temp:Abs-Feuchte:Windchill:Wind:
Aussen-T/F 2251 17-06-2009 17:54:12 30.6 C 6.26 g/m*3 30.6 C 0 km/h
2252 17-06-2009 18:06:11 30.7 C 6.3 g/m*3 30.7 C 0 km/h
2253 17-06-2009 18:18:11 30.6 C 6.26 g/m*3 30.6 C 0 km/h
2254 17-06-2009 18:30:12 30 C 6.06 g/m*3 30 C 0 km/h
2255 17-06-2009 18:42:12 29.1 C 6.35 g/m*3 29.1 C 0 km/h
2256 17-06-2009 18:54:11 29.8 C 6.3 g/m*3 29.8 C 0 km/h
2257 17-06-2009 19:06:11 28.7 C 7.63 g/m*3 28.7 C 0 km/h
2258 17-06-2009 19:18:10 27.6 C 7.71 g/m*3 27.6 C 0 km/h
2259 17-06-2009 19:30:11 26.8 C 8.14 g/m*3 26.8 C 0 km/h
2260 17-06-2009 19:42:11 25.9 C 8.47 g/m*3 25.9 C 0 km/h
2261 17-06-2009 19:54:10 25.3 C 8.43 g/m*3 25.3 C 0 km/h
2262 17-06-2009 20:06:10 24.5 C 8.5 g/m*3 24.5 C 0 km/h
2263 17-06-2009 20:18:10 24.3 C 8.63 g/m*3 24.3 C 0 km/h
2264 17-06-2009 20:30:10 24.2 C 8.8 g/m*3 24.2 C 0 km/h
2265 17-06-2009 20:42:10 24.1 C 8.53 g/m*3 24.1 C 0 km/h
2266 17-06-2009 20:54:09 23.5 C 8.67 g/m*3 23.5 C 0 km/h
2267 17-06-2009 21:06:10 22.8 C 8.94 g/m*3 22.8 C 0 km/h
2268 17-06-2009 21:18:09 22 C 8.73 g/m*3 22 C 0 km/h
2269 17-06-2009 21:30:09 21.4 C 8.62 g/m*3 21.4 C 0 km/h
2270 17-06-2009 21:42:09 20.8 C 8.51 g/m*3 20.8 C 0 km/h
2271 17-06-2009 21:54:09 20.4 C 8.49 g/m*3 20.4 C 0 km/h
2272 17-06-2009 22:06:09 20.2 C 8.22 g/m*3 20.2 C 0 km/h
2273 17-06-2009 22:18:09 20.3 C 7.91 g/m*3 20.3 C 0 km/h
2274 17-06-2009 22:31:10 20.4 C 7.61 g/m*3 20.4 C 0 km/h
2275 17-06-2009 22:43:10 20.4 C 7.78 g/m*3 20.4 C 0 km/h
Sensor: Nr:Datum:Temp:Abs-Feuchte:Windchill:Wind:
Aussen-T/F 2276 17-06-2009 22:55:10 19.9 C 8.25 g/m*3 19.9 C 0 km/h
2277 17-06-2009 23:07:10 19.6 C 8.27 g/m*3 19.6 C 0 km/h
2278 17-06-2009 23:19:10 19.5 C 7.72 g/m*3 19.5 C 0 km/h
2279 17-06-2009 23:31:10 19.2 C 7.91 g/m*3 19.2 C 0 km/h
2280 17-06-2009 23:43:10 18.8 C 8.37 g/m*3 18.8 C 0 km/h
2281 17-06-2009 23:55:10 18.4 C 8.34 g/m*3 18.4 C 0 km/h
2282 18-06-2009 00:07:10 18.2 C 8.24 g/m*3 18.2 C 0 km/h
2283 18-06-2009 00:19:10 17.9 C 8.4 g/m*3 17.9 C 0 km/h
2284 18-06-2009 00:31:10 17.6 C 8.4 g/m*3 17.6 C 0 km/h
2285 18-06-2009 00:43:10 17.4 C 8.45 g/m*3 17.4 C 0 km/h
2286 18-06-2009 00:55:10 17.1 C 8.3 g/m*3 17.1 C 0 km/h
2287 18-06-2009 01:07:10 16.9 C 8.34 g/m*3 16.9 C 0 km/h
2288 18-06-2009 01:19:10 16.7 C 8.53 g/m*3 16.7 C 0 km/h
2289 18-06-2009 01:31:10 16.6 C 8.62 g/m*3 16.6 C 0 km/h
2290 18-06-2009 01:43:10 16.4 C 8.79 g/m*3 16.4 C 0 km/h
2291 18-06-2009 01:55:10 16.2 C 8.96 g/m*3 16.2 C 0 km/h
2292 18-06-2009 02:07:10 16.2 C 8.96 g/m*3 16.2 C 0 km/h
2293 18-06-2009 02:19:10 15.9 C 9.07 g/m*3 15.9 C 0 km/h
2294 18-06-2009 02:31:11 15.7 C 9.1 g/m*3 15.7 C 0 km/h
2295 18-06-2009 02:43:11 15.4 C 9.33 g/m*3 15.4 C 0 km/h
2296 18-06-2009 02:55:11 15.4 C 9.33 g/m*3 15.4 C 0 km/h
2297 18-06-2009 03:07:11 15.1 C 9.42 g/m*3 15.1 C 0 km/h
2298 18-06-2009 03:19:11 15 C 9.49 g/m*3 15 C 0 km/h
2299 18-06-2009 03:31:11 14.8 C 9.5 g/m*3 14.8 C 0 km/h
2300 18-06-2009 03:43:11 14.7 C 9.44 g/m*3 14.7 C 0 km/h
Sensor: Nr:Datum:Temp:Abs-Feuchte:Windchill:Wind:
Aussen-T/F 2301 18-06-2009 03:55:11 14.5 C 9.58 g/m*3 14.5 C 0 km/h
2302 18-06-2009 04:07:11 14.4 C 9.64 g/m*3 14.4 C 0 km/h
2303 18-06-2009 04:19:11 14.5 C 9.7 g/m*3 14.5 C 0 km/h
2304 18-06-2009 04:31:11 14.3 C 9.58 g/m*3 14.3 C 0 km/h
2305 18-06-2009 04:43:11 13.8 C 9.41 g/m*3 13.8 C 0 km/h
2306 18-06-2009 04:55:11 13.7 C 9.59 g/m*3 13.7 C 0 km/h
2307 18-06-2009 05:07:11 13.5 C 9.71 g/m*3 13.5 C 0 km/h
2308 18-06-2009 05:19:11 13.4 C 9.65 g/m*3 13.4 C 0 km/h
2309 18-06-2009 05:31:11 13.5 C 9.71 g/m*3 13.5 C 0 km/h
2310 18-06-2009 05:43:11 13.7 C 9.59 g/m*3 13.7 C 0 km/h
2311 18-06-2009 05:55:11 13.7 C 9.59 g/m*3 13.7 C 0 km/h
2312 18-06-2009 06:07:12 13.5 C 9.47 g/m*3 13.5 C 0 km/h
2313 18-06-2009 06:19:12 13.7 C 9.71 g/m*3 13.7 C 0 km/h
2314 18-06-2009 06:31:12 14 C 9.65 g/m*3 14 C 0 km/h
2315 18-06-2009 06:43:12 14.3 C 9.71 g/m*3 14.3 C 0 km/h
2316 18-06-2009 06:55:12 14.6 C 9.64 g/m*3 14.6 C 0 km/h
2317 18-06-2009 07:07:10 14.9 C 9.69 g/m*3 14.9 C 0 km/h
2318 18-06-2009 07:19:09 15.5 C 9.91 g/m*3 15.5 C 0 km/h
2319 18-06-2009 07:31:10 16 C 9.81 g/m*3 16 C 0 km/h
2320 18-06-2009 07:43:10 16.2 C 9.79 g/m*3 16.2 C 0 km/h
2321 18-06-2009 07:55:09 16.4 C 9.91 g/m*3 16.4 C 0 km/h
2322 18-06-2009 08:07:09 16.7 C 10.09 g/m*3 16.7 C 0 km/h
2323 18-06-2009 08:19:10 16.9 C 10.21 g/m*3 16.9 C 0 km/h
2324 18-06-2009 08:31:09 16.9 C 10.21 g/m*3 16.9 C 0 km/h
2325 18-06-2009 08:43:09 17.2 C 10.25 g/m*3 17.2 C 0 km/h
Sensor: Nr:Datum:Temp:Abs-Feuchte:Windchill:Wind:
Aussen-T/F 2326 18-06-2009 08:55:09 17.5 C 10.29 g/m*3 17.5 C 0 km/h
2327 18-06-2009 09:07:09 18.1 C 10.35 g/m*3 18.1 C 0 km/h
2328 18-06-2009 09:19:08 18.4 C 10.38 g/m*3 18.4 C 0 km/h
2329 18-06-2009 09:31:08 18.4 C 10.38 g/m*3 18.4 C 0 km/h
2330 18-06-2009 09:43:08 18.7 C 10.57 g/m*3 18.7 C 0 km/h
2331 18-06-2009 09:55:08 18.9 C 10.53 g/m*3 18.9 C 0 km/h
2332 18-06-2009 10:07:08 19.4 C 10.51 g/m*3 19.4 C 0 km/h
2333 18-06-2009 10:19:08 19.6 C 10.47 g/m*3 19.6 C 0 km/h
2334 18-06-2009 10:31:08 19.7 C 10.53 g/m*3 19.7 C 0 km/h
2335 18-06-2009 10:43:08 20.1 C 10.43 g/m*3 20.1 C 0 km/h
2336 18-06-2009 10:55:08 21 C 10.44 g/m*3 21 C 0 km/h
2337 18-06-2009 11:07:07 21.9 C 10.81 g/m*3 21.9 C 0 km/h
2338 18-06-2009 11:19:08 22.5 C 9.99 g/m*3 22.5 C 0 km/h
2339 18-06-2009 11:31:07 22.9 C 9.2 g/m*3 22.9 C 0 km/h
2340 18-06-2009 11:43:07 23.4 C 9.46 g/m*3 23.4 C 0 km/h
2341 18-06-2009 11:55:07 22.9 C 9.4 g/m*3 22.9 C 0 km/h
2342 18-06-2009 12:07:08 22.8 C 9.75 g/m*3 22.8 C 0 km/h
2343 18-06-2009 12:19:07 23.8 C 9.68 g/m*3 23.8 C 0 km/h
2344 18-06-2009 12:31:07 23.3 C 9.41 g/m*3 23.3 C 0 km/h
2345 18-06-2009 12:43:07 22.8 C 9.96 g/m*3 22.8 C 0 km/h
2346 18-06-2009 12:55:06 22.7 C 10.3 g/m*3 22.7 C 0 km/h
2347 18-06-2009 13:07:07 22.1 C 9.76 g/m*3 22.1 C 0 km/h
2348 18-06-2009 13:19:06 21.7 C 10.68 g/m*3 21.7 C 0 km/h
2349 18-06-2009 13:31:06 22.4 C 10.72 g/m*3 22.4 C 0 km/h
2350 18-06-2009 13:43:06 22.9 C 10.01 g/m*3 22.9 C 0 km/h
Sensor: Nr:Datum:Temp:Abs-Feuchte:Windchill:Wind:
Aussen-T/F 2351 18-06-2009 13:55:06 22.6 C 10.25 g/m*3 22.6 C 0 km/h
2352 18-06-2009 14:07:06 22.7 C 10.3 g/m*3 22.7 C 0 km/h
2353 18-06-2009 14:19:06 23 C 11.1 g/m*3 23 C 0 km/h
2354 18-06-2009 14:31:05 23.7 C 10.91 g/m*3 23.7 C 0 km/h
2355 18-06-2009 14:43:05 23.4 C 10.93 g/m*3 23.4 C 0 km/h
2356 18-06-2009 14:55:06 22.5 C 10.19 g/m*3 22.5 C 0 km/h
2357 18-06-2009 15:07:05 22.5 C 10.79 g/m*3 22.5 C 0 km/h
2358 18-06-2009 15:19:05 22.3 C 10.47 g/m*3 22.3 C 0 km/h
2359 18-06-2009 15:31:05 22 C 11.26 g/m*3 22 C 0 km/h
2360 18-06-2009 15:43:05 21 C 11.91 g/m*3 21 C 0 km/h
2361 18-06-2009 15:55:05 20.9 C 11.66 g/m*3 20.9 C 0 km/h
2362 18-06-2009 16:07:04 21.3 C 11.93 g/m*3 21.3 C 0 km/h
2363 18-06-2009 16:19:05 22 C 11.84 g/m*3 22 C 0 km/h
2364 18-06-2009 16:31:05 22.4 C 11.52 g/m*3 22.4 C 0 km/h
2365 18-06-2009 16:43:05 22.5 C 11.39 g/m*3 22.5 C 0 km/h
2366 18-06-2009 16:55:04 22 C 11.26 g/m*3 22 C 0 km/h
2367 18-06-2009 17:07:05 22.2 C 11.78 g/m*3 22.2 C 0 km/h
2368 18-06-2009 17:19:04 22.3 C 11.85 g/m*3 22.3 C 0 km/h
2369 18-06-2009 17:31:04 22 C 12.03 g/m*3 22 C 0 km/h
2370 18-06-2009 17:43:04 22.6 C 12.25 g/m*3 22.6 C 0 km/h
2371 18-06-2009 17:55:04 23.3 C 11.5 g/m*3 23.3 C 0 km/h
2372 18-06-2009 18:07:04 23.4 C 11.14 g/m*3 23.4 C 0 km/h
2373 18-06-2009 18:19:03 24.5 C 10.07 g/m*3 24.5 C 0 km/h
2374 18-06-2009 18:31:03 24.8 C 10.47 g/m*3 24.8 C 0 km/h
2375 18-06-2009 18:43:03 24.8 C 10.02 g/m*3 24.8 C 0 km/h
Sensor: Nr:Datum:Temp:Abs-Feuchte:Windchill:Wind:
Aussen-T/F 2376 18-06-2009 18:55:04 24 C 10.23 g/m*3 24 C 0 km/h
2377 18-06-2009 19:07:03 23.7 C 10.69 g/m*3 23.7 C 0 km/h
2378 18-06-2009 19:19:03 24.5 C 10.07 g/m*3 24.5 C 0 km/h
2379 18-06-2009 19:31:02 23.9 C 10.17 g/m*3 23.9 C 0 km/h
2380 18-06-2009 19:43:02 24.4 C 9.79 g/m*3 24.4 C 0 km/h
2381 18-06-2009 19:55:03 24.8 C 9.79 g/m*3 24.8 C 0 km/h
2382 18-06-2009 20:07:02 25.2 C 9.54 g/m*3 25.2 C 0 km/h
2383 18-06-2009 20:19:02 24.9 C 9.61 g/m*3 24.9 C 0 km/h
2384 18-06-2009 20:31:03 23.4 C 10.09 g/m*3 23.4 C 0 km/h
2385 18-06-2009 20:43:03 23.3 C 10.25 g/m*3 23.3 C 0 km/h
2386 18-06-2009 20:55:02 22.9 C 10.42 g/m*3 22.9 C 0 km/h
2387 18-06-2009 21:07:02 22.2 C 10.41 g/m*3 22.2 C 0 km/h
2388 18-06-2009 21:19:02 21.4 C 10.5 g/m*3 21.4 C 0 km/h
2389 18-06-2009 21:31:02 21.1 C 10.32 g/m*3 21.1 C 0 km/h
2390 18-06-2009 21:43:02 20.8 C 10.68 g/m*3 20.8 C 0 km/h
2391 18-06-2009 21:55:02 20.2 C 10.67 g/m*3 20.2 C 0 km/h
2392 18-06-2009 22:08:27 20 C 10.71 g/m*3 20 C 0 km/h
2393 18-06-2009 22:20:27 19.7 C 10.7 g/m*3 19.7 C 0 km/h
2394 18-06-2009 22:32:27 19.6 C 10.64 g/m*3 19.6 C 0 km/h
2395 18-06-2009 22:44:27 19.5 C 10.74 g/m*3 19.5 C 0 km/h
2396 18-06-2009 22:56:27 19.2 C 10.72 g/m*3 19.2 C 0 km/h
2397 18-06-2009 23:08:27 18.9 C 10.85 g/m*3 18.9 C 0 km/h
2398 18-06-2009 23:20:27 18.6 C 10.98 g/m*3 18.6 C 0 km/h
2399 18-06-2009 23:32:28 18.4 C 10.85 g/m*3 18.4 C 0 km/h
2400 18-06-2009 23:44:28 18.2 C 10.88 g/m*3 18.2 C 0 km/h
Sensor: Nr:Datum:Temp:Abs-Feuchte:Windchill:Wind:
Aussen-T/F 2401 18-06-2009 23:56:28 18.1 C 10.82 g/m*3 18.1 C 0 km/h
2402 19-06-2009 00:08:28 18.1 C 10.82 g/m*3 18.1 C 0 km/h
2403 19-06-2009 00:20:28 17.9 C 11.15 g/m*3 17.9 C 0 km/h
2404 19-06-2009 00:32:28 17.5 C 11.03 g/m*3 17.5 C 0 km/h
2405 19-06-2009 00:44:28 17.2 C 10.98 g/m*3 17.2 C 0 km/h
2406 19-06-2009 00:56:28 17 C 11 g/m*3 17 C 0 km/h
2407 19-06-2009 01:08:28 17 C 11.14 g/m*3 17 C 0 km/h
2408 19-06-2009 01:20:28 16.7 C 11.08 g/m*3 16.7 C 0 km/h
2409 19-06-2009 01:32:28 16.6 C 11.02 g/m*3 16.6 C 0 km/h
2410 19-06-2009 01:44:28 16.2 C 10.89 g/m*3 16.2 C 0 km/h
2411 19-06-2009 01:56:28 16 C 10.76 g/m*3 16 C 0 km/h
2412 19-06-2009 02:08:28 15.9 C 10.97 g/m*3 15.9 C 0 km/h
2413 19-06-2009 02:20:28 15.8 C 10.9 g/m*3 15.8 C 0 km/h
2414 19-06-2009 02:32:28 15.6 C 10.77 g/m*3 15.6 C 0 km/h
2415 19-06-2009 02:44:28 15.5 C 10.84 g/m*3 15.5 C 0 km/h
2416 19-06-2009 02:56:28 15.4 C 10.77 g/m*3 15.4 C 0 km/h
2417 19-06-2009 03:08:28 15.2 C 10.64 g/m*3 15.2 C 0 km/h
2418 19-06-2009 03:20:29 15.1 C 10.71 g/m*3 15.1 C 0 km/h
2419 19-06-2009 03:32:29 15 C 10.64 g/m*3 15 C 0 km/h
2420 19-06-2009 03:44:29 14.8 C 10.51 g/m*3 14.8 C 0 km/h
2421 19-06-2009 03:56:29 14.7 C 10.45 g/m*3 14.7 C 0 km/h
2422 19-06-2009 04:08:29 14.7 C 10.32 g/m*3 14.7 C 0 km/h
2423 19-06-2009 04:20:29 14.7 C 10.2 g/m*3 14.7 C 0 km/h
2424 19-06-2009 04:32:29 14.8 C 10.13 g/m*3 14.8 C 0 km/h
2425 19-06-2009 04:44:29 14.8 C 10.13 g/m*3 14.8 C 0 km/h
Sensor: Nr:Datum:Temp:Abs-Feuchte:Windchill:Wind:
Aussen-T/F 2426 19-06-2009 04:56:29 14.9 C 10.2 g/m*3 14.9 C 0 km/h
2427 19-06-2009 05:08:29 14.8 C 10.13 g/m*3 14.8 C 0 km/h
2428 19-06-2009 05:20:29 14.7 C 9.95 g/m*3 14.7 C 0 km/h
2429 19-06-2009 05:32:29 14.8 C 9.88 g/m*3 14.8 C 0 km/h
2430 19-06-2009 05:44:29 14.7 C 9.82 g/m*3 14.7 C 0 km/h
2431 19-06-2009 05:56:29 14.4 C 9.77 g/m*3 14.4 C 0 km/h
2432 19-06-2009 06:08:29 14.4 C 9.77 g/m*3 14.4 C 0 km/h
2433 19-06-2009 06:20:02 14.5 C 9.83 g/m*3 14.5 C 0 km/h
2434 19-06-2009 06:32:01 14.6 C 9.89 g/m*3 14.6 C 0 km/h
2435 19-06-2009 06:44:01 14.8 C 9.63 g/m*3 14.8 C 0 km/h
2436 19-06-2009 06:56:02 15 C 9.75 g/m*3 15 C 0 km/h
2437 19-06-2009 07:08:01 15.2 C 9.73 g/m*3 15.2 C 0 km/h
2438 19-06-2009 07:20:01 15.4 C 9.59 g/m*3 15.4 C 0 km/h
2439 19-06-2009 07:32:01 15.5 C 9.52 g/m*3 15.5 C 0 km/h
2440 19-06-2009 07:44:01 15.8 C 9.42 g/m*3 15.8 C 0 km/h
2441 19-06-2009 07:56:01 16.1 C 9.32 g/m*3 16.1 C 0 km/h
2442 19-06-2009 08:08:01 16.4 C 9.35 g/m*3 16.4 C 0 km/h
2443 19-06-2009 08:20:00 16.4 C 9.07 g/m*3 16.4 C 0 km/h
2444 19-06-2009 08:32:00 16.9 C 9.21 g/m*3 16.9 C 0 km/h
2445 19-06-2009 08:44:00 16.8 C 8.86 g/m*3 16.8 C 0 km/h
2446 19-06-2009 08:56:00 17.2 C 9.08 g/m*3 17.2 C 0 km/h
2447 19-06-2009 09:07:59 17.3 C 8.4 g/m*3 17.3 C 0 km/h
2448 19-06-2009 09:20:00 17.1 C 8.73 g/m*3 17.1 C 0 km/h
2449 19-06-2009 09:32:00 17.1 C 8.44 g/m*3 17.1 C 0 km/h
2450 19-06-2009 09:44:00 17.2 C 8.35 g/m*3 17.2 C 0 km/h
Sensor: Nr:Datum:Temp:Abs-Feuchte:Windchill:Wind:
Aussen-T/F 2451 19-06-2009 09:56:59 17.4 C 8.45 g/m*3 17.4 C 0 km/h
2452 19-06-2009 10:08:00 17.8 C 8.2 g/m*3 17.8 C 0 km/h
2453 19-06-2009 10:20:59 17.8 C 7.74 g/m*3 17.8 C 0 km/h
2454 19-06-2009 10:32:59 18.3 C 7.82 g/m*3 18.3 C 0 km/h
2455 19-06-2009 10:44:59 18.3 C 7.19 g/m*3 18.3 C 0 km/h
2456 19-06-2009 10:56:59 18.9 C 7.13 g/m*3 18.9 C 0 km/h
2457 19-06-2009 11:08:59 19.1 C 7.05 g/m*3 19.1 C 0 km/h
2458 19-06-2009 11:20:59 19 C 7.17 g/m*3 19 C 0 km/h
2459 19-06-2009 11:32:58 19.2 C 7.59 g/m*3 19.2 C 0 km/h
2460 19-06-2009 11:44:59 19.3 C 7.63 g/m*3 19.3 C 0 km/h
2461 19-06-2009 11:56:59 19.6 C 7.93 g/m*3 19.6 C 0 km/h
2462 19-06-2009 12:08:58 19.6 C 6.75 g/m*3 19.6 C 0 km/h
2463 19-06-2009 12:20:58 19.4 C 6.67 g/m*3 19.4 C 0 km/h
2464 19-06-2009 12:32:57 20.4 C 6.72 g/m*3 20.4 C 0 km/h
2465 19-06-2009 12:44:58 20.9 C 6.37 g/m*3 20.9 C 0 km/h
2466 19-06-2009 12:56:58 21.1 C 5.71 g/m*3 21.1 C 0 km/h
2467 19-06-2009 13:08:57 22.7 C 5.66 g/m*3 22.7 C 0 km/h
2468 19-06-2009 13:20:57 21.9 C 6.18 g/m*3 21.9 C 0 km/h
2469 19-06-2009 13:32:58 22.3 C 5.73 g/m*3 22.3 C 0 km/h
2470 19-06-2009 13:44:57 23.3 C 5.44 g/m*3 23.3 C 0 km/h
2471 19-06-2009 13:56:57 23.3 C 5.44 g/m*3 23.3 C 0 km/h
2472 19-06-2009 14:08:57 22.6 C 5.22 g/m*3 22.6 C 0 km/h
2473 19-06-2009 14:20:57 22.6 C 5.83 g/m*3 22.6 C 0 km/h
2474 19-06-2009 14:32:57 21.7 C 5.53 g/m*3 21.7 C 0 km/h
2475 19-06-2009 14:44:56 22.1 C 6.05 g/m*3 22.1 C 0 km/h
Sensor: Nr:Datum:Temp:Abs-Feuchte:Windchill:Wind:
Aussen-T/F 2476 19-06-2009 14:56:56 23.6 C 5.32 g/m*3 23.6 C 0 km/h
2477 19-06-2009 15:08:57 21.5 C 5.28 g/m*3 21.5 C 0 km/h
2478 19-06-2009 15:20:57 22.5 C 4.99 g/m*3 22.5 C 0 km/h
2479 19-06-2009 15:32:56 22.2 C 5.1 g/m*3 22.2 C 0 km/h
2480 19-06-2009 15:44:56 22.5 C 5.39 g/m*3 22.5 C 0 km/h
2481 19-06-2009 15:56:56 23.3 C 5.23 g/m*3 23.3 C 0 km/h
2482 19-06-2009 16:08:56 22.2 C 4.52 g/m*3 22.2 C 0 km/h
2483 19-06-2009 16:20:56 22 C 4.66 g/m*3 22 C 0 km/h
2484 19-06-2009 16:32:55 22.5 C 3.99 g/m*3 22.5 C 0 km/h
2485 19-06-2009 16:44:56 23.5 C 4.44 g/m*3 23.5 C 0 km/h
2486 19-06-2009 16:56:57 22.8 C 4.06 g/m*3 22.8 C 0 km/h
2487 19-06-2009 17:08:55 22.7 C 4.04 g/m*3 22.7 C 0 km/h
2488 19-06-2009 17:20:55 22.4 C 4.17 g/m*3 22.4 C 0 km/h
2489 19-06-2009 17:32:55 22.8 C 4.88 g/m*3 22.8 C 0 km/h
2490 19-06-2009 17:44:55 23 C 5.14 g/m*3 23 C 0 km/h
2491 19-06-2009 17:56:55 22.5 C 5.39 g/m*3 22.5 C 0 km/h
2492 19-06-2009 18:08:55 22.8 C 5.28 g/m*3 22.8 C 0 km/h
2493 19-06-2009 18:20:54 22 C 4.85 g/m*3 22 C 0 km/h
2494 19-06-2009 18:32:55 23.6 C 5.1 g/m*3 23.6 C 0 km/h
2495 19-06-2009 18:44:54 21.4 C 5.25 g/m*3 21.4 C 0 km/h
2496 19-06-2009 18:56:54 23 C 4.93 g/m*3 23 C 0 km/h
2497 19-06-2009 19:08:54 22.3 C 4.94 g/m*3 22.3 C 0 km/h
2498 19-06-2009 19:20:53 22.3 C 5.33 g/m*3 22.3 C 0 km/h
2499 19-06-2009 19:32:54 22 C 5.24 g/m*3 22 C 0 km/h
2500 19-06-2009 19:44:54 21.8 C 5.76 g/m*3 21.8 C 0 km/h
Sensor: Nr:Datum:Temp:Abs-Feuchte:Windchill:Wind:
Aussen-T/F 2501 19-06-2009 19:56:54 21.6 C 5.69 g/m*3 21.6 C 0 km/h
2502 19-06-2009 20:08:53 20.6 C 5.55 g/m*3 20.6 C 0 km/h
2503 19-06-2009 20:20:54 20.8 C 5.79 g/m*3 20.8 C 0 km/h
2504 19-06-2009 20:32:53 20.4 C 5.66 g/m*3 20.4 C 0 km/h
2505 19-06-2009 20:44:53 20.2 C 5.77 g/m*3 20.2 C 0 km/h
2506 19-06-2009 20:56:53 19.5 C 5.54 g/m*3 19.5 C 0 km/h
2507 19-06-2009 21:08:53 19.3 C 5.64 g/m*3 19.3 C 0 km/h
2508 19-06-2009 21:20:53 18.5 C 5.54 g/m*3 18.5 C 0 km/h
2509 19-06-2009 21:32:53 17.9 C 5.5 g/m*3 17.9 C 0 km/h
2510 19-06-2009 21:44:52 17.5 C 5.37 g/m*3 17.5 C 0 km/h
2511 19-06-2009 21:56:52 17.2 C 5.42 g/m*3 17.2 C 0 km/h
2512 19-06-2009 22:08:53 16.8 C 5.29 g/m*3 16.8 C 0 km/h
2513 19-06-2009 22:20:52 16.6 C 5.37 g/m*3 16.6 C 0 km/h
2514 19-06-2009 22:32:53 16.2 C 5.24 g/m*3 16.2 C 0 km/h
2515 19-06-2009 22:45:53 16 C 5.31 g/m*3 16 C 0 km/h
2516 19-06-2009 22:57:53 15.8 C 5.38 g/m*3 15.8 C 0 km/h
2517 19-06-2009 23:09:53 15.4 C 5.39 g/m*3 15.4 C 0 km/h
2518 19-06-2009 23:21:53 15.1 C 5.42 g/m*3 15.1 C 0 km/h
2519 19-06-2009 23:33:54 14.8 C 5.83 g/m*3 14.8 C 0 km/h
2520 19-06-2009 23:45:54 14.4 C 6.06 g/m*3 14.4 C 0 km/h
2521 19-06-2009 23:57:54 14.1 C 6.19 g/m*3 14.1 C 0 km/h
2522 20-06-2009 00:09:54 13.6 C 6.36 g/m*3 13.6 C 0 km/h
2523 20-06-2009 00:21:54 13.3 C 6.59 g/m*3 13.3 C 0 km/h
2524 20-06-2009 00:33:54 13 C 6.58 g/m*3 13 C 0 km/h
2525 20-06-2009 00:45:54 12.8 C 6.83 g/m*3 12.8 C 0 km/h
Sensor: Nr:Datum:Temp:Abs-Feuchte:Windchill:Wind:
Aussen-T/F 2526 20-06-2009 00:57:54 12.6 C 6.86 g/m*3 12.6 C 0 km/h
2527 20-06-2009 01:09:54 12.3 C 6.84 g/m*3 12.3 C 0 km/h
2528 20-06-2009 01:21:54 11.9 C 6.99 g/m*3 11.9 C 0 km/h
2529 20-06-2009 01:33:54 12 C 7.03 g/m*3 12 C 0 km/h
2530 20-06-2009 01:45:54 11.7 C 7.11 g/m*3 11.7 C 0 km/h
2531 20-06-2009 01:57:54 11.5 C 7.13 g/m*3 11.5 C 0 km/h
2532 20-06-2009 02:09:54 11.3 C 7.14 g/m*3 11.3 C 0 km/h
2533 20-06-2009 02:21:54 11.1 C 7.05 g/m*3 11.1 C 0 km/h
2534 20-06-2009 02:33:54 10.9 C 7.16 g/m*3 10.9 C 0 km/h
2535 20-06-2009 02:45:54 10.7 C 7.17 g/m*3 10.7 C 0 km/h
2536 20-06-2009 02:57:54 10.5 C 7.18 g/m*3 10.5 C 0 km/h
2537 20-06-2009 03:09:54 10.4 C 7.04 g/m*3 10.4 C 0 km/h
2538 20-06-2009 03:21:55 10.2 C 7.04 g/m*3 10.2 C 0 km/h
2539 20-06-2009 03:33:55 10.1 C 7.09 g/m*3 10.1 C 0 km/h
2540 20-06-2009 03:45:55 10 C 7.14 g/m*3 10 C 0 km/h
2541 20-06-2009 03:57:55 9.8 C 7.14 g/m*3 9.8 C 0 km/h
2542 20-06-2009 04:09:55 9.7 C 7.19 g/m*3 9.7 C 0 km/h
2543 20-06-2009 04:21:55 9.6 C 7.15 g/m*3 9.6 C 0 km/h
2544 20-06-2009 04:33:55 9.4 C 7.05 g/m*3 9.4 C 0 km/h
2545 20-06-2009 04:45:55 9.3 C 7.01 g/m*3 9.3 C 0 km/h
2546 20-06-2009 04:57:55 9.2 C 7.05 g/m*3 9.2 C 0 km/h
2547 20-06-2009 05:09:55 9.2 C 6.97 g/m*3 9.2 C 0 km/h
2548 20-06-2009 05:21:55 9.1 C 6.92 g/m*3 9.1 C 0 km/h
2549 20-06-2009 05:33:55 9 C 7.05 g/m*3 9 C 0 km/h
2550 20-06-2009 05:45:55 8.9 C 7.1 g/m*3 8.9 C 0 km/h
Sensor: Nr:Datum:Temp:Abs-Feuchte:Windchill:Wind:
Aussen-T/F 2551 20-06-2009 05:57:55 8.7 C 7.09 g/m*3 8.7 C 0 km/h
2552 20-06-2009 06:09:55 8.8 C 7.14 g/m*3 8.8 C 0 km/h
2553 20-06-2009 06:21:55 8.9 C 7.18 g/m*3 8.9 C 0 km/h
2554 20-06-2009 06:33:55 9 C 7.14 g/m*3 9 C 0 km/h
2555 20-06-2009 06:45:55 9.3 C 7.19 g/m*3 9.3 C 0 km/h
2556 20-06-2009 06:57:55 9.4 C 7.15 g/m*3 9.4 C 0 km/h
2557 20-06-2009 07:09:56 9.7 C 7.28 g/m*3 9.7 C 0 km/h
2558 20-06-2009 07:21:56 10 C 7.24 g/m*3 10 C 0 km/h
2559 20-06-2009 07:33:53 10.8 C 7.51 g/m*3 10.8 C 0 km/h
2560 20-06-2009 07:45:53 11.2 C 7.3 g/m*3 11.2 C 0 km/h
2561 20-06-2009 07:57:53 11.7 C 7.53 g/m*3 11.7 C 0 km/h
2562 20-06-2009 08:09:52 12.2 C 7.45 g/m*3 12.2 C 0 km/h
2563 20-06-2009 08:21:53 12.7 C 7.57 g/m*3 12.7 C 0 km/h
2564 20-06-2009 08:33:53 12.9 C 7.55 g/m*3 12.9 C 0 km/h
2565 20-06-2009 08:45:52 13.5 C 7.6 g/m*3 13.5 C 0 km/h
2566 20-06-2009 08:57:52 13.5 C 7.49 g/m*3 13.5 C 0 km/h
2567 20-06-2009 09:09:53 13.1 C 7.42 g/m*3 13.1 C 0 km/h
2568 20-06-2009 09:21:52 13 C 7.48 g/m*3 13 C 0 km/h
2569 20-06-2009 09:33:52 13.4 C 7.56 g/m*3 13.4 C 0 km/h
2570 20-06-2009 09:45:51 13.6 C 7.53 g/m*3 13.6 C 0 km/h
2571 20-06-2009 09:57:51 13.2 C 7.46 g/m*3 13.2 C 0 km/h
2572 20-06-2009 10:09:52 13.1 C 7.53 g/m*3 13.1 C 0 km/h
2573 20-06-2009 10:21:51 13.2 C 7.58 g/m*3 13.2 C 0 km/h
2574 20-06-2009 10:33:51 13.5 C 7.6 g/m*3 13.5 C 0 km/h
2575 20-06-2009 10:45:52 13.7 C 7.58 g/m*3 13.7 C 0 km/h
Sensor: Nr:Datum:Temp:Abs-Feuchte:Windchill:Wind:
Aussen-T/F 2576 20-06-2009 10:57:52 14.1 C 7.65 g/m*3 14.1 C 0 km/h
2577 20-06-2009 11:09:51 14.8 C 7.85 g/m*3 14.8 C 0 km/h
2578 20-06-2009 11:21:51 15.4 C 7.75 g/m*3 15.4 C 0 km/h
2579 20-06-2009 11:33:50 16 C 7.63 g/m*3 16 C 0 km/h
2580 20-06-2009 11:45:51 15.8 C 7.67 g/m*3 15.8 C 0 km/h
2581 20-06-2009 11:57:51 16.5 C 7.58 g/m*3 16.5 C 0 km/h
2582 20-06-2009 12:09:50 17 C 7.23 g/m*3 17 C 0 km/h
2583 20-06-2009 12:21:50 18.2 C 6.37 g/m*3 18.2 C 0 km/h
2584 20-06-2009 12:33:51 19.4 C 6.17 g/m*3 19.4 C 0 km/h
2585 20-06-2009 12:45:50 19.8 C 6.32 g/m*3 19.8 C 0 km/h
2586 20-06-2009 12:57:50 21.1 C 6.08 g/m*3 21.1 C 0 km/h
2587 20-06-2009 13:09:50 21.4 C 6.19 g/m*3 21.4 C 0 km/h
2588 20-06-2009 13:21:49 19.6 C 6.25 g/m*3 19.6 C 0 km/h
2589 20-06-2009 13:33:50 17.8 C 6.68 g/m*3 17.8 C 0 km/h
2590 20-06-2009 13:45:49 14.5 C 6.22 g/m*3 14.5 C 0 km/h
2591 20-06-2009 13:57:49 12.6 C 8.3 g/m*3 12.6 C 0 km/h
2592 20-06-2009 14:09:49 13.4 C 9.76 g/m*3 13.4 C 0 km/h
2593 20-06-2009 14:21:49 14.8 C 10.51 g/m*3 14.8 C 0 km/h
2594 20-06-2009 14:33:49 15 C 10 g/m*3 15 C 0 km/h
2595 20-06-2009 14:45:49 15.6 C 10.24 g/m*3 15.6 C 0 km/h
2596 20-06-2009 14:57:49 16.4 C 9.91 g/m*3 16.4 C 0 km/h
2597 20-06-2009 15:09:49 17.1 C 10.04 g/m*3 17.1 C 0 km/h
2598 20-06-2009 15:21:49 17.4 C 10.08 g/m*3 17.4 C 0 km/h
2599 20-06-2009 15:33:48 16 C 9.26 g/m*3 16 C 0 km/h
2600 20-06-2009 15:45:48 14.6 C 9.89 g/m*3 14.6 C 0 km/h
Sensor: Nr:Datum:Temp:Abs-Feuchte:Windchill:Wind:
Aussen-T/F 2601 20-06-2009 15:57:48 14.7 C 10.32 g/m*3 14.7 C 0 km/h
2602 20-06-2009 16:09:48 15.6 C 11.04 g/m*3 15.6 C 0 km/h
2603 20-06-2009 16:21:48 16.4 C 10.75 g/m*3 16.4 C 0 km/h
2604 20-06-2009 16:33:48 16.1 C 10.14 g/m*3 16.1 C 0 km/h
2605 20-06-2009 16:45:48 16.1 C 10.01 g/m*3 16.1 C 0 km/h
2606 20-06-2009 16:57:48 17 C 9.41 g/m*3 17 C 0 km/h
2607 20-06-2009 17:09:48 17.3 C 8.99 g/m*3 17.3 C 0 km/h
2608 20-06-2009 17:21:47 17 C 8.97 g/m*3 17 C 0 km/h
2609 20-06-2009 17:33:47 16.8 C 9.44 g/m*3 16.8 C 0 km/h
2610 20-06-2009 17:45:47 16.4 C 9.49 g/m*3 16.4 C 0 km/h
2611 20-06-2009 17:57:47 16 C 9.67 g/m*3 16 C 0 km/h
2612 20-06-2009 18:09:47 17.3 C 9.13 g/m*3 17.3 C 0 km/h
2613 20-06-2009 18:21:46 18 C 7.99 g/m*3 18 C 0 km/h
2614 20-06-2009 18:33:47 17.7 C 8.6 g/m*3 17.7 C 0 km/h
2615 20-06-2009 18:45:46 17.8 C 7.89 g/m*3 17.8 C 0 km/h
2616 20-06-2009 18:57:46 17.9 C 8.24 g/m*3 17.9 C 0 km/h
2617 20-06-2009 19:09:46 17.8 C 8.5 g/m*3 17.8 C 0 km/h
2618 20-06-2009 19:21:47 18.3 C 8.6 g/m*3 18.3 C 0 km/h
2619 20-06-2009 19:33:46 17.8 C 8.5 g/m*3 17.8 C 0 km/h
2620 20-06-2009 19:45:46 16.7 C 8.53 g/m*3 16.7 C 0 km/h
2621 20-06-2009 19:57:46 15.5 C 8.99 g/m*3 15.5 C 0 km/h
2622 20-06-2009 20:09:45 14.9 C 9.3 g/m*3 14.9 C 0 km/h
2623 20-06-2009 20:21:46 15.4 C 9.2 g/m*3 15.4 C 0 km/h
2624 20-06-2009 20:33:46 16 C 8.58 g/m*3 16 C 0 km/h
2625 20-06-2009 20:45:45 15.9 C 8.4 g/m*3 15.9 C 0 km/h
Sensor: Nr:Datum:Temp:Abs-Feuchte:Windchill:Wind:
Aussen-T/F 2626 20-06-2009 20:57:45 15.3 C 8.36 g/m*3 15.3 C 0 km/h
2627 20-06-2009 21:09:45 15 C 8.21 g/m*3 15 C 0 km/h
2628 20-06-2009 21:21:45 14.5 C 7.84 g/m*3 14.5 C 0 km/h
2629 20-06-2009 21:33:45 14.3 C 7.49 g/m*3 14.3 C 0 km/h
2630 20-06-2009 21:45:45 14.2 C 6.96 g/m*3 14.2 C 0 km/h
2631 20-06-2009 21:57:45 14.1 C 6.8 g/m*3 14.1 C 0 km/h
2632 20-06-2009 22:09:45 14.1 C 7.16 g/m*3 14.1 C 0 km/h
2633 20-06-2009 22:21:44 13.9 C 7.19 g/m*3 13.9 C 0 km/h
2634 20-06-2009 22:33:45 14 C 7.24 g/m*3 14 C 0 km/h
2635 20-06-2009 22:45:44 13.9 C 7.43 g/m*3 13.9 C 0 km/h
2636 20-06-2009 22:57:44 13.9 C 7.43 g/m*3 13.9 C 0 km/h
2637 20-06-2009 23:09:44 13.8 C 7.51 g/m*3 13.8 C 0 km/h
2638 20-06-2009 23:21:43 13.8 C 7.74 g/m*3 13.8 C 0 km/h
2639 20-06-2009 23:33:44 13.7 C 7.82 g/m*3 13.7 C 0 km/h
2640 20-06-2009 23:45:43 13.5 C 7.72 g/m*3 13.5 C 0 km/h
2641 20-06-2009 23:57:43 13.6 C 7.18 g/m*3 13.6 C 0 km/h
2642 21-06-2009 00:09:43 13.6 C 7.18 g/m*3 13.6 C 0 km/h
2643 21-06-2009 00:21:43 13.5 C 7.13 g/m*3 13.5 C 0 km/h
2644 21-06-2009 00:33:43 13.4 C 7.09 g/m*3 13.4 C 0 km/h
2645 21-06-2009 00:45:43 13.3 C 7.16 g/m*3 13.3 C 0 km/h
2646 21-06-2009 00:57:43 13.2 C 7 g/m*3 13.2 C 0 km/h
2647 21-06-2009 01:09:43 13.2 C 6.89 g/m*3 13.2 C 0 km/h
2648 21-06-2009 01:21:42 13.2 C 6.89 g/m*3 13.2 C 0 km/h
2649 21-06-2009 01:34:44 13 C 6.92 g/m*3 13 C 0 km/h
2650 21-06-2009 01:46:44 12.5 C 7.04 g/m*3 12.5 C 0 km/h
Sensor: Nr:Datum:Temp:Abs-Feuchte:Windchill:Wind:
Aussen-T/F 2651 21-06-2009 01:58:44 12.3 C 7.06 g/m*3 12.3 C 0 km/h
2652 21-06-2009 02:10:45 12.1 C 7.08 g/m*3 12.1 C 0 km/h
2653 21-06-2009 02:22:45 11.8 C 7.26 g/m*3 11.8 C 0 km/h
2654 21-06-2009 02:34:45 11.5 C 7.23 g/m*3 11.5 C 0 km/h
2655 21-06-2009 02:46:45 11.4 C 7.49 g/m*3 11.4 C 0 km/h
2656 21-06-2009 02:58:45 11.3 C 7.65 g/m*3 11.3 C 0 km/h
2657 21-06-2009 03:10:45 11 C 7.71 g/m*3 11 C 0 km/h
2658 21-06-2009 03:22:45 10.8 C 7.81 g/m*3 10.8 C 0 km/h
2659 21-06-2009 03:34:45 10.8 C 7.91 g/m*3 10.8 C 0 km/h
2660 21-06-2009 03:46:45 10.9 C 7.86 g/m*3 10.9 C 0 km/h
2661 21-06-2009 03:58:45 10.6 C 7.71 g/m*3 10.6 C 0 km/h
2662 21-06-2009 04:10:45 10.3 C 7.66 g/m*3 10.3 C 0 km/h
2663 21-06-2009 04:22:45 10.1 C 7.56 g/m*3 10.1 C 0 km/h
2664 21-06-2009 04:34:45 9.9 C 7.84 g/m*3 9.9 C 0 km/h
2665 21-06-2009 04:46:45 10 C 7.89 g/m*3 10 C 0 km/h
2666 21-06-2009 04:58:45 10 C 7.89 g/m*3 10 C 0 km/h
2667 21-06-2009 05:10:45 9.9 C 7.94 g/m*3 9.9 C 0 km/h
2668 21-06-2009 05:22:45 9.8 C 7.98 g/m*3 9.8 C 0 km/h
2669 21-06-2009 05:34:45 9.8 C 7.98 g/m*3 9.8 C 0 km/h
2670 21-06-2009 05:46:45 9.8 C 7.98 g/m*3 9.8 C 0 km/h
2671 21-06-2009 05:58:46 10 C 7.89 g/m*3 10 C 0 km/h
2672 21-06-2009 06:10:46 9.9 C 8.03 g/m*3 9.9 C 0 km/h
2673 21-06-2009 06:22:46 9.8 C 8.07 g/m*3 9.8 C 0 km/h
2674 21-06-2009 06:34:46 10.1 C 8.13 g/m*3 10.1 C 0 km/h
2675 21-06-2009 06:46:46 10.2 C 8.09 g/m*3 10.2 C 0 km/h
Sensor: Nr:Datum:Temp:Abs-Feuchte:Windchill:Wind:
Aussen-T/F 2676 21-06-2009 06:58:46 10.4 C 8.1 g/m*3 10.4 C 0 km/h
2677 21-06-2009 07:10:46 10.6 C 8.2 g/m*3 10.6 C 0 km/h
2678 21-06-2009 07:22:46 11 C 8.31 g/m*3 11 C 0 km/h
2679 21-06-2009 07:34:46 11.3 C 8.36 g/m*3 11.3 C 0 km/h
2680 21-06-2009 07:46:46 11.5 C 8.57 g/m*3 11.5 C 0 km/h
2681 21-06-2009 07:58:46 11.7 C 8.47 g/m*3 11.7 C 0 km/h
2682 21-06-2009 08:10:46 11.6 C 8.42 g/m*3 11.6 C 0 km/h
2683 21-06-2009 08:22:46 12.1 C 8.47 g/m*3 12.1 C 0 km/h
2684 21-06-2009 08:34:46 12.3 C 8.47 g/m*3 12.3 C 0 km/h
2685 21-06-2009 08:46:46 12.8 C 8.51 g/m*3 12.8 C 0 km/h
2686 21-06-2009 08:58:46 13.4 C 8.37 g/m*3 13.4 C 0 km/h
2687 21-06-2009 09:10:44 14.4 C 8.28 g/m*3 14.4 C 0 km/h
2688 21-06-2009 09:22:43 14.7 C 8.06 g/m*3 14.7 C 0 km/h
2689 21-06-2009 09:34:44 15.3 C 7.97 g/m*3 15.3 C 0 km/h
2690 21-06-2009 09:46:43 15.4 C 7.88 g/m*3 15.4 C 0 km/h
2691 21-06-2009 09:58:43 15.5 C 7.93 g/m*3 15.5 C 0 km/h
2692 21-06-2009 10:10:43 16.2 C 8 g/m*3 16.2 C 0 km/h
2693 21-06-2009 10:22:43 16.5 C 7.72 g/m*3 16.5 C 0 km/h
2694 21-06-2009 10:34:43 16.4 C 7.68 g/m*3 16.4 C 0 km/h
2695 21-06-2009 10:46:43 16.8 C 7.72 g/m*3 16.8 C 0 km/h
2696 21-06-2009 10:58:43 16.8 C 7.72 g/m*3 16.8 C 0 km/h
2697 21-06-2009 11:10:42 17.8 C 7.89 g/m*3 17.8 C 0 km/h
2698 21-06-2009 11:22:43 17.7 C 7.24 g/m*3 17.7 C 0 km/h
2699 21-06-2009 11:34:42 16 C 6.95 g/m*3 16 C 0 km/h
2700 21-06-2009 11:46:42 14.2 C 7.57 g/m*3 14.2 C 0 km/h
Sensor: Nr:Datum:Temp:Abs-Feuchte:Windchill:Wind:
Aussen-T/F 2701 21-06-2009 11:58:42 13.3 C 8.32 g/m*3 13.3 C 0 km/h
2702 21-06-2009 12:10:42 13.3 C 8.9 g/m*3 13.3 C 0 km/h
2703 21-06-2009 12:22:42 13.7 C 9.35 g/m*3 13.7 C 0 km/h
2704 21-06-2009 12:34:42 15.6 C 9.97 g/m*3 15.6 C 0 km/h
2705 21-06-2009 12:46:42 14.9 C 8.79 g/m*3 14.9 C 0 km/h
2706 21-06-2009 12:58:42 12.8 C 8.51 g/m*3 12.8 C 0 km/h
2707 21-06-2009 13:10:42 12.8 C 9.3 g/m*3 12.8 C 0 km/h
2708 21-06-2009 13:22:41 12.5 C 9.35 g/m*3 12.5 C 0 km/h
2709 21-06-2009 13:34:41 12.5 C 9.46 g/m*3 12.5 C 0 km/h
2710 21-06-2009 13:46:41 12.4 C 9.51 g/m*3 12.4 C 0 km/h
2711 21-06-2009 13:58:41 13.3 C 10.17 g/m*3 13.3 C 0 km/h
2712 21-06-2009 14:10:41 14.2 C 10.62 g/m*3 14.2 C 0 km/h
2713 21-06-2009 14:22:40 14 C 10.01 g/m*3 14 C 0 km/h
2714 21-06-2009 14:34:41 13.9 C 9.83 g/m*3 13.9 C 0 km/h
2715 21-06-2009 14:46:40 13.9 C 9.71 g/m*3 13.9 C 0 km/h
2716 21-06-2009 14:58:40 14.3 C 10.07 g/m*3 14.3 C 0 km/h
2717 21-06-2009 15:10:40 14.8 C 10.51 g/m*3 14.8 C 0 km/h
2718 21-06-2009 15:22:40 14.9 C 10.71 g/m*3 14.9 C 0 km/h
2719 21-06-2009 15:34:40 15 C 10.51 g/m*3 15 C 0 km/h
2720 21-06-2009 15:46:39 15.9 C 10.97 g/m*3 15.9 C 0 km/h
2721 21-06-2009 15:58:39 16.9 C 10.36 g/m*3 16.9 C 0 km/h
2722 21-06-2009 16:10:40 17.2 C 9.37 g/m*3 17.2 C 0 km/h
2723 21-06-2009 16:22:40 17.4 C 9.19 g/m*3 17.4 C 0 km/h
2724 21-06-2009 16:34:39 18.1 C 9.58 g/m*3 18.1 C 0 km/h
2725 21-06-2009 16:46:40 18 C 8.6 g/m*3 18 C 0 km/h
Sensor: Nr:Datum:Temp:Abs-Feuchte:Windchill:Wind:
Aussen-T/F 2726 21-06-2009 16:58:40 18 C 8.29 g/m*3 18 C 0 km/h
2727 21-06-2009 17:10:39 18.1 C 8.81 g/m*3 18.1 C 0 km/h
2728 21-06-2009 17:22:39 19 C 8.47 g/m*3 19 C 0 km/h
2729 21-06-2009 17:34:38 19.8 C 7.86 g/m*3 19.8 C 0 km/h
2730 21-06-2009 17:46:39 21.1 C 7.55 g/m*3 21.1 C 0 km/h
2731 21-06-2009 17:58:40 20.1 C 7.13 g/m*3 20.1 C 0 km/h
2732 21-06-2009 18:10:38 19.1 C 8.52 g/m*3 19.1 C 0 km/h
2733 21-06-2009 18:22:38 19.2 C 8.74 g/m*3 19.2 C 0 km/h
2734 21-06-2009 18:34:39 19.3 C 8.29 g/m*3 19.3 C 0 km/h
2735 21-06-2009 18:46:38 18.2 C 7.62 g/m*3 18.2 C 0 km/h
2736 21-06-2009 18:58:38 14.3 C 8.11 g/m*3 14.3 C 0 km/h
2737 21-06-2009 19:10:38 12.8 C 8.74 g/m*3 12.8 C 0 km/h
2738 21-06-2009 19:22:38 12.5 C 9.24 g/m*3 12.5 C 0 km/h
2739 21-06-2009 19:34:38 12.5 C 9.46 g/m*3 12.5 C 0 km/h
2740 21-06-2009 19:46:37 13.2 C 9.87 g/m*3 13.2 C 0 km/h
2741 21-06-2009 19:58:37 13.8 C 10.01 g/m*3 13.8 C 0 km/h
2742 21-06-2009 20:10:38 14.1 C 10.19 g/m*3 14.1 C 0 km/h
2743 21-06-2009 20:22:37 13.5 C 9.71 g/m*3 13.5 C 0 km/h
2744 21-06-2009 20:34:37 13.3 C 9.7 g/m*3 13.3 C 0 km/h
2745 21-06-2009 20:46:37 13.1 C 9.59 g/m*3 13.1 C 0 km/h
2746 21-06-2009 20:58:37 13.1 C 9.59 g/m*3 13.1 C 0 km/h
2747 21-06-2009 21:10:36 12.6 C 9.29 g/m*3 12.6 C 0 km/h
2748 21-06-2009 21:22:37 12.4 C 9.29 g/m*3 12.4 C 0 km/h
2749 21-06-2009 21:34:37 11.7 C 8.89 g/m*3 11.7 C 0 km/h
2750 21-06-2009 21:46:36 11.3 C 8.87 g/m*3 11.3 C 0 km/h
Sensor: Nr:Datum:Temp:Abs-Feuchte:Windchill:Wind:
Aussen-T/F 2751 21-06-2009 21:58:36 11.1 C 8.76 g/m*3 11.1 C 0 km/h
2752 21-06-2009 22:10:37 11.1 C 8.86 g/m*3 11.1 C 0 km/h
2753 21-06-2009 22:22:36 11 C 8.81 g/m*3 11 C 0 km/h
2754 21-06-2009 22:35:37 10.8 C 8.8 g/m*3 10.8 C 0 km/h
2755 21-06-2009 22:47:38 10.8 C 8.8 g/m*3 10.8 C 0 km/h
2756 21-06-2009 22:59:38 11 C 8.91 g/m*3 11 C 0 km/h
2757 21-06-2009 23:11:38 11.1 C 9.07 g/m*3 11.1 C 0 km/h
2758 21-06-2009 23:23:38 11.1 C 9.07 g/m*3 11.1 C 0 km/h
2759 21-06-2009 23:35:38 10.9 C 8.95 g/m*3 10.9 C 0 km/h
2760 21-06-2009 23:47:38 11 C 9.01 g/m*3 11 C 0 km/h
2761 21-06-2009 23:59:38 11.2 C 9.12 g/m*3 11.2 C 0 km/h
2762 22-06-2009 00:11:38 11.4 C 9.24 g/m*3 11.4 C 0 km/h
2763 22-06-2009 00:23:38 11.4 C 9.24 g/m*3 11.4 C 0 km/h
2764 22-06-2009 00:35:38 11.1 C 8.96 g/m*3 11.1 C 0 km/h
2765 22-06-2009 00:47:38 10.7 C 8.74 g/m*3 10.7 C 0 km/h
2766 22-06-2009 00:59:38 10.3 C 8.52 g/m*3 10.3 C 0 km/h
2767 22-06-2009 01:11:38 10 C 8.27 g/m*3 10 C 0 km/h
2768 22-06-2009 01:23:38 9.9 C 8.4 g/m*3 9.9 C 0 km/h
2769 22-06-2009 01:35:38 10 C 8.36 g/m*3 10 C 0 km/h
2770 22-06-2009 01:47:38 10.1 C 8.51 g/m*3 10.1 C 0 km/h
2771 22-06-2009 01:59:38 10.2 C 8.56 g/m*3 10.2 C 0 km/h
2772 22-06-2009 02:11:38 10.2 C 8.56 g/m*3 10.2 C 0 km/h
2773 22-06-2009 02:23:38 10 C 8.46 g/m*3 10 C 0 km/h
2774 22-06-2009 02:35:39 9.8 C 8.44 g/m*3 9.8 C 0 km/h
2775 22-06-2009 02:47:39 10 C 8.46 g/m*3 10 C 0 km/h
Sensor: Nr:Datum:Temp:Abs-Feuchte:Windchill:Wind:
Aussen-T/F 2776 22-06-2009 02:59:39 10.1 C 8.51 g/m*3 10.1 C 0 km/h
2777 22-06-2009 03:11:39 10.3 C 8.52 g/m*3 10.3 C 0 km/h
2778 22-06-2009 03:23:39 10.4 C 8.58 g/m*3 10.4 C 0 km/h
2779 22-06-2009 03:35:39 10.3 C 8.43 g/m*3 10.3 C 0 km/h
2780 22-06-2009 03:47:39 10.5 C 8.44 g/m*3 10.5 C 0 km/h
2781 22-06-2009 03:59:39 10.6 C 8.39 g/m*3 10.6 C 0 km/h
2782 22-06-2009 04:11:39 10.5 C 8.34 g/m*3 10.5 C 0 km/h
2783 22-06-2009 04:23:39 10.4 C 8.29 g/m*3 10.4 C 0 km/h
2784 22-06-2009 04:35:39 10.4 C 8.19 g/m*3 10.4 C 0 km/h
2785 22-06-2009 04:47:39 10.4 C 8.1 g/m*3 10.4 C 0 km/h
2786 22-06-2009 04:59:39 10.4 C 8.19 g/m*3 10.4 C 0 km/h
2787 22-06-2009 05:11:39 10.4 C 8.1 g/m*3 10.4 C 0 km/h
2788 22-06-2009 05:23:39 10.5 C 8.15 g/m*3 10.5 C 0 km/h
2789 22-06-2009 05:35:39 10.5 C 8.15 g/m*3 10.5 C 0 km/h
2790 22-06-2009 05:47:39 10.4 C 8.1 g/m*3 10.4 C 0 km/h
2791 22-06-2009 05:59:39 10.4 C 8.19 g/m*3 10.4 C 0 km/h
2792 22-06-2009 06:11:39 10.5 C 8.24 g/m*3 10.5 C 0 km/h
2793 22-06-2009 06:23:39 10.6 C 8.2 g/m*3 10.6 C 0 km/h
2794 22-06-2009 06:35:40 10.7 C 8.25 g/m*3 10.7 C 0 km/h
2795 22-06-2009 06:47:40 10.8 C 8.3 g/m*3 10.8 C 0 km/h
2796 22-06-2009 06:59:40 10.9 C 8.26 g/m*3 10.9 C 0 km/h
2797 22-06-2009 07:11:37 11 C 8.31 g/m*3 11 C 0 km/h
2798 22-06-2009 07:23:37 11.2 C 8.41 g/m*3 11.2 C 0 km/h
2799 22-06-2009 07:35:37 11.5 C 8.57 g/m*3 11.5 C 0 km/h
2800 22-06-2009 07:47:37 11.8 C 8.63 g/m*3 11.8 C 0 km/h
Sensor: Nr:Datum:Temp:Abs-Feuchte:Windchill:Wind:
Aussen-T/F 2801 22-06-2009 07:59:37 11.8 C 8.31 g/m*3 11.8 C 0 km/h
2802 22-06-2009 08:11:36 12.1 C 8.36 g/m*3 12.1 C 0 km/h
2803 22-06-2009 08:23:37 12.2 C 8.09 g/m*3 12.2 C 0 km/h
2804 22-06-2009 08:35:37 12.5 C 8.25 g/m*3 12.5 C 0 km/h
2805 22-06-2009 08:47:36 12.8 C 8.18 g/m*3 12.8 C 0 km/h
2806 22-06-2009 08:59:36 13.4 C 7.9 g/m*3 13.4 C 0 km/h
2807 22-06-2009 09:11:36 13.4 C 7.9 g/m*3 13.4 C 0 km/h
2808 22-06-2009 09:23:36 13.7 C 7.82 g/m*3 13.7 C 0 km/h
2809 22-06-2009 09:35:36 14 C 7.12 g/m*3 14 C 0 km/h
2810 22-06-2009 09:47:35 15 C 7.05 g/m*3 15 C 0 km/h
2811 22-06-2009 09:59:35 14.9 C 6.75 g/m*3 14.9 C 0 km/h
2812 22-06-2009 10:11:36 14.6 C 6.76 g/m*3 14.6 C 0 km/h
2813 22-06-2009 10:23:35 14.9 C 6.75 g/m*3 14.9 C 0 km/h
2814 22-06-2009 10:35:35 14.6 C 6.76 g/m*3 14.6 C 0 km/h
2815 22-06-2009 10:47:35 14.8 C 6.97 g/m*3 14.8 C 0 km/h
2816 22-06-2009 10:59:35 15.4 C 6.57 g/m*3 15.4 C 0 km/h
2817 22-06-2009 11:11:35 16 C 6.27 g/m*3 16 C 0 km/h
2818 22-06-2009 11:23:35 16.3 C 6.52 g/m*3 16.3 C 0 km/h
2819 22-06-2009 11:35:34 16.5 C 6.18 g/m*3 16.5 C 0 km/h
2820 22-06-2009 11:47:35 17.1 C 6.4 g/m*3 17.1 C 0 km/h
2821 22-06-2009 11:59:35 16.8 C 6.29 g/m*3 16.8 C 0 km/h
2822 22-06-2009 12:11:34 16.5 C 6.18 g/m*3 16.5 C 0 km/h
2823 22-06-2009 12:23:34 16.3 C 6.24 g/m*3 16.3 C 0 km/h
2824 22-06-2009 12:35:34 18.9 C 6.64 g/m*3 18.9 C 0 km/h
2825 22-06-2009 12:47:34 21.4 C 5.81 g/m*3 21.4 C 0 km/h
Sensor: Nr:Datum:Temp:Abs-Feuchte:Windchill:Wind:
Aussen-T/F 2826 22-06-2009 12:59:34 20.1 C 5.39 g/m*3 20.1 C 0 km/h
2827 22-06-2009 13:11:33 18 C 5.68 g/m*3 18 C 0 km/h
2828 22-06-2009 13:23:34 18 C 5.53 g/m*3 18 C 0 km/h
2829 22-06-2009 13:35:34 18.4 C 6.13 g/m*3 18.4 C 0 km/h
2830 22-06-2009 13:47:33 18.9 C 5.67 g/m*3 18.9 C 0 km/h
2831 22-06-2009 13:59:33 17.7 C 5.73 g/m*3 17.7 C 0 km/h
2832 22-06-2009 14:11:34 17.3 C 6.04 g/m*3 17.3 C 0 km/h
2833 22-06-2009 14:23:33 18.5 C 6.01 g/m*3 18.5 C 0 km/h
2834 22-06-2009 14:35:33 18.8 C 6.12 g/m*3 18.8 C 0 km/h
2835 22-06-2009 14:47:32 19 C 5.87 g/m*3 19 C 0 km/h
2836 22-06-2009 14:59:32 18.5 C 5.7 g/m*3 18.5 C 0 km/h
2837 22-06-2009 15:11:33 18 C 5.99 g/m*3 18 C 0 km/h
2838 22-06-2009 15:23:32 17.5 C 6.11 g/m*3 17.5 C 0 km/h
2839 22-06-2009 15:35:32 18.1 C 6.03 g/m*3 18.1 C 0 km/h
2840 22-06-2009 15:47:32 17.9 C 6.11 g/m*3 17.9 C 0 km/h
2841 22-06-2009 15:59:32 18.4 C 5.98 g/m*3 18.4 C 0 km/h
2842 22-06-2009 16:11:32 18.5 C 5.85 g/m*3 18.5 C 0 km/h
2843 22-06-2009 16:23:32 18.9 C 5.83 g/m*3 18.9 C 0 km/h
2844 22-06-2009 16:35:32 20.1 C 6.08 g/m*3 20.1 C 0 km/h
2845 22-06-2009 16:47:32 19.9 C 6.01 g/m*3 19.9 C 0 km/h
2846 22-06-2009 16:59:32 19.8 C 5.81 g/m*3 19.8 C 0 km/h
2847 22-06-2009 17:11:31 21.4 C 6 g/m*3 21.4 C 0 km/h
2848 22-06-2009 17:23:31 21.1 C 5.71 g/m*3 21.1 C 0 km/h
2849 22-06-2009 17:35:31 20.2 C 5.77 g/m*3 20.2 C 0 km/h
2850 22-06-2009 17:47:31 19.8 C 5.98 g/m*3 19.8 C 0 km/h
Sensor: Nr:Datum:Temp:Abs-Feuchte:Windchill:Wind:
Aussen-T/F 2851 22-06-2009 17:59:32 22.4 C 5.96 g/m*3 22.4 C 0 km/h
2852 22-06-2009 18:11:30 23.8 C 5.59 g/m*3 23.8 C 0 km/h
2853 22-06-2009 18:23:31 22.5 C 5.59 g/m*3 22.5 C 0 km/h
2854 22-06-2009 18:35:31 21.2 C 5.56 g/m*3 21.2 C 0 km/h
2855 22-06-2009 18:47:30 22.1 C 5.66 g/m*3 22.1 C 0 km/h
2856 22-06-2009 18:59:30 22.7 C 5.66 g/m*3 22.7 C 0 km/h
2857 22-06-2009 19:11:31 21.1 C 5.71 g/m*3 21.1 C 0 km/h
2858 22-06-2009 19:23:30 20.8 C 5.98 g/m*3 20.8 C 0 km/h
2859 22-06-2009 19:35:30 20.5 C 5.69 g/m*3 20.5 C 0 km/h
2860 22-06-2009 19:47:30 20.6 C 6.09 g/m*3 20.6 C 0 km/h
2861 22-06-2009 19:59:30 20.8 C 6.16 g/m*3 20.8 C 0 km/h
2862 22-06-2009 20:11:30 19.8 C 5.98 g/m*3 19.8 C 0 km/h
2863 22-06-2009 20:23:29 19.1 C 6.07 g/m*3 19.1 C 0 km/h
2864 22-06-2009 20:35:29 18.7 C 6.08 g/m*3 18.7 C 0 km/h
2865 22-06-2009 20:47:29 18.5 C 6.65 g/m*3 18.5 C 0 km/h
2866 22-06-2009 20:59:29 18.2 C 6.37 g/m*3 18.2 C 0 km/h
2867 22-06-2009 21:11:29 17.9 C 6.57 g/m*3 17.9 C 0 km/h
2868 22-06-2009 21:23:29 17.6 C 6.75 g/m*3 17.6 C 0 km/h
2869 22-06-2009 21:35:28 17.2 C 6.88 g/m*3 17.2 C 0 km/h
2870 22-06-2009 21:47:29 17 C 6.51 g/m*3 17 C 0 km/h
2871 22-06-2009 21:59:29 16.8 C 6.58 g/m*3 16.8 C 0 km/h
2872 22-06-2009 22:11:28 16.6 C 7.06 g/m*3 16.6 C 0 km/h
2873 22-06-2009 22:23:28 16.2 C 7.03 g/m*3 16.2 C 0 km/h
2874 22-06-2009 22:36:12 15.8 C 7.27 g/m*3 15.8 C 0 km/h
2875 22-06-2009 22:48:12 15.3 C 7.31 g/m*3 15.3 C 0 km/h
Sensor: Nr:Datum:Temp:Abs-Feuchte:Windchill:Wind:
Aussen-T/F 2876 22-06-2009 23:00:12 14.7 C 7.55 g/m*3 14.7 C 0 km/h
2877 22-06-2009 23:12:12 14.4 C 7.54 g/m*3 14.4 C 0 km/h
2878 22-06-2009 23:24:12 14 C 7.36 g/m*3 14 C 0 km/h
2879 22-06-2009 23:36:12 13.9 C 7.67 g/m*3 13.9 C 0 km/h
2880 22-06-2009 23:48:12 13.7 C 7.58 g/m*3 13.7 C 0 km/h
2881 23-06-2009 00:00:12 13.6 C 7.53 g/m*3 13.6 C 0 km/h
2882 23-06-2009 00:12:12 13.6 C 7.77 g/m*3 13.6 C 0 km/h
2883 23-06-2009 00:24:12 13.6 C 7.65 g/m*3 13.6 C 0 km/h
2884 23-06-2009 00:36:12 13.4 C 7.67 g/m*3 13.4 C 0 km/h
2885 23-06-2009 00:48:12 13.3 C 7.63 g/m*3 13.3 C 0 km/h
2886 23-06-2009 01:00:12 13.3 C 7.51 g/m*3 13.3 C 0 km/h
2887 23-06-2009 01:12:13 13.3 C 7.74 g/m*3 13.3 C 0 km/h
2888 23-06-2009 01:24:13 13.2 C 7.69 g/m*3 13.2 C 0 km/h
2889 23-06-2009 01:36:13 13.2 C 7.69 g/m*3 13.2 C 0 km/h
2890 23-06-2009 01:48:13 13 C 7.71 g/m*3 13 C 0 km/h
2891 23-06-2009 02:00:13 12.7 C 7.9 g/m*3 12.7 C 0 km/h
2892 23-06-2009 02:12:13 12.4 C 7.87 g/m*3 12.4 C 0 km/h
2893 23-06-2009 02:24:13 12.2 C 7.99 g/m*3 12.2 C 0 km/h
2894 23-06-2009 02:36:13 12.2 C 7.99 g/m*3 12.2 C 0 km/h
2895 23-06-2009 02:48:13 12.1 C 7.94 g/m*3 12.1 C 0 km/h
2896 23-06-2009 03:00:13 12 C 7.89 g/m*3 12 C 0 km/h
2897 23-06-2009 03:12:13 12 C 7.89 g/m*3 12 C 0 km/h
2898 23-06-2009 03:24:13 11.8 C 8 g/m*3 11.8 C 0 km/h
2899 23-06-2009 03:36:13 11.5 C 7.85 g/m*3 11.5 C 0 km/h
2900 23-06-2009 03:48:13 11.5 C 7.95 g/m*3 11.5 C 0 km/h
Sensor: Nr:Datum:Temp:Abs-Feuchte:Windchill:Wind:
Aussen-T/F 2901 23-06-2009 04:00:13 11.4 C 8.01 g/m*3 11.4 C 0 km/h
2902 23-06-2009 04:12:13 11.3 C 7.96 g/m*3 11.3 C 0 km/h
2903 23-06-2009 04:24:13 11.1 C 7.86 g/m*3 11.1 C 0 km/h
2904 23-06-2009 04:36:13 11.1 C 7.96 g/m*3 11.1 C 0 km/h
2905 23-06-2009 04:48:13 11 C 8.01 g/m*3 11 C 0 km/h
2906 23-06-2009 05:00:13 11.1 C 8.06 g/m*3 11.1 C 0 km/h
2907 23-06-2009 05:12:14 10.9 C 8.06 g/m*3 10.9 C 0 km/h
2908 23-06-2009 05:24:14 10.8 C 8.01 g/m*3 10.8 C 0 km/h
2909 23-06-2009 05:36:14 10.7 C 8.05 g/m*3 10.7 C 0 km/h
2910 23-06-2009 05:48:14 10.6 C 8 g/m*3 10.6 C 0 km/h
2911 23-06-2009 06:00:14 10.8 C 8.2 g/m*3 10.8 C 0 km/h
2912 23-06-2009 06:12:29 11.1 C 8.26 g/m*3 11.1 C 0 km/h
2913 23-06-2009 06:24:28 11.3 C 8.36 g/m*3 11.3 C 0 km/h
2914 23-06-2009 06:36:28 11.6 C 8.52 g/m*3 11.6 C 0 km/h
2915 23-06-2009 06:48:28 11.8 C 8.53 g/m*3 11.8 C 0 km/h
2916 23-06-2009 07:00:28 12.1 C 8.47 g/m*3 12.1 C 0 km/h
2917 23-06-2009 07:12:28 12.5 C 8.58 g/m*3 12.5 C 0 km/h
2918 23-06-2009 07:24:28 12.8 C 8.62 g/m*3 12.8 C 0 km/h
2919 23-06-2009 07:36:28 13 C 8.39 g/m*3 13 C 0 km/h
2920 23-06-2009 07:48:27 12.8 C 8.4 g/m*3 12.8 C 0 km/h
2921 23-06-2009 08:00:28 12.7 C 8.35 g/m*3 12.7 C 0 km/h
2922 23-06-2009 08:12:28 12.9 C 8.45 g/m*3 12.9 C 0 km/h
2923 23-06-2009 08:24:27 13.1 C 8.44 g/m*3 13.1 C 0 km/h
2924 23-06-2009 08:36:27 13.4 C 8.49 g/m*3 13.4 C 0 km/h
2925 23-06-2009 08:48:27 13.8 C 8.58 g/m*3 13.8 C 0 km/h
Sensor: Nr:Datum:Temp:Abs-Feuchte:Windchill:Wind:
Aussen-T/F 2926 23-06-2009 09:00:27 14 C 8.32 g/m*3 14 C 0 km/h
2927 23-06-2009 09:12:27 14.6 C 8.51 g/m*3 14.6 C 0 km/h
2928 23-06-2009 09:24:26 14.9 C 8.28 g/m*3 14.9 C 0 km/h
2929 23-06-2009 09:36:27 15.4 C 8.15 g/m*3 15.4 C 0 km/h
2930 23-06-2009 09:48:26 16.2 C 8.14 g/m*3 16.2 C 0 km/h
2931 23-06-2009 10:00:26 16.6 C 7.63 g/m*3 16.6 C 0 km/h
2932 23-06-2009 10:12:26 17.1 C 8.01 g/m*3 17.1 C 0 km/h
2933 23-06-2009 10:24:02 17.2 C 8.05 g/m*3 17.2 C 0 km/h
2934 23-06-2009 10:36:02 17.5 C 8.05 g/m*3 17.5 C 0 km/h
2935 23-06-2009 10:48:01 18 C 7.68 g/m*3 18 C 0 km/h
2936 23-06-2009 11:00:01 18.2 C 7.46 g/m*3 18.2 C 0 km/h
2937 23-06-2009 11:12:02 19.4 C 7.51 g/m*3 19.4 C 0 km/h
2938 23-06-2009 11:24:02 20.2 C 7.34 g/m*3 20.2 C 0 km/h
2939 23-06-2009 11:36:01 20.1 C 7.47 g/m*3 20.1 C 0 km/h
2940 23-06-2009 11:48:02 21.2 C 7.97 g/m*3 21.2 C 0 km/h
2941 23-06-2009 12:00:02 20.8 C 7.42 g/m*3 20.8 C 0 km/h
2942 23-06-2009 12:12:01 21.8 C 6.91 g/m*3 21.8 C 0 km/h
2943 23-06-2009 12:24:01 21.5 C 6.79 g/m*3 21.5 C 0 km/h
2944 23-06-2009 12:36:00 23.2 C 6.44 g/m*3 23.2 C 0 km/h
2945 23-06-2009 12:48:01 24.2 C 6.38 g/m*3 24.2 C 0 km/h
2946 23-06-2009 13:00:01 24 C 6.31 g/m*3 24 C 0 km/h
2947 23-06-2009 13:12:00 24.8 C 6.37 g/m*3 24.8 C 0 km/h
2948 23-06-2009 13:24:00 24.5 C 6.27 g/m*3 24.5 C 0 km/h
2949 23-06-2009 13:36:01 24.1 C 6.35 g/m*3 24.1 C 0 km/h
2950 23-06-2009 13:48:00 24.9 C 6.18 g/m*3 24.9 C 0 km/h
Sensor: Nr:Datum:Temp:Abs-Feuchte:Windchill:Wind:
Aussen-T/F 2951 23-06-2009 14:00:00 23.8 C 5.81 g/m*3 23.8 C 0 km/h
2952 23-06-2009 14:12:00 24.4 C 5.79 g/m*3 24.4 C 0 km/h
2953 23-06-2009 14:24:00 24.3 C 5.97 g/m*3 24.3 C 0 km/h
2954 23-06-2009 14:36:00 25.2 C 6.05 g/m*3 25.2 C 0 km/h
2955 23-06-2009 14:48:59 24.7 C 5.66 g/m*3 24.7 C 0 km/h
2956 23-06-2009 14:59:59 24.6 C 5.63 g/m*3 24.6 C 0 km/h
2957 23-06-2009 15:12:00 24.6 C 5.63 g/m*3 24.6 C 0 km/h
2958 23-06-2009 15:24:59 25.1 C 5.79 g/m*3 25.1 C 0 km/h
2959 23-06-2009 15:36:59 26.6 C 5.54 g/m*3 26.6 C 0 km/h
2960 23-06-2009 15:48:58 25.6 C 5.71 g/m*3 25.6 C 0 km/h
2961 23-06-2009 16:00:59 25.9 C 5.08 g/m*3 25.9 C 0 km/h
2962 23-06-2009 16:12:59 26.8 C 5.6 g/m*3 26.8 C 0 km/h
2963 23-06-2009 16:24:59 27.4 C 5.26 g/m*3 27.4 C 0 km/h
2964 23-06-2009 16:36:58 25.8 C 5.54 g/m*3 25.8 C 0 km/h
2965 23-06-2009 16:48:59 26 C 5.84 g/m*3 26 C 0 km/h
2966 23-06-2009 17:00:58 25.2 C 5.35 g/m*3 25.2 C 0 km/h
2967 23-06-2009 17:12:58 24.7 C 5.66 g/m*3 24.7 C 0 km/h
2968 23-06-2009 17:24:58 24.8 C 5.69 g/m*3 24.8 C 0 km/h
2969 23-06-2009 17:36:57 24.5 C 5.37 g/m*3 24.5 C 0 km/h
2970 23-06-2009 17:48:58 24.7 C 5.66 g/m*3 24.7 C 0 km/h
2971 23-06-2009 18:00:58 27.3 C 5.49 g/m*3 27.3 C 0 km/h
2972 23-06-2009 18:12:58 27.2 C 5.46 g/m*3 27.2 C 0 km/h
2973 23-06-2009 18:24:57 28.1 C 5.47 g/m*3 28.1 C 0 km/h
2974 23-06-2009 18:36:58 29.5 C 5.9 g/m*3 29.5 C 0 km/h
2975 23-06-2009 18:48:57 28.3 C 5.53 g/m*3 28.3 C 0 km/h
Sensor: Nr:Datum:Temp:Abs-Feuchte:Windchill:Wind:
Aussen-T/F 2976 23-06-2009 19:00:57 26.2 C 5.17 g/m*3 26.2 C 0 km/h
2977 23-06-2009 19:12:57 25.1 C 5.56 g/m*3 25.1 C 0 km/h
2978 23-06-2009 19:24:57 24.4 C 5.56 g/m*3 24.4 C 0 km/h
2979 23-06-2009 19:36:57 24.5 C 5.6 g/m*3 24.5 C 0 km/h
2980 23-06-2009 19:48:56 23.9 C 5.62 g/m*3 23.9 C 0 km/h
2981 23-06-2009 20:00:56 23.5 C 5.71 g/m*3 23.5 C 0 km/h
2982 23-06-2009 20:12:56 23.7 C 5.78 g/m*3 23.7 C 0 km/h
2983 23-06-2009 20:24:57 24.4 C 5.79 g/m*3 24.4 C 0 km/h
2984 23-06-2009 20:36:56 24.1 C 5.69 g/m*3 24.1 C 0 km/h
2985 23-06-2009 20:48:56 23.5 C 6.13 g/m*3 23.5 C 0 km/h
2986 23-06-2009 21:00:56 22.9 C 6.34 g/m*3 22.9 C 0 km/h
2987 23-06-2009 21:12:56 22.3 C 6.91 g/m*3 22.3 C 0 km/h
2988 23-06-2009 21:24:56 21.6 C 7.21 g/m*3 21.6 C 0 km/h
2989 23-06-2009 21:36:56 20.9 C 7.29 g/m*3 20.9 C 0 km/h
2990 23-06-2009 21:48:55 20.4 C 7.25 g/m*3 20.4 C 0 km/h
2991 23-06-2009 22:00:56 19.8 C 7.17 g/m*3 19.8 C 0 km/h
2992 23-06-2009 22:12:56 19.5 C 7.22 g/m*3 19.5 C 0 km/h
2993 23-06-2009 22:25:57 19.5 C 7.38 g/m*3 19.5 C 0 km/h
2994 23-06-2009 22:37:57 19.2 C 7.42 g/m*3 19.2 C 0 km/h
2995 23-06-2009 22:49:57 18.9 C 7.45 g/m*3 18.9 C 0 km/h
2996 23-06-2009 23:01:57 18.7 C 7.68 g/m*3 18.7 C 0 km/h
2997 23-06-2009 23:13:57 18.6 C 7.64 g/m*3 18.6 C 0 km/h
2998 23-06-2009 23:25:57 18.6 C 7.64 g/m*3 18.6 C 0 km/h
2999 23-06-2009 23:37:57 18.5 C 7.91 g/m*3 18.5 C 0 km/h
3000 23-06-2009 23:49:57 18.5 C 7.75 g/m*3 18.5 C 0 km/h
Sensor: Nr:Datum:Temp:Abs-Feuchte:Windchill:Wind:
Aussen-T/F 3001 24-06-2009 00:01:57 18.4 C 7.86 g/m*3 18.4 C 0 km/h
3002 24-06-2009 00:13:57 18.3 C 7.97 g/m*3 18.3 C 0 km/h
3003 24-06-2009 00:25:57 18.1 C 7.88 g/m*3 18.1 C 0 km/h
3004 24-06-2009 00:37:57 18.1 C 7.88 g/m*3 18.1 C 0 km/h
3005 24-06-2009 00:49:57 17.8 C 7.89 g/m*3 17.8 C 0 km/h
3006 24-06-2009 01:01:57 17.6 C 8.1 g/m*3 17.6 C 0 km/h
3007 24-06-2009 01:13:57 17.5 C 7.9 g/m*3 17.5 C 0 km/h
3008 24-06-2009 01:25:57 17.5 C 7.9 g/m*3 17.5 C 0 km/h
3009 24-06-2009 01:37:57 17.3 C 7.96 g/m*3 17.3 C 0 km/h
3010 24-06-2009 01:49:57 17 C 7.67 g/m*3 17 C 0 km/h
3011 24-06-2009 02:01:57 17 C 7.67 g/m*3 17 C 0 km/h
3012 24-06-2009 02:13:57 16.9 C 7.91 g/m*3 16.9 C 0 km/h
3013 24-06-2009 02:25:58 16.4 C 7.68 g/m*3 16.4 C 0 km/h
3014 24-06-2009 02:37:58 16.3 C 7.63 g/m*3 16.3 C 0 km/h
3015 24-06-2009 02:49:58 16.1 C 7.54 g/m*3 16.1 C 0 km/h
3016 24-06-2009 03:01:58 15.7 C 7.63 g/m*3 15.7 C 0 km/h
3017 24-06-2009 03:13:58 15.5 C 7.67 g/m*3 15.5 C 0 km/h
3018 24-06-2009 03:25:58 15.3 C 7.57 g/m*3 15.3 C 0 km/h
3019 24-06-2009 03:37:58 15 C 7.57 g/m*3 15 C 0 km/h
3020 24-06-2009 03:49:58 14.8 C 7.73 g/m*3 14.8 C 0 km/h
3021 24-06-2009 04:01:58 14.7 C 7.68 g/m*3 14.7 C 0 km/h
3022 24-06-2009 04:13:58 14.4 C 7.66 g/m*3 14.4 C 0 km/h
3023 24-06-2009 04:25:58 14.4 C 7.66 g/m*3 14.4 C 0 km/h
3024 24-06-2009 04:37:58 14.3 C 7.62 g/m*3 14.3 C 0 km/h
3025 24-06-2009 04:49:58 14.4 C 7.54 g/m*3 14.4 C 0 km/h
Sensor: Nr:Datum:Temp:Abs-Feuchte:Windchill:Wind:
Aussen-T/F 3026 24-06-2009 05:01:58 14.1 C 7.4 g/m*3 14.1 C 0 km/h
3027 24-06-2009 05:13:58 13.8 C 7.39 g/m*3 13.8 C 0 km/h
3028 24-06-2009 05:25:58 13.7 C 7.34 g/m*3 13.7 C 0 km/h
3029 24-06-2009 05:37:58 13.6 C 7.53 g/m*3 13.6 C 0 km/h
3030 24-06-2009 05:49:58 13.6 C 7.3 g/m*3 13.6 C 0 km/h
3031 24-06-2009 06:01:58 13.5 C 7.25 g/m*3 13.5 C 0 km/h
3032 24-06-2009 06:13:59 13.6 C 7.3 g/m*3 13.6 C 0 km/h
3033 24-06-2009 06:25:59 13.6 C 7.3 g/m*3 13.6 C 0 km/h
3034 24-06-2009 06:37:59 13.6 C 7.53 g/m*3 13.6 C 0 km/h
3035 24-06-2009 06:49:59 13.5 C 7.49 g/m*3 13.5 C 0 km/h
3036 24-06-2009 07:01:56 13.7 C 7.58 g/m*3 13.7 C 0 km/h
3037 24-06-2009 07:13:56 13.7 C 7.46 g/m*3 13.7 C 0 km/h
3038 24-06-2009 07:25:56 13.9 C 7.55 g/m*3 13.9 C 0 km/h
3039 24-06-2009 07:37:56 14.1 C 7.4 g/m*3 14.1 C 0 km/h
3040 24-06-2009 07:49:56 14.2 C 7.45 g/m*3 14.2 C 0 km/h
3041 24-06-2009 08:01:56 14.6 C 7.51 g/m*3 14.6 C 0 km/h
3042 24-06-2009 08:13:56 14.8 C 7.47 g/m*3 14.8 C 0 km/h
3043 24-06-2009 08:25:56 15.2 C 7.53 g/m*3 15.2 C 0 km/h
3044 24-06-2009 08:37:56 15.4 C 7.62 g/m*3 15.4 C 0 km/h
3045 24-06-2009 08:49:55 16 C 7.77 g/m*3 16 C 0 km/h
3046 24-06-2009 09:01:56 16.6 C 7.2 g/m*3 16.6 C 0 km/h
3047 24-06-2009 09:13:56 17.3 C 7.51 g/m*3 17.3 C 0 km/h
3048 24-06-2009 09:25:55 17.8 C 7.29 g/m*3 17.8 C 0 km/h
3049 24-06-2009 09:37:55 18.3 C 7.19 g/m*3 18.3 C 0 km/h
3050 24-06-2009 09:49:54 18.8 C 7.25 g/m*3 18.8 C 0 km/h
Sensor: Nr:Datum:Temp:Abs-Feuchte:Windchill:Wind:
Aussen-T/F 3051 24-06-2009 10:01:55 19.4 C 6.84 g/m*3 19.4 C 0 km/h
3052 24-06-2009 10:13:55 20.4 C 7.25 g/m*3 20.4 C 0 km/h
3053 24-06-2009 10:25:54 21.1 C 6.82 g/m*3 21.1 C 0 km/h
3054 24-06-2009 10:37:54 21.5 C 6.22 g/m*3 21.5 C 0 km/h
3055 24-06-2009 10:49:54 22 C 6.02 g/m*3 22 C 0 km/h
3056 24-06-2009 11:01:54 22.4 C 5.96 g/m*3 22.4 C 0 km/h
3057 24-06-2009 11:13:54 22.8 C 6.1 g/m*3 22.8 C 0 km/h
3058 24-06-2009 11:25:54 23.2 C 6.24 g/m*3 23.2 C 0 km/h
3059 24-06-2009 11:37:54 23.8 C 6.02 g/m*3 23.8 C 0 km/h
3060 24-06-2009 11:49:54 24.6 C 5.63 g/m*3 24.6 C 0 km/h
3061 24-06-2009 12:01:53 25.6 C 6.19 g/m*3 25.6 C 0 km/h
3062 24-06-2009 12:13:53 26 C 5.6 g/m*3 26 C 0 km/h
3063 24-06-2009 12:25:54 26.4 C 5.97 g/m*3 26.4 C 0 km/h
3064 24-06-2009 12:37:53 27.2 C 5.46 g/m*3 27.2 C 0 km/h
3065 24-06-2009 12:49:53 27.7 C 5.62 g/m*3 27.7 C 0 km/h
3066 24-06-2009 13:01:52 28.5 C 5.59 g/m*3 28.5 C 0 km/h
3067 24-06-2009 13:13:52 29 C 5.74 g/m*3 29 C 0 km/h
3068 24-06-2009 13:25:53 29.5 C 5.9 g/m*3 29.5 C 0 km/h
3069 24-06-2009 13:37:53 29.8 C 6 g/m*3 29.8 C 0 km/h
3070 24-06-2009 13:49:52 29.7 C 5.97 g/m*3 29.7 C 0 km/h
3071 24-06-2009 14:01:53 29.5 C 5.9 g/m*3 29.5 C 0 km/h
3072 24-06-2009 14:13:53 28.6 C 5.62 g/m*3 28.6 C 0 km/h
3073 24-06-2009 14:25:52 28.1 C 5.74 g/m*3 28.1 C 0 km/h
3074 24-06-2009 14:37:52 28.5 C 6.43 g/m*3 28.5 C 0 km/h
3075 24-06-2009 14:49:52 28.8 C 5.97 g/m*3 28.8 C 0 km/h
Sensor: Nr:Datum:Temp:Abs-Feuchte:Windchill:Wind:
Aussen-T/F 3076 24-06-2009 15:01:52 29.4 C 5.87 g/m*3 29.4 C 0 km/h
3077 24-06-2009 15:13:52 29.9 C 6.03 g/m*3 29.9 C 0 km/h
3078 24-06-2009 15:25:51 30.3 C 6.16 g/m*3 30.3 C 0 km/h
3079 24-06-2009 15:37:51 30.1 C 6.1 g/m*3 30.1 C 0 km/h
3080 24-06-2009 15:49:52 30.4 C 6.2 g/m*3 30.4 C 0 km/h
3081 24-06-2009 16:01:51 30.6 C 6.26 g/m*3 30.6 C 0 km/h
3082 24-06-2009 16:13:51 30.9 C 6.37 g/m*3 30.9 C 0 km/h
3083 24-06-2009 16:25:51 31.2 C 6.47 g/m*3 31.2 C 0 km/h
3084 24-06-2009 16:37:51 31.2 C 6.47 g/m*3 31.2 C 0 km/h
3085 24-06-2009 16:49:51 31.3 C 6.5 g/m*3 31.3 C 0 km/h
3086 24-06-2009 17:01:50 31.7 C 6.64 g/m*3 31.7 C 0 km/h
3087 24-06-2009 17:13:50 31.8 C 6.68 g/m*3 31.8 C 0 km/h
3088 24-06-2009 17:25:51 31.7 C 6.64 g/m*3 31.7 C 0 km/h
3089 24-06-2009 17:37:51 32.3 C 6.86 g/m*3 32.3 C 0 km/h
3090 24-06-2009 17:49:50 31.9 C 6.72 g/m*3 31.9 C 0 km/h
3091 24-06-2009 18:01:50 32.1 C 6.79 g/m*3 32.1 C 0 km/h
3092 24-06-2009 18:13:50 32.1 C 6.79 g/m*3 32.1 C 0 km/h
3093 24-06-2009 18:25:50 31.7 C 6.64 g/m*3 31.7 C 0 km/h
3094 24-06-2009 18:37:50 31.2 C 6.47 g/m*3 31.2 C 0 km/h
3095 24-06-2009 18:49:49 30.5 C 6.23 g/m*3 30.5 C 0 km/h
3096 24-06-2009 19:01:50 30 C 6.67 g/m*3 30 C 0 km/h
3097 24-06-2009 19:13:51 29 C 6.89 g/m*3 29 C 0 km/h
3098 24-06-2009 19:25:49 30.7 C 6.3 g/m*3 30.7 C 0 km/h
3099 24-06-2009 19:37:49 30.2 C 6.44 g/m*3 30.2 C 0 km/h
3100 24-06-2009 19:49:49 28.6 C 7.31 g/m*3 28.6 C 0 km/h
Sensor: Nr:Datum:Temp:Abs-Feuchte:Windchill:Wind:
Aussen-T/F 3101 24-06-2009 20:01:49 28.3 C 7.74 g/m*3 28.3 C 0 km/h
3102 24-06-2009 20:13:49 27.3 C 7.85 g/m*3 27.3 C 0 km/h
3103 24-06-2009 20:25:49 26.5 C 7.76 g/m*3 26.5 C 0 km/h
3104 24-06-2009 20:37:48 25.8 C 7.7 g/m*3 25.8 C 0 km/h
3105 24-06-2009 20:49:49 24.9 C 8.01 g/m*3 24.9 C 0 km/h
3106 24-06-2009 21:01:48 24.4 C 7.79 g/m*3 24.4 C 0 km/h
3107 24-06-2009 21:13:48 24 C 7.83 g/m*3 24 C 0 km/h
3108 24-06-2009 21:25:48 23.7 C 7.91 g/m*3 23.7 C 0 km/h
3109 24-06-2009 21:37:48 23.7 C 8.13 g/m*3 23.7 C 0 km/h
3110 24-06-2009 21:49:48 23.8 C 8.39 g/m*3 23.8 C 0 km/h
3111 24-06-2009 22:02:01 23.6 C 8.29 g/m*3 23.6 C 0 km/h
3112 24-06-2009 22:14:01 23.5 C 8.46 g/m*3 23.5 C 0 km/h
3113 24-06-2009 22:26:01 23.3 C 8.15 g/m*3 23.3 C 0 km/h
3114 24-06-2009 22:38:01 23.3 C 8.15 g/m*3 23.3 C 0 km/h
3115 24-06-2009 22:50:01 23.1 C 7.86 g/m*3 23.1 C 0 km/h
3116 24-06-2009 23:02:02 22.7 C 8.08 g/m*3 22.7 C 0 km/h
3117 24-06-2009 23:14:02 22.5 C 8.19 g/m*3 22.5 C 0 km/h
3118 24-06-2009 23:26:02 22.4 C 8.14 g/m*3 22.4 C 0 km/h
3119 24-06-2009 23:38:02 21.9 C 8.49 g/m*3 21.9 C 0 km/h
3120 24-06-2009 23:50:02 21.6 C 8.35 g/m*3 21.6 C 0 km/h
3121 25-06-2009 00:02:02 21.4 C 8.44 g/m*3 21.4 C 0 km/h
3122 25-06-2009 00:14:02 21.3 C 8.39 g/m*3 21.3 C 0 km/h
3123 25-06-2009 00:26:02 21.5 C 8.67 g/m*3 21.5 C 0 km/h
3124 25-06-2009 00:38:02 21.4 C 8.81 g/m*3 21.4 C 0 km/h
3125 25-06-2009 00:50:02 20.9 C 9.11 g/m*3 20.9 C 0 km/h
Sensor: Nr:Datum:Temp:Abs-Feuchte:Windchill:Wind:
Aussen-T/F 3126 25-06-2009 01:02:02 20.7 C 9 g/m*3 20.7 C 0 km/h
3127 25-06-2009 01:14:02 20.6 C 8.95 g/m*3 20.6 C 0 km/h
3128 25-06-2009 01:26:02 20.2 C 8.74 g/m*3 20.2 C 0 km/h
3129 25-06-2009 01:38:02 19.7 C 8.83 g/m*3 19.7 C 0 km/h
3130 25-06-2009 01:50:02 19.3 C 8.79 g/m*3 19.3 C 0 km/h
3131 25-06-2009 02:02:02 19.1 C 9.02 g/m*3 19.1 C 0 km/h
3132 25-06-2009 02:14:02 18.8 C 9.18 g/m*3 18.8 C 0 km/h
3133 25-06-2009 02:26:02 18.7 C 9.13 g/m*3 18.7 C 0 km/h
3134 25-06-2009 02:38:02 18.5 C 9.02 g/m*3 18.5 C 0 km/h
3135 25-06-2009 02:50:02 18.2 C 9.01 g/m*3 18.2 C 0 km/h
3136 25-06-2009 03:02:03 18.1 C 9.12 g/m*3 18.1 C 0 km/h
3137 25-06-2009 03:14:03 17.9 C 9.31 g/m*3 17.9 C 0 km/h
3138 25-06-2009 03:26:03 17.7 C 9.35 g/m*3 17.7 C 0 km/h
3139 25-06-2009 03:38:03 17.4 C 9.34 g/m*3 17.4 C 0 km/h
3140 25-06-2009 03:50:03 17.1 C 9.61 g/m*3 17.1 C 0 km/h
3141 25-06-2009 04:02:03 16.7 C 9.52 g/m*3 16.7 C 0 km/h
3142 25-06-2009 04:14:03 16.7 C 9.38 g/m*3 16.7 C 0 km/h
3143 25-06-2009 04:26:03 16.7 C 9.38 g/m*3 16.7 C 0 km/h
3144 25-06-2009 04:38:03 16.5 C 9.13 g/m*3 16.5 C 0 km/h
3145 25-06-2009 04:50:03 16.4 C 9.07 g/m*3 16.4 C 0 km/h
3146 25-06-2009 05:02:03 16.3 C 9.16 g/m*3 16.3 C 0 km/h
3147 25-06-2009 05:14:03 16.1 C 9.05 g/m*3 16.1 C 0 km/h
3148 25-06-2009 05:26:03 15.9 C 9.21 g/m*3 15.9 C 0 km/h
3149 25-06-2009 05:38:03 15.9 C 9.21 g/m*3 15.9 C 0 km/h
3150 25-06-2009 05:50:03 16 C 8.99 g/m*3 16 C 0 km/h
Sensor: Nr:Datum:Temp:Abs-Feuchte:Windchill:Wind:
Aussen-T/F 3151 25-06-2009 06:02:03 16.1 C 9.05 g/m*3 16.1 C 0 km/h
3152 25-06-2009 06:14:03 16.1 C 9.18 g/m*3 16.1 C 0 km/h
3153 25-06-2009 06:26:01 16.1 C 9.32 g/m*3 16.1 C 0 km/h
3154 25-06-2009 06:38:02 16.2 C 9.38 g/m*3 16.2 C 0 km/h
3155 25-06-2009 06:50:01 16.1 C 9.46 g/m*3 16.1 C 0 km/h
3156 25-06-2009 07:02:01 16.3 C 9.57 g/m*3 16.3 C 0 km/h
3157 25-06-2009 07:14:01 16.4 C 9.63 g/m*3 16.4 C 0 km/h
3158 25-06-2009 07:26:01 16.6 C 9.61 g/m*3 16.6 C 0 km/h
3159 25-06-2009 07:38:00 16.6 C 9.46 g/m*3 16.6 C 0 km/h
3160 25-06-2009 07:50:01 16.9 C 9.64 g/m*3 16.9 C 0 km/h
3161 25-06-2009 08:02:01 17.3 C 9.87 g/m*3 17.3 C 0 km/h
3162 25-06-2009 08:14:01 17.7 C 9.81 g/m*3 17.7 C 0 km/h
3163 25-06-2009 08:26:00 18 C 9.83 g/m*3 18 C 0 km/h
3164 25-06-2009 08:38:00 18.5 C 9.81 g/m*3 18.5 C 0 km/h
3165 25-06-2009 08:50:00 19.2 C 9.07 g/m*3 19.2 C 0 km/h
3166 25-06-2009 09:02:00 19.7 C 9.34 g/m*3 19.7 C 0 km/h
3167 25-06-2009 09:14:00 20.3 C 9.15 g/m*3 20.3 C 0 km/h
3168 25-06-2009 09:26:59 20.8 C 9.23 g/m*3 20.8 C 0 km/h
3169 25-06-2009 09:38:00 21.4 C 9.37 g/m*3 21.4 C 0 km/h
3170 25-06-2009 09:50:59 21.7 C 8.97 g/m*3 21.7 C 0 km/h
3171 25-06-2009 10:02:59 22 C 8.73 g/m*3 22 C 0 km/h
3172 25-06-2009 10:14:00 23 C 9.25 g/m*3 23 C 0 km/h
3173 25-06-2009 10:26:00 23.5 C 9.09 g/m*3 23.5 C 0 km/h
3174 25-06-2009 10:38:59 23.8 C 9.25 g/m*3 23.8 C 0 km/h
3175 25-06-2009 10:50:59 24.4 C 9.12 g/m*3 24.4 C 0 km/h
Sensor: Nr:Datum:Temp:Abs-Feuchte:Windchill:Wind:
Aussen-T/F 3176 25-06-2009 11:02:59 24.8 C 9.1 g/m*3 24.8 C 0 km/h
3177 25-06-2009 11:14:59 26.1 C 9.06 g/m*3 26.1 C 0 km/h
3178 25-06-2009 11:26:59 26.2 C 8.37 g/m*3 26.2 C 0 km/h
3179 25-06-2009 11:38:58 26.3 C 9.16 g/m*3 26.3 C 0 km/h
3180 25-06-2009 11:50:59 26.9 C 8.7 g/m*3 26.9 C 0 km/h
3181 25-06-2009 12:02:58 26.8 C 8.91 g/m*3 26.8 C 0 km/h
3182 25-06-2009 12:14:58 27.9 C 8.65 g/m*3 27.9 C 0 km/h
3183 25-06-2009 12:26:58 28.4 C 8.34 g/m*3 28.4 C 0 km/h
3184 25-06-2009 12:38:58 28.8 C 8.81 g/m*3 28.8 C 0 km/h
3185 25-06-2009 12:50:58 30.1 C 8.54 g/m*3 30.1 C 0 km/h
3186 25-06-2009 13:02:57 30.3 C 8.32 g/m*3 30.3 C 0 km/h
3187 25-06-2009 13:14:57 31 C 8 g/m*3 31 C 0 km/h
3188 25-06-2009 13:26:57 30 C 8.19 g/m*3 30 C 0 km/h
3189 25-06-2009 13:38:58 30.7 C 7.87 g/m*3 30.7 C 0 km/h
3190 25-06-2009 13:50:57 30.2 C 8.28 g/m*3 30.2 C 0 km/h
3191 25-06-2009 14:02:57 29.7 C 8.65 g/m*3 29.7 C 0 km/h
3192 25-06-2009 14:14:57 30.6 C 7.83 g/m*3 30.6 C 0 km/h
3193 25-06-2009 14:26:57 30.4 C 8.37 g/m*3 30.4 C 0 km/h
3194 25-06-2009 14:38:57 30.4 C 8.37 g/m*3 30.4 C 0 km/h
3195 25-06-2009 14:50:56 31.1 C 8.04 g/m*3 31.1 C 0 km/h
3196 25-06-2009 15:02:57 31.3 C 7.81 g/m*3 31.3 C 0 km/h
3197 25-06-2009 15:14:56 30.9 C 8.28 g/m*3 30.9 C 0 km/h
3198 25-06-2009 15:26:56 31.2 C 8.09 g/m*3 31.2 C 0 km/h
3199 25-06-2009 15:38:56 31.9 C 7.39 g/m*3 31.9 C 0 km/h
3200 25-06-2009 15:50:56 31.9 C 7.05 g/m*3 31.9 C 0 km/h
Sensor: Nr:Datum:Temp:Abs-Feuchte:Windchill:Wind:
Aussen-T/F 3201 25-06-2009 16:02:56 31.5 C 8.22 g/m*3 31.5 C 0 km/h
3202 25-06-2009 16:14:56 31.8 C 7.35 g/m*3 31.8 C 0 km/h
3203 25-06-2009 16:26:56 31.8 C 7.01 g/m*3 31.8 C 0 km/h
3204 25-06-2009 16:38:55 31.7 C 7.31 g/m*3 31.7 C 0 km/h
3205 25-06-2009 16:50:56 32.3 C 6.86 g/m*3 32.3 C 0 km/h
3206 25-06-2009 17:02:55 32.5 C 6.93 g/m*3 32.5 C 0 km/h
3207 25-06-2009 17:14:55 32.5 C 6.93 g/m*3 32.5 C 0 km/h
3208 25-06-2009 17:26:55 32.4 C 6.9 g/m*3 32.4 C 0 km/h
3209 25-06-2009 17:38:55 32.7 C 7.01 g/m*3 32.7 C 0 km/h
3210 25-06-2009 17:50:55 32.6 C 6.97 g/m*3 32.6 C 0 km/h
3211 25-06-2009 18:02:54 32.3 C 6.86 g/m*3 32.3 C 0 km/h
3212 25-06-2009 18:14:55 31.7 C 6.64 g/m*3 31.7 C 0 km/h
3213 25-06-2009 18:26:55 31.3 C 8.13 g/m*3 31.3 C 0 km/h
3214 25-06-2009 18:38:55 30.8 C 8.55 g/m*3 30.8 C 0 km/h
3215 25-06-2009 18:50:54 29.9 C 9.05 g/m*3 29.9 C 0 km/h
3216 25-06-2009 19:02:55 29.2 C 9 g/m*3 29.2 C 0 km/h
3217 25-06-2009 19:14:54 27.9 C 9.47 g/m*3 27.9 C 0 km/h
3218 25-06-2009 19:26:54 28 C 9.79 g/m*3 28 C 0 km/h
3219 25-06-2009 19:38:54 30 C 9.4 g/m*3 30 C 0 km/h
3220 25-06-2009 19:50:54 30.6 C 9.08 g/m*3 30.6 C 0 km/h
3221 25-06-2009 20:02:54 31 C 8.64 g/m*3 31 C 0 km/h
3222 25-06-2009 20:14:53 30.7 C 8.5 g/m*3 30.7 C 0 km/h
3223 25-06-2009 20:26:53 30.2 C 9.5 g/m*3 30.2 C 0 km/h
3224 25-06-2009 20:38:53 28.8 C 9.94 g/m*3 28.8 C 0 km/h
3225 25-06-2009 20:50:53 27.5 C 10.32 g/m*3 27.5 C 0 km/h
Sensor: Nr:Datum:Temp:Abs-Feuchte:Windchill:Wind:
Aussen-T/F 3226